<?xml version="1.0" encoding="UTF-8"?>
<gpx version="1.1" creator="2bulu-scraper" xmlns="http://www.topografix.com/GPX/1/1">
  <metadata><name>威信谢家坳</name><desc>source: 2bulu.com trackId=88394586; exported 2026-09-01T14:27:22.289Z</desc>
    <bounds minlat="27.868734" minlon="105.236836" maxlat="27.889322" maxlon="105.245511"/>
    <link href="https://www.2bulu.com/track/t-Ka1j2EXcTYrp%252FR2KBg5Tzw%253D%253D.htm"><text>2bulu 源页面</text></link>
  </metadata>
  <wpt lat="27.884417" lon="105.237555"><ele>1308</ele><name></name></wpt>
  <wpt lat="27.884762" lon="105.237428"><ele>1308</ele><name></name></wpt>
  <wpt lat="27.884762" lon="105.23742"><ele>1310</ele><name></name></wpt>
  <wpt lat="27.884762" lon="105.237388"><ele>1310</ele><name></name></wpt>
  <wpt lat="27.885025" lon="105.237458"><ele>1307</ele><name></name></wpt>
  <wpt lat="27.885175" lon="105.237412"><ele>1307</ele><name></name></wpt>
  <wpt lat="27.885242" lon="105.237403"><ele>1309</ele><name></name></wpt>
  <wpt lat="27.886933" lon="105.23732"><ele>1313</ele><name></name></wpt>
  <wpt lat="27.88738" lon="105.237237"><ele>1317</ele><name></name></wpt>
  <wpt lat="27.887542" lon="105.237267"><ele>1312</ele><name></name></wpt>
  <wpt lat="27.888012" lon="105.237153"><ele>1310</ele><name></name></wpt>
  <wpt lat="27.889312" lon="105.2369"><ele>1317</ele><name></name></wpt>
  <wpt lat="27.889313" lon="105.2369"><ele>1316</ele><name></name></wpt>
  <wpt lat="27.889312" lon="105.236847"><ele>1319</ele><name></name></wpt>
  <wpt lat="27.889312" lon="105.236847"><ele>1319</ele><name></name></wpt>
  <wpt lat="27.889112" lon="105.236917"><ele>1316</ele><name></name></wpt>
  <wpt lat="27.888653" lon="105.2369"><ele>1316</ele><name></name></wpt>
  <wpt lat="27.888088" lon="105.237183"><ele>1307</ele><name></name></wpt>
  <wpt lat="27.887645" lon="105.237258"><ele>1308</ele><name></name></wpt>
  <wpt lat="27.887292" lon="105.23732"><ele>1314</ele><name></name></wpt>
  <wpt lat="27.886538" lon="105.237328"><ele>1308</ele><name></name></wpt>
  <wpt lat="27.886545" lon="105.237342"><ele>1308</ele><name></name></wpt>
  <wpt lat="27.883395" lon="105.238358"><ele>1300</ele><name></name></wpt>
  <wpt lat="27.883363" lon="105.238358"><ele>1301</ele><name></name></wpt>
  <wpt lat="27.883247" lon="105.238425"><ele>1300</ele><name></name></wpt>
  <wpt lat="27.883142" lon="105.238412"><ele>1304</ele><name></name></wpt>
  <wpt lat="27.883087" lon="105.238425"><ele>1305</ele><name></name></wpt>
  <wpt lat="27.882472" lon="105.238495"><ele>1296</ele><name></name></wpt>
  <wpt lat="27.882405" lon="105.238495"><ele>1295</ele><name></name></wpt>
  <wpt lat="27.881958" lon="105.2389"><ele>1299</ele><name></name></wpt>
  <wpt lat="27.881947" lon="105.23893"><ele>1299</ele><name></name></wpt>
  <wpt lat="27.881717" lon="105.239242"><ele>1298</ele><name></name></wpt>
  <wpt lat="27.881697" lon="105.239258"><ele>1301</ele><name></name></wpt>
  <wpt lat="27.880845" lon="105.240045"><ele>1321</ele><name></name></wpt>
  <wpt lat="27.879162" lon="105.240983"><ele>1311</ele><name></name></wpt>
  <wpt lat="27.877895" lon="105.242355"><ele>1274</ele><name></name></wpt>
  <trk><name>威信谢家坳</name>
      <trkseg>
        <trkpt lat="27.879183" lon="105.240796"><ele>1305.1829</ele><time>2026-08-12T22:34:31.000Z</time></trkpt>
        <trkpt lat="27.879214" lon="105.24075"><ele>1305.0077</ele><time>2026-08-12T22:34:44.000Z</time></trkpt>
        <trkpt lat="27.879214" lon="105.24075"><ele>1305.5438</ele><time>2026-08-12T22:34:46.000Z</time></trkpt>
        <trkpt lat="27.879218" lon="105.240744"><ele>1306.7369</ele><time>2026-08-12T22:34:48.000Z</time></trkpt>
        <trkpt lat="27.879252" lon="105.240681"><ele>1307.7698</ele><time>2026-08-12T22:34:52.000Z</time></trkpt>
        <trkpt lat="27.879272" lon="105.240645"><ele>1308.7078</ele><time>2026-08-12T22:34:54.000Z</time></trkpt>
        <trkpt lat="27.879292" lon="105.240611"><ele>1308.5901</ele><time>2026-08-12T22:34:56.000Z</time></trkpt>
        <trkpt lat="27.879312" lon="105.240583"><ele>1309.4296</ele><time>2026-08-12T22:34:58.000Z</time></trkpt>
        <trkpt lat="27.879334" lon="105.240557"><ele>1308.5656</ele><time>2026-08-12T22:35:00.000Z</time></trkpt>
        <trkpt lat="27.879355" lon="105.240537"><ele>1307.899</ele><time>2026-08-12T22:35:02.000Z</time></trkpt>
        <trkpt lat="27.879376" lon="105.240523"><ele>1307.6621</ele><time>2026-08-12T22:35:04.000Z</time></trkpt>
        <trkpt lat="27.879395" lon="105.240508"><ele>1305.6812</ele><time>2026-08-12T22:35:06.000Z</time></trkpt>
        <trkpt lat="27.879415" lon="105.240494"><ele>1303.85</ele><time>2026-08-12T22:35:08.000Z</time></trkpt>
        <trkpt lat="27.879434" lon="105.240481"><ele>1302.081</ele><time>2026-08-12T22:35:10.000Z</time></trkpt>
        <trkpt lat="27.879456" lon="105.240463"><ele>1301.4885</ele><time>2026-08-12T22:35:12.000Z</time></trkpt>
        <trkpt lat="27.879479" lon="105.240442"><ele>1300.1642</ele><time>2026-08-12T22:35:14.000Z</time></trkpt>
        <trkpt lat="27.879503" lon="105.240421"><ele>1300.2925</ele><time>2026-08-12T22:35:16.000Z</time></trkpt>
        <trkpt lat="27.879528" lon="105.240401"><ele>1299.4705</ele><time>2026-08-12T22:35:18.000Z</time></trkpt>
        <trkpt lat="27.879553" lon="105.240383"><ele>1298.5065</ele><time>2026-08-12T22:35:20.000Z</time></trkpt>
        <trkpt lat="27.879578" lon="105.240366"><ele>1297.4431</ele><time>2026-08-12T22:35:22.000Z</time></trkpt>
        <trkpt lat="27.879602" lon="105.240349"><ele>1296.9674</ele><time>2026-08-12T22:35:24.000Z</time></trkpt>
        <trkpt lat="27.879627" lon="105.240337"><ele>1296.2336</ele><time>2026-08-12T22:35:26.000Z</time></trkpt>
        <trkpt lat="27.879652" lon="105.240326"><ele>1295.0549</ele><time>2026-08-12T22:35:28.000Z</time></trkpt>
        <trkpt lat="27.879678" lon="105.240316"><ele>1294.5814</ele><time>2026-08-12T22:35:30.000Z</time></trkpt>
        <trkpt lat="27.879703" lon="105.240306"><ele>1292.9327</ele><time>2026-08-12T22:35:32.000Z</time></trkpt>
        <trkpt lat="27.879725" lon="105.240294"><ele>1291.6785</ele><time>2026-08-12T22:35:34.000Z</time></trkpt>
        <trkpt lat="27.879744" lon="105.240278"><ele>1289.8333</ele><time>2026-08-12T22:35:36.000Z</time></trkpt>
        <trkpt lat="27.87976" lon="105.24026"><ele>1289.3848</ele><time>2026-08-12T22:35:38.000Z</time></trkpt>
        <trkpt lat="27.879766" lon="105.240238"><ele>1289.4425</ele><time>2026-08-12T22:35:40.000Z</time></trkpt>
        <trkpt lat="27.879768" lon="105.240218"><ele>1288.9792</ele><time>2026-08-12T22:35:42.000Z</time></trkpt>
        <trkpt lat="27.879773" lon="105.240196"><ele>1289.2653</ele><time>2026-08-12T22:35:44.000Z</time></trkpt>
        <trkpt lat="27.879782" lon="105.240183"><ele>1290.021</ele><time>2026-08-12T22:35:46.000Z</time></trkpt>
        <trkpt lat="27.879797" lon="105.240169"><ele>1289.8817</ele><time>2026-08-12T22:35:48.000Z</time></trkpt>
        <trkpt lat="27.879813" lon="105.240156"><ele>1290.4688</ele><time>2026-08-12T22:35:50.000Z</time></trkpt>
        <trkpt lat="27.87983" lon="105.240151"><ele>1291.3593</ele><time>2026-08-12T22:35:52.000Z</time></trkpt>
        <trkpt lat="27.879854" lon="105.240146"><ele>1290.3959</ele><time>2026-08-12T22:35:54.000Z</time></trkpt>
        <trkpt lat="27.87988" lon="105.240139"><ele>1291.0155</ele><time>2026-08-12T22:35:56.000Z</time></trkpt>
        <trkpt lat="27.879908" lon="105.240126"><ele>1291.6216</ele><time>2026-08-12T22:35:58.000Z</time></trkpt>
        <trkpt lat="27.879936" lon="105.240108"><ele>1291.8765</ele><time>2026-08-12T22:36:00.000Z</time></trkpt>
        <trkpt lat="27.879964" lon="105.240087"><ele>1291.3872</ele><time>2026-08-12T22:36:02.000Z</time></trkpt>
        <trkpt lat="27.879991" lon="105.240065"><ele>1290.7458</ele><time>2026-08-12T22:36:04.000Z</time></trkpt>
        <trkpt lat="27.880014" lon="105.240046"><ele>1290.9137</ele><time>2026-08-12T22:36:06.000Z</time></trkpt>
        <trkpt lat="27.880035" lon="105.240035"><ele>1291.7655</ele><time>2026-08-12T22:36:08.000Z</time></trkpt>
        <trkpt lat="27.880059" lon="105.240029"><ele>1292.8607</ele><time>2026-08-12T22:36:10.000Z</time></trkpt>
        <trkpt lat="27.880088" lon="105.240028"><ele>1292.9923</ele><time>2026-08-12T22:36:12.000Z</time></trkpt>
        <trkpt lat="27.88012" lon="105.240026"><ele>1292.5853</ele><time>2026-08-12T22:36:14.000Z</time></trkpt>
        <trkpt lat="27.88015" lon="105.24002"><ele>1291.9263</ele><time>2026-08-12T22:36:16.000Z</time></trkpt>
        <trkpt lat="27.880179" lon="105.24001"><ele>1294.1605</ele><time>2026-08-12T22:36:18.000Z</time></trkpt>
        <trkpt lat="27.880208" lon="105.24"><ele>1293.3732</ele><time>2026-08-12T22:36:20.000Z</time></trkpt>
        <trkpt lat="27.880236" lon="105.239987"><ele>1292.2979</ele><time>2026-08-12T22:36:22.000Z</time></trkpt>
        <trkpt lat="27.880261" lon="105.239968"><ele>1291.5253</ele><time>2026-08-12T22:36:24.000Z</time></trkpt>
        <trkpt lat="27.880285" lon="105.23995"><ele>1290.1849</ele><time>2026-08-12T22:36:26.000Z</time></trkpt>
        <trkpt lat="27.880309" lon="105.239935"><ele>1288.5984</ele><time>2026-08-12T22:36:28.000Z</time></trkpt>
        <trkpt lat="27.880333" lon="105.239926"><ele>1287.077</ele><time>2026-08-12T22:36:30.000Z</time></trkpt>
        <trkpt lat="27.880358" lon="105.239924"><ele>1284.3198</ele><time>2026-08-12T22:36:32.000Z</time></trkpt>
        <trkpt lat="27.880386" lon="105.239929"><ele>1282.468</ele><time>2026-08-12T22:36:34.000Z</time></trkpt>
        <trkpt lat="27.880415" lon="105.239942"><ele>1281.7802</ele><time>2026-08-12T22:36:36.000Z</time></trkpt>
        <trkpt lat="27.880447" lon="105.239958"><ele>1281.5671</ele><time>2026-08-12T22:36:38.000Z</time></trkpt>
        <trkpt lat="27.880477" lon="105.239975"><ele>1280.9128</ele><time>2026-08-12T22:36:41.000Z</time></trkpt>
        <trkpt lat="27.880505" lon="105.239988"><ele>1278.934</ele><time>2026-08-12T22:36:43.000Z</time></trkpt>
        <trkpt lat="27.88053" lon="105.239998"><ele>1278.9927</ele><time>2026-08-12T22:36:45.000Z</time></trkpt>
        <trkpt lat="27.880556" lon="105.240008"><ele>1279.0016</ele><time>2026-08-12T22:36:47.000Z</time></trkpt>
        <trkpt lat="27.880578" lon="105.24001"><ele>1278.9012</ele><time>2026-08-12T22:36:49.000Z</time></trkpt>
        <trkpt lat="27.880598" lon="105.240003"><ele>1278.6538</ele><time>2026-08-12T22:36:51.000Z</time></trkpt>
        <trkpt lat="27.880621" lon="105.239993"><ele>1278.4584</ele><time>2026-08-12T22:36:53.000Z</time></trkpt>
        <trkpt lat="27.880648" lon="105.239983"><ele>1278.2653</ele><time>2026-08-12T22:36:55.000Z</time></trkpt>
        <trkpt lat="27.880677" lon="105.239975"><ele>1277.8282</ele><time>2026-08-12T22:36:57.000Z</time></trkpt>
        <trkpt lat="27.880705" lon="105.239967"><ele>1278.1897</ele><time>2026-08-12T22:36:59.000Z</time></trkpt>
        <trkpt lat="27.880731" lon="105.239961"><ele>1278.2657</ele><time>2026-08-12T22:37:01.000Z</time></trkpt>
        <trkpt lat="27.880752" lon="105.239957"><ele>1278.6743</ele><time>2026-08-12T22:37:03.000Z</time></trkpt>
        <trkpt lat="27.880774" lon="105.239956"><ele>1276.901</ele><time>2026-08-12T22:37:05.000Z</time></trkpt>
        <trkpt lat="27.880799" lon="105.239954"><ele>1276.648</ele><time>2026-08-12T22:37:07.000Z</time></trkpt>
        <trkpt lat="27.880825" lon="105.239952"><ele>1275.1061</ele><time>2026-08-12T22:37:09.000Z</time></trkpt>
        <trkpt lat="27.880853" lon="105.239946"><ele>1274.3165</ele><time>2026-08-12T22:37:11.000Z</time></trkpt>
        <trkpt lat="27.880875" lon="105.239938"><ele>1273.3011</ele><time>2026-08-12T22:37:13.000Z</time></trkpt>
        <trkpt lat="27.880898" lon="105.239925"><ele>1272.1643</ele><time>2026-08-12T22:37:15.000Z</time></trkpt>
        <trkpt lat="27.880924" lon="105.239908"><ele>1272.5615</ele><time>2026-08-12T22:37:17.000Z</time></trkpt>
        <trkpt lat="27.880947" lon="105.239894"><ele>1271.8207</ele><time>2026-08-12T22:37:19.000Z</time></trkpt>
        <trkpt lat="27.88097" lon="105.239882"><ele>1272.9009</ele><time>2026-08-12T22:37:21.000Z</time></trkpt>
        <trkpt lat="27.880989" lon="105.23987"><ele>1272.1267</ele><time>2026-08-12T22:37:23.000Z</time></trkpt>
        <trkpt lat="27.881009" lon="105.239856"><ele>1272.547</ele><time>2026-08-12T22:37:25.000Z</time></trkpt>
        <trkpt lat="27.881027" lon="105.239842"><ele>1273.2876</ele><time>2026-08-12T22:37:27.000Z</time></trkpt>
        <trkpt lat="27.881046" lon="105.239827"><ele>1272.3253</ele><time>2026-08-12T22:37:29.000Z</time></trkpt>
        <trkpt lat="27.881065" lon="105.239807"><ele>1271.333</ele><time>2026-08-12T22:37:31.000Z</time></trkpt>
        <trkpt lat="27.881083" lon="105.23979"><ele>1272.7018</ele><time>2026-08-12T22:37:33.000Z</time></trkpt>
        <trkpt lat="27.881098" lon="105.239775"><ele>1271.5656</ele><time>2026-08-12T22:37:35.000Z</time></trkpt>
        <trkpt lat="27.881114" lon="105.239759"><ele>1272.0442</ele><time>2026-08-12T22:37:37.000Z</time></trkpt>
        <trkpt lat="27.881134" lon="105.239743"><ele>1273.0255</ele><time>2026-08-12T22:37:39.000Z</time></trkpt>
        <trkpt lat="27.881155" lon="105.239728"><ele>1272.0514</ele><time>2026-08-12T22:37:40.000Z</time></trkpt>
        <trkpt lat="27.881179" lon="105.23971"><ele>1272.7902</ele><time>2026-08-12T22:37:42.000Z</time></trkpt>
        <trkpt lat="27.881201" lon="105.239688"><ele>1273.2894</ele><time>2026-08-12T22:37:44.000Z</time></trkpt>
        <trkpt lat="27.881223" lon="105.239664"><ele>1273.51</ele><time>2026-08-12T22:37:46.000Z</time></trkpt>
        <trkpt lat="27.881245" lon="105.239639"><ele>1273.5333</ele><time>2026-08-12T22:37:48.000Z</time></trkpt>
        <trkpt lat="27.88126" lon="105.239614"><ele>1274.089</ele><time>2026-08-12T22:37:50.000Z</time></trkpt>
        <trkpt lat="27.881272" lon="105.239588"><ele>1274.2683</ele><time>2026-08-12T22:37:52.000Z</time></trkpt>
        <trkpt lat="27.881284" lon="105.239563"><ele>1274.5973</ele><time>2026-08-12T22:37:54.000Z</time></trkpt>
        <trkpt lat="27.881298" lon="105.23954"><ele>1274.2461</ele><time>2026-08-12T22:37:56.000Z</time></trkpt>
        <trkpt lat="27.881313" lon="105.239516"><ele>1274.0891</ele><time>2026-08-12T22:37:58.000Z</time></trkpt>
        <trkpt lat="27.881327" lon="105.239492"><ele>1274.2777</ele><time>2026-08-12T22:38:00.000Z</time></trkpt>
        <trkpt lat="27.881343" lon="105.239471"><ele>1274.5627</ele><time>2026-08-12T22:38:02.000Z</time></trkpt>
        <trkpt lat="27.881361" lon="105.239455"><ele>1274.3702</ele><time>2026-08-12T22:38:04.000Z</time></trkpt>
        <trkpt lat="27.881381" lon="105.239437"><ele>1274.3269</ele><time>2026-08-12T22:38:06.000Z</time></trkpt>
        <trkpt lat="27.881397" lon="105.239423"><ele>1273.6079</ele><time>2026-08-12T22:38:08.000Z</time></trkpt>
        <trkpt lat="27.88141" lon="105.239405"><ele>1273.5776</ele><time>2026-08-12T22:38:10.000Z</time></trkpt>
        <trkpt lat="27.881422" lon="105.239386"><ele>1272.3938</ele><time>2026-08-12T22:38:12.000Z</time></trkpt>
        <trkpt lat="27.88143" lon="105.239369"><ele>1271.5511</ele><time>2026-08-12T22:38:14.000Z</time></trkpt>
        <trkpt lat="27.881436" lon="105.239356"><ele>1271.3573</ele><time>2026-08-12T22:38:16.000Z</time></trkpt>
        <trkpt lat="27.881445" lon="105.239342"><ele>1270.6299</ele><time>2026-08-12T22:38:18.000Z</time></trkpt>
        <trkpt lat="27.881457" lon="105.239329"><ele>1270.0526</ele><time>2026-08-12T22:38:20.000Z</time></trkpt>
        <trkpt lat="27.881468" lon="105.239315"><ele>1270.4456</ele><time>2026-08-12T22:38:22.000Z</time></trkpt>
        <trkpt lat="27.881481" lon="105.239301"><ele>1277.5726</ele><time>2026-08-12T22:38:24.000Z</time></trkpt>
        <trkpt lat="27.881495" lon="105.239291"><ele>1284.0336</ele><time>2026-08-12T22:38:26.000Z</time></trkpt>
        <trkpt lat="27.88151" lon="105.239285"><ele>1287.2301</ele><time>2026-08-12T22:38:28.000Z</time></trkpt>
        <trkpt lat="27.881523" lon="105.239275"><ele>1288.9738</ele><time>2026-08-12T22:38:30.000Z</time></trkpt>
        <trkpt lat="27.881535" lon="105.23926"><ele>1290.9369</ele><time>2026-08-12T22:38:32.000Z</time></trkpt>
        <trkpt lat="27.881549" lon="105.239235"><ele>1291.1749</ele><time>2026-08-12T22:38:34.000Z</time></trkpt>
        <trkpt lat="27.881564" lon="105.239206"><ele>1290.5857</ele><time>2026-08-12T22:38:36.000Z</time></trkpt>
        <trkpt lat="27.881583" lon="105.239178"><ele>1291.8374</ele><time>2026-08-12T22:38:38.000Z</time></trkpt>
        <trkpt lat="27.881603" lon="105.239153"><ele>1292.2461</ele><time>2026-08-12T22:38:40.000Z</time></trkpt>
        <trkpt lat="27.881622" lon="105.239126"><ele>1292.3962</ele><time>2026-08-12T22:38:42.000Z</time></trkpt>
        <trkpt lat="27.881641" lon="105.239102"><ele>1292.48</ele><time>2026-08-12T22:38:44.000Z</time></trkpt>
        <trkpt lat="27.881662" lon="105.239086"><ele>1293.587</ele><time>2026-08-12T22:38:47.000Z</time></trkpt>
        <trkpt lat="27.881684" lon="105.239076"><ele>1292.4894</ele><time>2026-08-12T22:38:49.000Z</time></trkpt>
        <trkpt lat="27.881708" lon="105.239075"><ele>1291.9812</ele><time>2026-08-12T22:38:51.000Z</time></trkpt>
        <trkpt lat="27.881736" lon="105.239079"><ele>1291.5977</ele><time>2026-08-12T22:38:53.000Z</time></trkpt>
        <trkpt lat="27.881763" lon="105.239082"><ele>1291.3531</ele><time>2026-08-12T22:38:55.000Z</time></trkpt>
        <trkpt lat="27.881788" lon="105.239079"><ele>1290.4092</ele><time>2026-08-12T22:38:57.000Z</time></trkpt>
        <trkpt lat="27.881807" lon="105.239068"><ele>1289.5205</ele><time>2026-08-12T22:38:59.000Z</time></trkpt>
        <trkpt lat="27.881823" lon="105.23905"><ele>1290.0778</ele><time>2026-08-12T22:39:01.000Z</time></trkpt>
        <trkpt lat="27.881836" lon="105.239024"><ele>1291.5542</ele><time>2026-08-12T22:39:03.000Z</time></trkpt>
        <trkpt lat="27.881847" lon="105.238991"><ele>1293.5116</ele><time>2026-08-12T22:39:05.000Z</time></trkpt>
        <trkpt lat="27.88186" lon="105.23896"><ele>1295.4485</ele><time>2026-08-12T22:39:07.000Z</time></trkpt>
        <trkpt lat="27.881873" lon="105.238933"><ele>1295.9862</ele><time>2026-08-12T22:39:09.000Z</time></trkpt>
        <trkpt lat="27.881889" lon="105.238908"><ele>1297.0063</ele><time>2026-08-12T22:39:11.000Z</time></trkpt>
        <trkpt lat="27.881905" lon="105.238885"><ele>1298.1554</ele><time>2026-08-12T22:39:13.000Z</time></trkpt>
        <trkpt lat="27.881923" lon="105.238862"><ele>1298.0947</ele><time>2026-08-12T22:39:15.000Z</time></trkpt>
        <trkpt lat="27.881942" lon="105.238842"><ele>1298.7611</ele><time>2026-08-12T22:39:17.000Z</time></trkpt>
        <trkpt lat="27.88196" lon="105.238825"><ele>1298.7871</ele><time>2026-08-12T22:39:19.000Z</time></trkpt>
        <trkpt lat="27.881972" lon="105.23881"><ele>1298.7278</ele><time>2026-08-12T22:39:21.000Z</time></trkpt>
        <trkpt lat="27.88198" lon="105.238799"><ele>1297.9418</ele><time>2026-08-12T22:39:23.000Z</time></trkpt>
        <trkpt lat="27.88199" lon="105.238785"><ele>1297.7952</ele><time>2026-08-12T22:39:25.000Z</time></trkpt>
        <trkpt lat="27.882002" lon="105.238769"><ele>1298.0078</ele><time>2026-08-12T22:39:27.000Z</time></trkpt>
        <trkpt lat="27.882013" lon="105.238754"><ele>1297.8328</ele><time>2026-08-12T22:39:29.000Z</time></trkpt>
        <trkpt lat="27.882021" lon="105.238739"><ele>1296.7809</ele><time>2026-08-12T22:39:31.000Z</time></trkpt>
        <trkpt lat="27.882033" lon="105.238719"><ele>1297.0437</ele><time>2026-08-12T22:39:33.000Z</time></trkpt>
        <trkpt lat="27.882052" lon="105.238697"><ele>1296.2484</ele><time>2026-08-12T22:39:35.000Z</time></trkpt>
        <trkpt lat="27.882078" lon="105.238675"><ele>1295.984</ele><time>2026-08-12T22:39:37.000Z</time></trkpt>
        <trkpt lat="27.882102" lon="105.238658"><ele>1295.9652</ele><time>2026-08-12T22:39:39.000Z</time></trkpt>
        <trkpt lat="27.882126" lon="105.238644"><ele>1295.1733</ele><time>2026-08-12T22:39:41.000Z</time></trkpt>
        <trkpt lat="27.882151" lon="105.238628"><ele>1295.0449</ele><time>2026-08-12T22:39:43.000Z</time></trkpt>
        <trkpt lat="27.882174" lon="105.238611"><ele>1294.1562</ele><time>2026-08-12T22:39:45.000Z</time></trkpt>
        <trkpt lat="27.882198" lon="105.238596"><ele>1293.5955</ele><time>2026-08-12T22:39:47.000Z</time></trkpt>
        <trkpt lat="27.882224" lon="105.238583"><ele>1293.025</ele><time>2026-08-12T22:39:49.000Z</time></trkpt>
        <trkpt lat="27.882249" lon="105.238569"><ele>1292.0491</ele><time>2026-08-12T22:39:51.000Z</time></trkpt>
        <trkpt lat="27.882275" lon="105.238556"><ele>1292.0833</ele><time>2026-08-12T22:39:53.000Z</time></trkpt>
        <trkpt lat="27.8823" lon="105.23854"><ele>1291.5724</ele><time>2026-08-12T22:39:54.000Z</time></trkpt>
        <trkpt lat="27.882325" lon="105.238527"><ele>1290.1825</ele><time>2026-08-12T22:39:56.000Z</time></trkpt>
        <trkpt lat="27.88235" lon="105.238519"><ele>1289.4281</ele><time>2026-08-12T22:39:58.000Z</time></trkpt>
        <trkpt lat="27.882372" lon="105.238516"><ele>1289.3743</ele><time>2026-08-12T22:40:00.000Z</time></trkpt>
        <trkpt lat="27.882392" lon="105.238515"><ele>1287.3307</ele><time>2026-08-12T22:40:02.000Z</time></trkpt>
        <trkpt lat="27.882407" lon="105.23851"><ele>1286.7719</ele><time>2026-08-12T22:40:04.000Z</time></trkpt>
        <trkpt lat="27.882422" lon="105.238503"><ele>1287.8895</ele><time>2026-08-12T22:40:06.000Z</time></trkpt>
        <trkpt lat="27.882438" lon="105.238498"><ele>1289.3999</ele><time>2026-08-12T22:40:08.000Z</time></trkpt>
        <trkpt lat="27.882448" lon="105.238496"><ele>1289.9246</ele><time>2026-08-12T22:40:10.000Z</time></trkpt>
        <trkpt lat="27.882454" lon="105.238492"><ele>1290.1967</ele><time>2026-08-12T22:40:12.000Z</time></trkpt>
        <trkpt lat="27.882465" lon="105.238486"><ele>1290.8318</ele><time>2026-08-12T22:40:14.000Z</time></trkpt>
        <trkpt lat="27.882481" lon="105.238477"><ele>1291.7317</ele><time>2026-08-12T22:40:16.000Z</time></trkpt>
        <trkpt lat="27.882503" lon="105.238466"><ele>1292.1427</ele><time>2026-08-12T22:40:18.000Z</time></trkpt>
        <trkpt lat="27.882524" lon="105.23846"><ele>1293.0299</ele><time>2026-08-12T22:40:20.000Z</time></trkpt>
        <trkpt lat="27.882556" lon="105.238455"><ele>1292.7745</ele><time>2026-08-12T22:40:22.000Z</time></trkpt>
        <trkpt lat="27.882584" lon="105.23845"><ele>1292.4575</ele><time>2026-08-12T22:40:24.000Z</time></trkpt>
        <trkpt lat="27.882612" lon="105.238441"><ele>1293.5587</ele><time>2026-08-12T22:40:26.000Z</time></trkpt>
        <trkpt lat="27.882639" lon="105.238427"><ele>1293.6586</ele><time>2026-08-12T22:40:28.000Z</time></trkpt>
        <trkpt lat="27.882667" lon="105.238415"><ele>1293.9186</ele><time>2026-08-12T22:40:30.000Z</time></trkpt>
        <trkpt lat="27.882691" lon="105.238412"><ele>1293.8473</ele><time>2026-08-12T22:40:32.000Z</time></trkpt>
        <trkpt lat="27.882712" lon="105.238414"><ele>1294.5542</ele><time>2026-08-12T22:40:34.000Z</time></trkpt>
        <trkpt lat="27.882734" lon="105.238419"><ele>1294.9711</ele><time>2026-08-12T22:40:36.000Z</time></trkpt>
        <trkpt lat="27.882755" lon="105.238426"><ele>1294.442</ele><time>2026-08-12T22:40:38.000Z</time></trkpt>
        <trkpt lat="27.882778" lon="105.238435"><ele>1294.0989</ele><time>2026-08-12T22:40:40.000Z</time></trkpt>
        <trkpt lat="27.882797" lon="105.238443"><ele>1295.1863</ele><time>2026-08-12T22:40:42.000Z</time></trkpt>
        <trkpt lat="27.882813" lon="105.238449"><ele>1295.8541</ele><time>2026-08-12T22:40:44.000Z</time></trkpt>
        <trkpt lat="27.882825" lon="105.238452"><ele>1296.8495</ele><time>2026-08-12T22:40:46.000Z</time></trkpt>
        <trkpt lat="27.882847" lon="105.238456"><ele>1294.7568</ele><time>2026-08-12T22:40:48.000Z</time></trkpt>
        <trkpt lat="27.88287" lon="105.238458"><ele>1295.4656</ele><time>2026-08-12T22:40:50.000Z</time></trkpt>
        <trkpt lat="27.882893" lon="105.238459"><ele>1296.589</ele><time>2026-08-12T22:40:53.000Z</time></trkpt>
        <trkpt lat="27.882912" lon="105.238462"><ele>1296.5292</ele><time>2026-08-12T22:40:55.000Z</time></trkpt>
        <trkpt lat="27.882936" lon="105.238466"><ele>1296.2147</ele><time>2026-08-12T22:40:57.000Z</time></trkpt>
        <trkpt lat="27.882958" lon="105.238467"><ele>1296.385</ele><time>2026-08-12T22:40:59.000Z</time></trkpt>
        <trkpt lat="27.882979" lon="105.238464"><ele>1296.7142</ele><time>2026-08-12T22:41:01.000Z</time></trkpt>
        <trkpt lat="27.883" lon="105.238458"><ele>1297.5297</ele><time>2026-08-12T22:41:03.000Z</time></trkpt>
        <trkpt lat="27.883023" lon="105.238453"><ele>1298.1768</ele><time>2026-08-12T22:41:05.000Z</time></trkpt>
        <trkpt lat="27.883048" lon="105.238446"><ele>1298.5906</ele><time>2026-08-12T22:41:07.000Z</time></trkpt>
        <trkpt lat="27.883073" lon="105.238435"><ele>1298.6208</ele><time>2026-08-12T22:41:09.000Z</time></trkpt>
        <trkpt lat="27.88309" lon="105.238422"><ele>1298.9954</ele><time>2026-08-12T22:41:11.000Z</time></trkpt>
        <trkpt lat="27.883102" lon="105.238412"><ele>1299.4215</ele><time>2026-08-12T22:41:13.000Z</time></trkpt>
        <trkpt lat="27.883116" lon="105.238406"><ele>1298.5978</ele><time>2026-08-12T22:41:15.000Z</time></trkpt>
        <trkpt lat="27.88313" lon="105.238405"><ele>1298.3296</ele><time>2026-08-12T22:41:17.000Z</time></trkpt>
        <trkpt lat="27.883149" lon="105.238405"><ele>1298.235</ele><time>2026-08-12T22:41:19.000Z</time></trkpt>
        <trkpt lat="27.88316" lon="105.238406"><ele>1298.1903</ele><time>2026-08-12T22:41:21.000Z</time></trkpt>
        <trkpt lat="27.883168" lon="105.238407"><ele>1297.9899</ele><time>2026-08-12T22:41:23.000Z</time></trkpt>
        <trkpt lat="27.883182" lon="105.238405"><ele>1298.392</ele><time>2026-08-12T22:41:25.000Z</time></trkpt>
        <trkpt lat="27.883204" lon="105.238401"><ele>1297.7476</ele><time>2026-08-12T22:41:27.000Z</time></trkpt>
        <trkpt lat="27.883229" lon="105.238398"><ele>1297.0693</ele><time>2026-08-12T22:41:29.000Z</time></trkpt>
        <trkpt lat="27.883256" lon="105.238395"><ele>1296.888</ele><time>2026-08-12T22:41:31.000Z</time></trkpt>
        <trkpt lat="27.88328" lon="105.238393"><ele>1296.4939</ele><time>2026-08-12T22:41:33.000Z</time></trkpt>
        <trkpt lat="27.883299" lon="105.238393"><ele>1296.0924</ele><time>2026-08-12T22:41:35.000Z</time></trkpt>
        <trkpt lat="27.883318" lon="105.238392"><ele>1295.5095</ele><time>2026-08-12T22:41:37.000Z</time></trkpt>
        <trkpt lat="27.883333" lon="105.238385"><ele>1294.7639</ele><time>2026-08-12T22:41:39.000Z</time></trkpt>
        <trkpt lat="27.883349" lon="105.238374"><ele>1294.6056</ele><time>2026-08-12T22:41:41.000Z</time></trkpt>
        <trkpt lat="27.883374" lon="105.238359"><ele>1295.7692</ele><time>2026-08-12T22:41:43.000Z</time></trkpt>
        <trkpt lat="27.883399" lon="105.238344"><ele>1293.6772</ele><time>2026-08-12T22:41:45.000Z</time></trkpt>
        <trkpt lat="27.88342" lon="105.238331"><ele>1291.2296</ele><time>2026-08-12T22:41:47.000Z</time></trkpt>
        <trkpt lat="27.883443" lon="105.238312"><ele>1290.2654</ele><time>2026-08-12T22:41:49.000Z</time></trkpt>
        <trkpt lat="27.883463" lon="105.238292"><ele>1293.6555</ele><time>2026-08-12T22:41:51.000Z</time></trkpt>
        <trkpt lat="27.883483" lon="105.238274"><ele>1295.487</ele><time>2026-08-12T22:41:53.000Z</time></trkpt>
        <trkpt lat="27.883504" lon="105.238255"><ele>1297.4412</ele><time>2026-08-12T22:41:54.000Z</time></trkpt>
        <trkpt lat="27.88352" lon="105.238239"><ele>1298.757</ele><time>2026-08-12T22:41:56.000Z</time></trkpt>
        <trkpt lat="27.88354" lon="105.238225"><ele>1299.9755</ele><time>2026-08-12T22:41:58.000Z</time></trkpt>
        <trkpt lat="27.88356" lon="105.238212"><ele>1300.0802</ele><time>2026-08-12T22:42:01.000Z</time></trkpt>
        <trkpt lat="27.883581" lon="105.238196"><ele>1300.7872</ele><time>2026-08-12T22:42:03.000Z</time></trkpt>
        <trkpt lat="27.8836" lon="105.238181"><ele>1302.1041</ele><time>2026-08-12T22:42:05.000Z</time></trkpt>
        <trkpt lat="27.883623" lon="105.238166"><ele>1301.4993</ele><time>2026-08-12T22:42:07.000Z</time></trkpt>
        <trkpt lat="27.88365" lon="105.238152"><ele>1302.4202</ele><time>2026-08-12T22:42:09.000Z</time></trkpt>
        <trkpt lat="27.883677" lon="105.238142"><ele>1302.0642</ele><time>2026-08-12T22:42:11.000Z</time></trkpt>
        <trkpt lat="27.883703" lon="105.238137"><ele>1302.8369</ele><time>2026-08-12T22:42:13.000Z</time></trkpt>
        <trkpt lat="27.883726" lon="105.238131"><ele>1302.921</ele><time>2026-08-12T22:42:15.000Z</time></trkpt>
        <trkpt lat="27.88375" lon="105.238124"><ele>1303.6006</ele><time>2026-08-12T22:42:17.000Z</time></trkpt>
        <trkpt lat="27.88377" lon="105.238115"><ele>1303.7622</ele><time>2026-08-12T22:42:19.000Z</time></trkpt>
        <trkpt lat="27.883787" lon="105.238104"><ele>1303.7013</ele><time>2026-08-12T22:42:21.000Z</time></trkpt>
        <trkpt lat="27.8838" lon="105.238088"><ele>1303.4248</ele><time>2026-08-12T22:42:23.000Z</time></trkpt>
        <trkpt lat="27.883812" lon="105.23807"><ele>1303.0818</ele><time>2026-08-12T22:42:25.000Z</time></trkpt>
        <trkpt lat="27.88382" lon="105.238049"><ele>1302.8721</ele><time>2026-08-12T22:42:27.000Z</time></trkpt>
        <trkpt lat="27.883829" lon="105.238032"><ele>1302.4705</ele><time>2026-08-12T22:42:29.000Z</time></trkpt>
        <trkpt lat="27.883842" lon="105.238015"><ele>1302.9901</ele><time>2026-08-12T22:42:31.000Z</time></trkpt>
        <trkpt lat="27.88386" lon="105.238002"><ele>1302.9012</ele><time>2026-08-12T22:42:33.000Z</time></trkpt>
        <trkpt lat="27.883883" lon="105.237996"><ele>1303.2484</ele><time>2026-08-12T22:42:35.000Z</time></trkpt>
        <trkpt lat="27.883907" lon="105.237994"><ele>1303.3242</ele><time>2026-08-12T22:42:37.000Z</time></trkpt>
        <trkpt lat="27.883929" lon="105.237996"><ele>1303.1931</ele><time>2026-08-12T22:42:39.000Z</time></trkpt>
        <trkpt lat="27.883958" lon="105.237996"><ele>1303.2654</ele><time>2026-08-12T22:42:41.000Z</time></trkpt>
        <trkpt lat="27.883989" lon="105.237994"><ele>1303.4813</ele><time>2026-08-12T22:42:43.000Z</time></trkpt>
        <trkpt lat="27.884013" lon="105.23799"><ele>1303.1234</ele><time>2026-08-12T22:42:45.000Z</time></trkpt>
        <trkpt lat="27.884034" lon="105.237982"><ele>1302.9797</ele><time>2026-08-12T22:42:47.000Z</time></trkpt>
        <trkpt lat="27.88405" lon="105.237974"><ele>1302.5942</ele><time>2026-08-12T22:42:49.000Z</time></trkpt>
        <trkpt lat="27.884068" lon="105.237961"><ele>1301.4375</ele><time>2026-08-12T22:42:51.000Z</time></trkpt>
        <trkpt lat="27.884087" lon="105.237948"><ele>1301.3</ele><time>2026-08-12T22:42:53.000Z</time></trkpt>
        <trkpt lat="27.884104" lon="105.237937"><ele>1301.1337</ele><time>2026-08-12T22:42:55.000Z</time></trkpt>
        <trkpt lat="27.884124" lon="105.237925"><ele>1301.5267</ele><time>2026-08-12T22:42:57.000Z</time></trkpt>
        <trkpt lat="27.884145" lon="105.237915"><ele>1302.0654</ele><time>2026-08-12T22:42:59.000Z</time></trkpt>
        <trkpt lat="27.88417" lon="105.237907"><ele>1301.9066</ele><time>2026-08-12T22:43:01.000Z</time></trkpt>
        <trkpt lat="27.88419" lon="105.237898"><ele>1302.0251</ele><time>2026-08-12T22:43:03.000Z</time></trkpt>
        <trkpt lat="27.884208" lon="105.237886"><ele>1302.0936</ele><time>2026-08-12T22:43:05.000Z</time></trkpt>
        <trkpt lat="27.884227" lon="105.237872"><ele>1302.1857</ele><time>2026-08-12T22:43:07.000Z</time></trkpt>
        <trkpt lat="27.884245" lon="105.237861"><ele>1302.452</ele><time>2026-08-12T22:43:09.000Z</time></trkpt>
        <trkpt lat="27.884266" lon="105.237848"><ele>1303.02</ele><time>2026-08-12T22:43:11.000Z</time></trkpt>
        <trkpt lat="27.884284" lon="105.237835"><ele>1303.0411</ele><time>2026-08-12T22:43:13.000Z</time></trkpt>
        <trkpt lat="27.884301" lon="105.237822"><ele>1302.6382</ele><time>2026-08-12T22:43:15.000Z</time></trkpt>
        <trkpt lat="27.88432" lon="105.237804"><ele>1302.2391</ele><time>2026-08-12T22:43:17.000Z</time></trkpt>
        <trkpt lat="27.884334" lon="105.237788"><ele>1302.0511</ele><time>2026-08-12T22:43:19.000Z</time></trkpt>
        <trkpt lat="27.884351" lon="105.237766"><ele>1302.5515</ele><time>2026-08-12T22:43:21.000Z</time></trkpt>
        <trkpt lat="27.884369" lon="105.237744"><ele>1302.4523</ele><time>2026-08-12T22:43:23.000Z</time></trkpt>
        <trkpt lat="27.884387" lon="105.237724"><ele>1301.6616</ele><time>2026-08-12T22:43:25.000Z</time></trkpt>
        <trkpt lat="27.884404" lon="105.237704"><ele>1301.2908</ele><time>2026-08-12T22:43:27.000Z</time></trkpt>
        <trkpt lat="27.884419" lon="105.237686"><ele>1300.4841</ele><time>2026-08-12T22:43:29.000Z</time></trkpt>
        <trkpt lat="27.88443" lon="105.237668"><ele>1300.3433</ele><time>2026-08-12T22:43:31.000Z</time></trkpt>
        <trkpt lat="27.884438" lon="105.237651"><ele>1300.23</ele><time>2026-08-12T22:43:33.000Z</time></trkpt>
        <trkpt lat="27.884441" lon="105.237634"><ele>1300.6012</ele><time>2026-08-12T22:43:35.000Z</time></trkpt>
        <trkpt lat="27.884443" lon="105.237618"><ele>1300.8704</ele><time>2026-08-12T22:43:37.000Z</time></trkpt>
        <trkpt lat="27.884439" lon="105.237602"><ele>1302.2811</ele><time>2026-08-12T22:43:39.000Z</time></trkpt>
        <trkpt lat="27.884429" lon="105.237589"><ele>1303.431</ele><time>2026-08-12T22:43:41.000Z</time></trkpt>
        <trkpt lat="27.884418" lon="105.237578"><ele>1302.2091</ele><time>2026-08-12T22:43:43.000Z</time></trkpt>
        <trkpt lat="27.884404" lon="105.237568"><ele>1302.9647</ele><time>2026-08-12T22:43:45.000Z</time></trkpt>
        <trkpt lat="27.884403" lon="105.237568"><ele>1300.7604</ele><time>2026-08-12T22:43:47.000Z</time></trkpt>
        <trkpt lat="27.884426" lon="105.237534"><ele>1300.0533</ele><time>2026-08-12T22:43:57.000Z</time></trkpt>
        <trkpt lat="27.884426" lon="105.237534"><ele>1299.6698</ele><time>2026-08-12T22:43:59.000Z</time></trkpt>
        <trkpt lat="27.884424" lon="105.237534"><ele>1298.1143</ele><time>2026-08-12T22:44:01.000Z</time></trkpt>
        <trkpt lat="27.884461" lon="105.237522"><ele>1293.1696</ele><time>2026-08-12T22:44:33.000Z</time></trkpt>
        <trkpt lat="27.884465" lon="105.23752"><ele>1297.5221</ele><time>2026-08-12T22:44:35.000Z</time></trkpt>
        <trkpt lat="27.884466" lon="105.23752"><ele>1299.2949</ele><time>2026-08-12T22:44:37.000Z</time></trkpt>
        <trkpt lat="27.884491" lon="105.237525"><ele>1305.6857</ele><time>2026-08-12T22:44:57.000Z</time></trkpt>
        <trkpt lat="27.884511" lon="105.23752"><ele>1305.7478</ele><time>2026-08-12T22:44:59.000Z</time></trkpt>
        <trkpt lat="27.884533" lon="105.237515"><ele>1305.6151</ele><time>2026-08-12T22:45:01.000Z</time></trkpt>
        <trkpt lat="27.884534" lon="105.237514"><ele>1305.2845</ele><time>2026-08-12T22:45:03.000Z</time></trkpt>
        <trkpt lat="27.884546" lon="105.237512"><ele>1305.5526</ele><time>2026-08-12T22:45:07.000Z</time></trkpt>
        <trkpt lat="27.884576" lon="105.237506"><ele>1305.1962</ele><time>2026-08-12T22:45:31.000Z</time></trkpt>
        <trkpt lat="27.884576" lon="105.237506"><ele>1305.2123</ele><time>2026-08-12T22:45:33.000Z</time></trkpt>
        <trkpt lat="27.884578" lon="105.237503"><ele>1305.7931</ele><time>2026-08-12T22:45:35.000Z</time></trkpt>
        <trkpt lat="27.8846" lon="105.237479"><ele>1306.4856</ele><time>2026-08-12T22:45:39.000Z</time></trkpt>
        <trkpt lat="27.884617" lon="105.237458"><ele>1307.147</ele><time>2026-08-12T22:45:41.000Z</time></trkpt>
        <trkpt lat="27.884633" lon="105.23744"><ele>1308.2196</ele><time>2026-08-12T22:45:43.000Z</time></trkpt>
        <trkpt lat="27.88465" lon="105.237424"><ele>1308.1283</ele><time>2026-08-12T22:45:45.000Z</time></trkpt>
        <trkpt lat="27.884669" lon="105.237409"><ele>1308.7847</ele><time>2026-08-12T22:45:47.000Z</time></trkpt>
        <trkpt lat="27.884682" lon="105.237401"><ele>1308.7926</ele><time>2026-08-12T22:45:49.000Z</time></trkpt>
        <trkpt lat="27.884683" lon="105.237396"><ele>1308.7926</ele><time>2026-08-12T22:45:51.000Z</time></trkpt>
        <trkpt lat="27.884671" lon="105.237448"><ele>1312.7405</ele><time>2026-08-12T22:46:11.000Z</time></trkpt>
        <trkpt lat="27.884671" lon="105.23745"><ele>1312.7405</ele><time>2026-08-12T22:46:13.000Z</time></trkpt>
        <trkpt lat="27.884671" lon="105.23745"><ele>1312.7405</ele><time>2026-08-12T22:46:15.000Z</time></trkpt>
        <trkpt lat="27.884702" lon="105.23742"><ele>1312.412</ele><time>2026-08-12T22:46:40.000Z</time></trkpt>
        <trkpt lat="27.884702" lon="105.23742"><ele>1312.3481</ele><time>2026-08-12T22:46:42.000Z</time></trkpt>
        <trkpt lat="27.884704" lon="105.237416"><ele>1312.4524</ele><time>2026-08-12T22:46:44.000Z</time></trkpt>
        <trkpt lat="27.884715" lon="105.23738"><ele>1312.4308</ele><time>2026-08-12T22:46:54.000Z</time></trkpt>
        <trkpt lat="27.884714" lon="105.237378"><ele>1312.8516</ele><time>2026-08-12T22:46:56.000Z</time></trkpt>
        <trkpt lat="27.884709" lon="105.237378"><ele>1313.1368</ele><time>2026-08-12T22:46:58.000Z</time></trkpt>
        <trkpt lat="27.884755" lon="105.23737"><ele>1311.7513</ele><time>2026-08-12T22:47:30.000Z</time></trkpt>
        <trkpt lat="27.884771" lon="105.237366"><ele>1311.7014</ele><time>2026-08-12T22:47:32.000Z</time></trkpt>
        <trkpt lat="27.884772" lon="105.237367"><ele>1312.401</ele><time>2026-08-12T22:47:34.000Z</time></trkpt>
        <trkpt lat="27.884797" lon="105.237381"><ele>1311.1532</ele><time>2026-08-12T22:47:46.000Z</time></trkpt>
        <trkpt lat="27.884824" lon="105.237348"><ele>1310.9055</ele><time>2026-08-12T22:47:50.000Z</time></trkpt>
        <trkpt lat="27.884824" lon="105.237348"><ele>1310.7043</ele><time>2026-08-12T22:47:52.000Z</time></trkpt>
        <trkpt lat="27.884825" lon="105.237346"><ele>1310.7383</ele><time>2026-08-12T22:47:54.000Z</time></trkpt>
        <trkpt lat="27.884852" lon="105.237314"><ele>1309.7102</ele><time>2026-08-12T22:48:20.000Z</time></trkpt>
        <trkpt lat="27.88486" lon="105.237305"><ele>1309.7546</ele><time>2026-08-12T22:48:22.000Z</time></trkpt>
        <trkpt lat="27.884861" lon="105.237305"><ele>1309.8595</ele><time>2026-08-12T22:48:24.000Z</time></trkpt>
        <trkpt lat="27.884891" lon="105.237295"><ele>1309.4099</ele><time>2026-08-12T22:48:32.000Z</time></trkpt>
        <trkpt lat="27.88491" lon="105.23729"><ele>1309.864</ele><time>2026-08-12T22:48:34.000Z</time></trkpt>
        <trkpt lat="27.884911" lon="105.23729"><ele>1309.9823</ele><time>2026-08-12T22:48:36.000Z</time></trkpt>
        <trkpt lat="27.884925" lon="105.23729"><ele>1309.3698</ele><time>2026-08-12T22:48:40.000Z</time></trkpt>
        <trkpt lat="27.884941" lon="105.237289"><ele>1308.9888</ele><time>2026-08-12T22:48:42.000Z</time></trkpt>
        <trkpt lat="27.884957" lon="105.237288"><ele>1308.5479</ele><time>2026-08-12T22:48:44.000Z</time></trkpt>
        <trkpt lat="27.884974" lon="105.237284"><ele>1308.0907</ele><time>2026-08-12T22:48:46.000Z</time></trkpt>
        <trkpt lat="27.884987" lon="105.23728"><ele>1307.9955</ele><time>2026-08-12T22:48:48.000Z</time></trkpt>
        <trkpt lat="27.885" lon="105.237277"><ele>1307.2472</ele><time>2026-08-12T22:48:50.000Z</time></trkpt>
        <trkpt lat="27.885001" lon="105.237275"><ele>1306.0747</ele><time>2026-08-12T22:48:52.000Z</time></trkpt>
        <trkpt lat="27.88499" lon="105.237318"><ele>1306.049</ele><time>2026-08-12T22:49:18.000Z</time></trkpt>
        <trkpt lat="27.884987" lon="105.237325"><ele>1306.0062</ele><time>2026-08-12T22:49:20.000Z</time></trkpt>
        <trkpt lat="27.884974" lon="105.237343"><ele>1305.079</ele><time>2026-08-12T22:49:26.000Z</time></trkpt>
        <trkpt lat="27.884957" lon="105.237367"><ele>1304.66</ele><time>2026-08-12T22:49:28.000Z</time></trkpt>
        <trkpt lat="27.884956" lon="105.237368"><ele>1304.1406</ele><time>2026-08-12T22:49:30.000Z</time></trkpt>
        <trkpt lat="27.88495" lon="105.237372"><ele>1304.647</ele><time>2026-08-12T22:49:32.000Z</time></trkpt>
        <trkpt lat="27.884931" lon="105.237386"><ele>1304.43</ele><time>2026-08-12T22:49:34.000Z</time></trkpt>
        <trkpt lat="27.8849" lon="105.237403"><ele>1304.9263</ele><time>2026-08-12T22:49:36.000Z</time></trkpt>
        <trkpt lat="27.884866" lon="105.237417"><ele>1305.5337</ele><time>2026-08-12T22:49:38.000Z</time></trkpt>
        <trkpt lat="27.884833" lon="105.237428"><ele>1306.1272</ele><time>2026-08-12T22:49:40.000Z</time></trkpt>
        <trkpt lat="27.884809" lon="105.237435"><ele>1305.9698</ele><time>2026-08-12T22:49:42.000Z</time></trkpt>
        <trkpt lat="27.884785" lon="105.237437"><ele>1305.4531</ele><time>2026-08-12T22:49:44.000Z</time></trkpt>
        <trkpt lat="27.884769" lon="105.237435"><ele>1304.8535</ele><time>2026-08-12T22:49:46.000Z</time></trkpt>
        <trkpt lat="27.884758" lon="105.237433"><ele>1305.6611</ele><time>2026-08-12T22:49:48.000Z</time></trkpt>
        <trkpt lat="27.884755" lon="105.23743"><ele>1306.7764</ele><time>2026-08-12T22:49:50.000Z</time></trkpt>
        <trkpt lat="27.884734" lon="105.237416"><ele>1309.0009</ele><time>2026-08-12T22:50:00.000Z</time></trkpt>
        <trkpt lat="27.884728" lon="105.237413"><ele>1309.4688</ele><time>2026-08-12T22:50:02.000Z</time></trkpt>
        <trkpt lat="27.884727" lon="105.237414"><ele>1309.5602</ele><time>2026-08-12T22:50:04.000Z</time></trkpt>
        <trkpt lat="27.884774" lon="105.237358"><ele>1313.7708</ele><time>2026-08-12T22:55:19.000Z</time></trkpt>
        <trkpt lat="27.884773" lon="105.237358"><ele>1311.4174</ele><time>2026-08-12T22:55:21.000Z</time></trkpt>
        <trkpt lat="27.884773" lon="105.23736"><ele>1311.1926</ele><time>2026-08-12T22:55:22.000Z</time></trkpt>
        <trkpt lat="27.884761" lon="105.237446"><ele>1305.7091</ele><time>2026-08-12T23:01:39.000Z</time></trkpt>
        <trkpt lat="27.88481" lon="105.237447"><ele>1308.8617</ele><time>2026-08-12T23:13:31.000Z</time></trkpt>
        <trkpt lat="27.884815" lon="105.237463"><ele>1309.8544</ele><time>2026-08-12T23:13:33.000Z</time></trkpt>
        <trkpt lat="27.884831" lon="105.237484"><ele>1310.6732</ele><time>2026-08-12T23:13:35.000Z</time></trkpt>
        <trkpt lat="27.884874" lon="105.237551"><ele>1312.4325</ele><time>2026-08-12T23:13:49.000Z</time></trkpt>
        <trkpt lat="27.884867" lon="105.237544"><ele>1310.9629</ele><time>2026-08-12T23:13:51.000Z</time></trkpt>
        <trkpt lat="27.884744" lon="105.23742"><ele>1314.2391</ele><time>2026-08-12T23:17:11.000Z</time></trkpt>
        <trkpt lat="27.884788" lon="105.237422"><ele>1314.5042</ele><time>2026-08-12T23:17:27.000Z</time></trkpt>
        <trkpt lat="27.884788" lon="105.237421"><ele>1314.3073</ele><time>2026-08-12T23:17:43.000Z</time></trkpt>
        <trkpt lat="27.88481" lon="105.237325"><ele>1313.1642</ele><time>2026-08-12T23:30:09.000Z</time></trkpt>
        <trkpt lat="27.884814" lon="105.237307"><ele>1315.9335</ele><time>2026-08-12T23:30:16.000Z</time></trkpt>
        <trkpt lat="27.884769" lon="105.237317"><ele>1315.5018</ele><time>2026-08-12T23:30:18.000Z</time></trkpt>
        <trkpt lat="27.884845" lon="105.237406"><ele>1311.7737</ele><time>2026-08-12T23:30:36.000Z</time></trkpt>
        <trkpt lat="27.884845" lon="105.237406"><ele>1310.6165</ele><time>2026-08-12T23:30:38.000Z</time></trkpt>
        <trkpt lat="27.884835" lon="105.237405"><ele>1310.2306</ele><time>2026-08-12T23:30:40.000Z</time></trkpt>
        <trkpt lat="27.884767" lon="105.237391"><ele>1308.6317</ele><time>2026-08-12T23:32:11.000Z</time></trkpt>
        <trkpt lat="27.884763" lon="105.237388"><ele>1308.7196</ele><time>2026-08-12T23:32:13.000Z</time></trkpt>
        <trkpt lat="27.884758" lon="105.237384"><ele>1308.6235</ele><time>2026-08-12T23:32:14.000Z</time></trkpt>
        <trkpt lat="27.884834" lon="105.237446"><ele>1311.3252</ele><time>2026-08-12T23:43:11.000Z</time></trkpt>
        <trkpt lat="27.884835" lon="105.237446"><ele>1309.9706</ele><time>2026-08-12T23:43:13.000Z</time></trkpt>
        <trkpt lat="27.884834" lon="105.237448"><ele>1309.2747</ele><time>2026-08-12T23:43:15.000Z</time></trkpt>
        <trkpt lat="27.884866" lon="105.237385"><ele>1306.7426</ele><time>2026-08-12T23:44:52.000Z</time></trkpt>
        <trkpt lat="27.884866" lon="105.237385"><ele>1307.1628</ele><time>2026-08-12T23:44:54.000Z</time></trkpt>
        <trkpt lat="27.884868" lon="105.237384"><ele>1307.1218</ele><time>2026-08-12T23:44:56.000Z</time></trkpt>
        <trkpt lat="27.884914" lon="105.237348"><ele>1308.068</ele><time>2026-08-12T23:45:59.000Z</time></trkpt>
        <trkpt lat="27.884914" lon="105.237348"><ele>1307.3668</ele><time>2026-08-12T23:46:01.000Z</time></trkpt>
        <trkpt lat="27.884913" lon="105.237348"><ele>1307.2905</ele><time>2026-08-12T23:46:05.000Z</time></trkpt>
        <trkpt lat="27.884967" lon="105.237315"><ele>1305.2273</ele><time>2026-08-12T23:46:37.000Z</time></trkpt>
        <trkpt lat="27.884968" lon="105.237314"><ele>1305.4252</ele><time>2026-08-12T23:46:39.000Z</time></trkpt>
        <trkpt lat="27.884968" lon="105.237314"><ele>1304.6643</ele><time>2026-08-12T23:46:41.000Z</time></trkpt>
        <trkpt lat="27.885013" lon="105.237324"><ele>1304.0343</ele><time>2026-08-12T23:47:01.000Z</time></trkpt>
        <trkpt lat="27.885018" lon="105.237324"><ele>1304.736</ele><time>2026-08-12T23:47:03.000Z</time></trkpt>
        <trkpt lat="27.88502" lon="105.237322"><ele>1305.3828</ele><time>2026-08-12T23:47:05.000Z</time></trkpt>
        <trkpt lat="27.885074" lon="105.237285"><ele>1304.8168</ele><time>2026-08-12T23:47:45.000Z</time></trkpt>
        <trkpt lat="27.885068" lon="105.237283"><ele>1304.548</ele><time>2026-08-12T23:47:59.000Z</time></trkpt>
        <trkpt lat="27.885055" lon="105.237277"><ele>1304.9897</ele><time>2026-08-12T23:48:25.000Z</time></trkpt>
        <trkpt lat="27.885102" lon="105.237231"><ele>1304.9823</ele><time>2026-08-12T23:48:31.000Z</time></trkpt>
        <trkpt lat="27.885102" lon="105.237231"><ele>1304.632</ele><time>2026-08-12T23:48:33.000Z</time></trkpt>
        <trkpt lat="27.88513" lon="105.237222"><ele>1302.7859</ele><time>2026-08-12T23:48:36.000Z</time></trkpt>
        <trkpt lat="27.885151" lon="105.237211"><ele>1302.3491</ele><time>2026-08-12T23:48:44.000Z</time></trkpt>
        <trkpt lat="27.885162" lon="105.237204"><ele>1302.8179</ele><time>2026-08-12T23:48:46.000Z</time></trkpt>
        <trkpt lat="27.885168" lon="105.237194"><ele>1303.3177</ele><time>2026-08-12T23:48:48.000Z</time></trkpt>
        <trkpt lat="27.885186" lon="105.237176"><ele>1301.8073</ele><time>2026-08-12T23:49:00.000Z</time></trkpt>
        <trkpt lat="27.885209" lon="105.237153"><ele>1301.3363</ele><time>2026-08-12T23:49:04.000Z</time></trkpt>
        <trkpt lat="27.885209" lon="105.237153"><ele>1300.454</ele><time>2026-08-12T23:49:06.000Z</time></trkpt>
        <trkpt lat="27.885225" lon="105.237135"><ele>1301.1548</ele><time>2026-08-12T23:49:14.000Z</time></trkpt>
        <trkpt lat="27.885198" lon="105.237097"><ele>1301.7379</ele><time>2026-08-12T23:49:20.000Z</time></trkpt>
        <trkpt lat="27.885198" lon="105.237097"><ele>1301.7452</ele><time>2026-08-12T23:49:22.000Z</time></trkpt>
        <trkpt lat="27.885198" lon="105.237097"><ele>1301.7277</ele><time>2026-08-12T23:49:24.000Z</time></trkpt>
        <trkpt lat="27.885201" lon="105.237166"><ele>1304.7808</ele><time>2026-08-12T23:50:19.000Z</time></trkpt>
        <trkpt lat="27.885185" lon="105.237163"><ele>1303.8269</ele><time>2026-08-12T23:50:23.000Z</time></trkpt>
        <trkpt lat="27.885175" lon="105.237167"><ele>1302.0651</ele><time>2026-08-12T23:50:25.000Z</time></trkpt>
        <trkpt lat="27.885159" lon="105.237177"><ele>1302.3124</ele><time>2026-08-12T23:50:27.000Z</time></trkpt>
        <trkpt lat="27.885143" lon="105.237186"><ele>1301.7395</ele><time>2026-08-12T23:50:33.000Z</time></trkpt>
        <trkpt lat="27.885122" lon="105.237196"><ele>1301.5991</ele><time>2026-08-12T23:50:35.000Z</time></trkpt>
        <trkpt lat="27.885093" lon="105.237209"><ele>1301.2975</ele><time>2026-08-12T23:50:37.000Z</time></trkpt>
        <trkpt lat="27.885061" lon="105.237221"><ele>1301.9205</ele><time>2026-08-12T23:50:39.000Z</time></trkpt>
        <trkpt lat="27.885032" lon="105.23723"><ele>1301.7567</ele><time>2026-08-12T23:50:41.000Z</time></trkpt>
        <trkpt lat="27.885005" lon="105.237236"><ele>1302.1539</ele><time>2026-08-12T23:50:43.000Z</time></trkpt>
        <trkpt lat="27.884979" lon="105.237241"><ele>1301.8</ele><time>2026-08-12T23:50:45.000Z</time></trkpt>
        <trkpt lat="27.884956" lon="105.237245"><ele>1303.315</ele><time>2026-08-12T23:50:47.000Z</time></trkpt>
        <trkpt lat="27.884936" lon="105.237247"><ele>1304.0659</ele><time>2026-08-12T23:50:49.000Z</time></trkpt>
        <trkpt lat="27.884916" lon="105.237247"><ele>1303.7704</ele><time>2026-08-12T23:50:51.000Z</time></trkpt>
        <trkpt lat="27.884898" lon="105.237246"><ele>1305.3302</ele><time>2026-08-12T23:50:53.000Z</time></trkpt>
        <trkpt lat="27.884882" lon="105.237245"><ele>1305.1885</ele><time>2026-08-12T23:50:55.000Z</time></trkpt>
        <trkpt lat="27.884867" lon="105.237248"><ele>1305.5945</ele><time>2026-08-12T23:50:57.000Z</time></trkpt>
        <trkpt lat="27.884854" lon="105.237252"><ele>1306.521</ele><time>2026-08-12T23:50:59.000Z</time></trkpt>
        <trkpt lat="27.884841" lon="105.23726"><ele>1307.3307</ele><time>2026-08-12T23:51:01.000Z</time></trkpt>
        <trkpt lat="27.884829" lon="105.23727"><ele>1307.6722</ele><time>2026-08-12T23:51:03.000Z</time></trkpt>
        <trkpt lat="27.884816" lon="105.237282"><ele>1308.3787</ele><time>2026-08-12T23:51:05.000Z</time></trkpt>
        <trkpt lat="27.884805" lon="105.237292"><ele>1309.2383</ele><time>2026-08-12T23:51:07.000Z</time></trkpt>
        <trkpt lat="27.884795" lon="105.2373"><ele>1309.1271</ele><time>2026-08-12T23:51:09.000Z</time></trkpt>
        <trkpt lat="27.884787" lon="105.237306"><ele>1309.1802</ele><time>2026-08-12T23:51:11.000Z</time></trkpt>
        <trkpt lat="27.88478" lon="105.237309"><ele>1308.9098</ele><time>2026-08-12T23:51:13.000Z</time></trkpt>
        <trkpt lat="27.884754" lon="105.23732"><ele>1309.1954</ele><time>2026-08-12T23:51:17.000Z</time></trkpt>
        <trkpt lat="27.88474" lon="105.23733"><ele>1310.3464</ele><time>2026-08-12T23:51:19.000Z</time></trkpt>
        <trkpt lat="27.884723" lon="105.237344"><ele>1310.994</ele><time>2026-08-12T23:51:21.000Z</time></trkpt>
        <trkpt lat="27.88471" lon="105.237356"><ele>1309.8937</ele><time>2026-08-12T23:51:23.000Z</time></trkpt>
        <trkpt lat="27.884702" lon="105.237367"><ele>1309.828</ele><time>2026-08-12T23:51:25.000Z</time></trkpt>
        <trkpt lat="27.884701" lon="105.237378"><ele>1309.7416</ele><time>2026-08-12T23:51:27.000Z</time></trkpt>
        <trkpt lat="27.884705" lon="105.237387"><ele>1309.7448</ele><time>2026-08-12T23:51:29.000Z</time></trkpt>
        <trkpt lat="27.884714" lon="105.2374"><ele>1310.192</ele><time>2026-08-12T23:51:31.000Z</time></trkpt>
        <trkpt lat="27.884724" lon="105.23741"><ele>1309.5571</ele><time>2026-08-12T23:51:33.000Z</time></trkpt>
        <trkpt lat="27.884736" lon="105.237418"><ele>1309.3489</ele><time>2026-08-12T23:51:35.000Z</time></trkpt>
        <trkpt lat="27.884746" lon="105.237423"><ele>1309.0048</ele><time>2026-08-12T23:51:36.000Z</time></trkpt>
        <trkpt lat="27.884752" lon="105.237428"><ele>1308.5898</ele><time>2026-08-12T23:51:38.000Z</time></trkpt>
        <trkpt lat="27.884763" lon="105.237434"><ele>1308.2203</ele><time>2026-08-12T23:51:42.000Z</time></trkpt>
        <trkpt lat="27.884777" lon="105.237444"><ele>1307.5549</ele><time>2026-08-12T23:51:46.000Z</time></trkpt>
        <trkpt lat="27.884782" lon="105.237445"><ele>1306.8301</ele><time>2026-08-12T23:51:48.000Z</time></trkpt>
        <trkpt lat="27.884789" lon="105.237442"><ele>1306.2494</ele><time>2026-08-12T23:51:52.000Z</time></trkpt>
        <trkpt lat="27.88482" lon="105.237423"><ele>1309.4788</ele><time>2026-08-12T23:52:24.000Z</time></trkpt>
        <trkpt lat="27.884822" lon="105.237384"><ele>1307.4833</ele><time>2026-08-12T23:53:12.000Z</time></trkpt>
        <trkpt lat="27.884856" lon="105.23738"><ele>1307.7823</ele><time>2026-08-12T23:53:28.000Z</time></trkpt>
        <trkpt lat="27.884865" lon="105.237374"><ele>1306.3018</ele><time>2026-08-12T23:53:33.000Z</time></trkpt>
        <trkpt lat="27.88489" lon="105.237361"><ele>1307.6252</ele><time>2026-08-12T23:53:43.000Z</time></trkpt>
        <trkpt lat="27.884912" lon="105.237346"><ele>1307.3842</ele><time>2026-08-12T23:53:53.000Z</time></trkpt>
        <trkpt lat="27.884925" lon="105.237342"><ele>1307.6412</ele><time>2026-08-12T23:53:58.000Z</time></trkpt>
        <trkpt lat="27.884951" lon="105.237337"><ele>1306.0514</ele><time>2026-08-12T23:54:12.000Z</time></trkpt>
        <trkpt lat="27.884978" lon="105.237323"><ele>1305.2905</ele><time>2026-08-12T23:54:55.000Z</time></trkpt>
        <trkpt lat="27.88499" lon="105.237324"><ele>1306.1747</ele><time>2026-08-12T23:54:57.000Z</time></trkpt>
        <trkpt lat="27.885005" lon="105.237323"><ele>1307.4126</ele><time>2026-08-12T23:55:07.000Z</time></trkpt>
        <trkpt lat="27.885035" lon="105.23732"><ele>1305.5184</ele><time>2026-08-12T23:55:19.000Z</time></trkpt>
        <trkpt lat="27.885046" lon="105.237323"><ele>1304.9781</ele><time>2026-08-12T23:55:23.000Z</time></trkpt>
        <trkpt lat="27.885053" lon="105.237332"><ele>1305.431</ele><time>2026-08-12T23:55:29.000Z</time></trkpt>
        <trkpt lat="27.885087" lon="105.237376"><ele>1308.197</ele><time>2026-08-13T00:01:03.000Z</time></trkpt>
        <trkpt lat="27.885145" lon="105.23726"><ele>1309.1407</ele><time>2026-08-13T00:07:32.000Z</time></trkpt>
        <trkpt lat="27.885101" lon="105.237275"><ele>1305.4893</ele><time>2026-08-13T00:07:48.000Z</time></trkpt>
        <trkpt lat="27.885101" lon="105.237275"><ele>1306.0933</ele><time>2026-08-13T00:07:50.000Z</time></trkpt>
        <trkpt lat="27.885037" lon="105.23734"><ele>1306.0507</ele><time>2026-08-13T00:12:15.000Z</time></trkpt>
        <trkpt lat="27.885022" lon="105.237355"><ele>1305.8739</ele><time>2026-08-13T00:12:17.000Z</time></trkpt>
        <trkpt lat="27.885021" lon="105.237356"><ele>1304.9254</ele><time>2026-08-13T00:12:19.000Z</time></trkpt>
        <trkpt lat="27.884972" lon="105.237394"><ele>1305.1184</ele><time>2026-08-13T00:12:29.000Z</time></trkpt>
        <trkpt lat="27.884961" lon="105.237401"><ele>1305.3329</ele><time>2026-08-13T00:12:33.000Z</time></trkpt>
        <trkpt lat="27.884955" lon="105.237401"><ele>1304.7617</ele><time>2026-08-13T00:12:35.000Z</time></trkpt>
        <trkpt lat="27.884911" lon="105.237404"><ele>1304.7744</ele><time>2026-08-13T00:12:43.000Z</time></trkpt>
        <trkpt lat="27.884907" lon="105.237406"><ele>1304.3945</ele><time>2026-08-13T00:12:48.000Z</time></trkpt>
        <trkpt lat="27.884895" lon="105.237413"><ele>1304.8418</ele><time>2026-08-13T00:12:50.000Z</time></trkpt>
        <trkpt lat="27.884858" lon="105.237442"><ele>1305.4448</ele><time>2026-08-13T00:12:54.000Z</time></trkpt>
        <trkpt lat="27.884841" lon="105.237458"><ele>1305.2012</ele><time>2026-08-13T00:12:56.000Z</time></trkpt>
        <trkpt lat="27.884822" lon="105.237474"><ele>1305.8729</ele><time>2026-08-13T00:12:58.000Z</time></trkpt>
        <trkpt lat="27.884807" lon="105.237481"><ele>1307.0823</ele><time>2026-08-13T00:13:00.000Z</time></trkpt>
        <trkpt lat="27.884796" lon="105.237479"><ele>1307.383</ele><time>2026-08-13T00:13:02.000Z</time></trkpt>
        <trkpt lat="27.884778" lon="105.237475"><ele>1307.6678</ele><time>2026-08-13T00:13:06.000Z</time></trkpt>
        <trkpt lat="27.884813" lon="105.237431"><ele>1308.537</ele><time>2026-08-13T00:13:22.000Z</time></trkpt>
        <trkpt lat="27.884813" lon="105.237431"><ele>1308.537</ele><time>2026-08-13T00:13:24.000Z</time></trkpt>
        <trkpt lat="27.88481" lon="105.23743"><ele>1308.448</ele><time>2026-08-13T00:13:26.000Z</time></trkpt>
        <trkpt lat="27.884761" lon="105.237427"><ele>1310.4701</ele><time>2026-08-13T00:13:44.000Z</time></trkpt>
        <trkpt lat="27.884752" lon="105.237428"><ele>1311.2784</ele><time>2026-08-13T00:13:46.000Z</time></trkpt>
        <trkpt lat="27.884752" lon="105.237428"><ele>1310.6843</ele><time>2026-08-13T00:13:48.000Z</time></trkpt>
        <trkpt lat="27.884803" lon="105.237401"><ele>1310.0352</ele><time>2026-08-13T00:14:04.000Z</time></trkpt>
        <trkpt lat="27.884803" lon="105.237399"><ele>1309.629</ele><time>2026-08-13T00:14:06.000Z</time></trkpt>
        <trkpt lat="27.884802" lon="105.237398"><ele>1309.683</ele><time>2026-08-13T00:14:08.000Z</time></trkpt>
        <trkpt lat="27.884742" lon="105.23736"><ele>1312.7015</ele><time>2026-08-13T00:14:40.000Z</time></trkpt>
        <trkpt lat="27.88475" lon="105.237445"><ele>1313.7563</ele><time>2026-08-13T00:25:52.000Z</time></trkpt>
        <trkpt lat="27.884814" lon="105.237558"><ele>1314.1768</ele><time>2026-08-13T00:25:55.000Z</time></trkpt>
        <trkpt lat="27.884814" lon="105.237558"><ele>1313.8264</ele><time>2026-08-13T00:25:57.000Z</time></trkpt>
        <trkpt lat="27.88483" lon="105.237547"><ele>1313.2686</ele><time>2026-08-13T00:26:00.000Z</time></trkpt>
        <trkpt lat="27.88477" lon="105.237437"><ele>1310.94</ele><time>2026-08-13T00:26:21.000Z</time></trkpt>
        <trkpt lat="27.884764" lon="105.237427"><ele>1310.94</ele><time>2026-08-13T00:26:23.000Z</time></trkpt>
        <trkpt lat="27.884761" lon="105.237419"><ele>1310.94</ele><time>2026-08-13T00:26:25.000Z</time></trkpt>
        <trkpt lat="27.884808" lon="105.237531"><ele>1309.9911</ele><time>2026-08-13T00:37:19.000Z</time></trkpt>
        <trkpt lat="27.884808" lon="105.237532"><ele>1309.6666</ele><time>2026-08-13T00:37:21.000Z</time></trkpt>
        <trkpt lat="27.884808" lon="105.237532"><ele>1309.6724</ele><time>2026-08-13T00:37:23.000Z</time></trkpt>
        <trkpt lat="27.884888" lon="105.237506"><ele>1307.8514</ele><time>2026-08-13T00:38:06.000Z</time></trkpt>
        <trkpt lat="27.884953" lon="105.237518"><ele>1308.4597</ele><time>2026-08-13T00:38:08.000Z</time></trkpt>
        <trkpt lat="27.884956" lon="105.237517"><ele>1307.366</ele><time>2026-08-13T00:38:10.000Z</time></trkpt>
        <trkpt lat="27.884999" lon="105.237518"><ele>1306.8759</ele><time>2026-08-13T00:38:13.000Z</time></trkpt>
        <trkpt lat="27.88501" lon="105.237517"><ele>1308.7114</ele><time>2026-08-13T00:38:31.000Z</time></trkpt>
        <trkpt lat="27.88501" lon="105.237517"><ele>1308.6542</ele><time>2026-08-13T00:38:33.000Z</time></trkpt>
        <trkpt lat="27.885025" lon="105.237451"><ele>1306.5293</ele><time>2026-08-13T00:38:43.000Z</time></trkpt>
        <trkpt lat="27.885028" lon="105.237435"><ele>1307.2296</ele><time>2026-08-13T00:38:53.000Z</time></trkpt>
        <trkpt lat="27.885028" lon="105.237435"><ele>1307.7892</ele><time>2026-08-13T00:38:55.000Z</time></trkpt>
        <trkpt lat="27.885037" lon="105.237407"><ele>1307.489</ele><time>2026-08-13T00:39:01.000Z</time></trkpt>
        <trkpt lat="27.885048" lon="105.2374"><ele>1306.6836</ele><time>2026-08-13T00:39:03.000Z</time></trkpt>
        <trkpt lat="27.885072" lon="105.237392"><ele>1305.7296</ele><time>2026-08-13T00:39:05.000Z</time></trkpt>
        <trkpt lat="27.885097" lon="105.237388"><ele>1304.9097</ele><time>2026-08-13T00:39:07.000Z</time></trkpt>
        <trkpt lat="27.885116" lon="105.237388"><ele>1304.5502</ele><time>2026-08-13T00:39:09.000Z</time></trkpt>
        <trkpt lat="27.885129" lon="105.237392"><ele>1304.2161</ele><time>2026-08-13T00:39:11.000Z</time></trkpt>
        <trkpt lat="27.885141" lon="105.237398"><ele>1303.3744</ele><time>2026-08-13T00:39:13.000Z</time></trkpt>
        <trkpt lat="27.885154" lon="105.237403"><ele>1303.9232</ele><time>2026-08-13T00:39:15.000Z</time></trkpt>
        <trkpt lat="27.885165" lon="105.237406"><ele>1305.1141</ele><time>2026-08-13T00:39:17.000Z</time></trkpt>
        <trkpt lat="27.885179" lon="105.237408"><ele>1307.1624</ele><time>2026-08-13T00:39:21.000Z</time></trkpt>
        <trkpt lat="27.885194" lon="105.237415"><ele>1308.3059</ele><time>2026-08-13T00:39:29.000Z</time></trkpt>
        <trkpt lat="27.885234" lon="105.237434"><ele>1308.234</ele><time>2026-08-13T00:39:31.000Z</time></trkpt>
        <trkpt lat="27.885235" lon="105.237433"><ele>1308.6304</ele><time>2026-08-13T00:39:33.000Z</time></trkpt>
        <trkpt lat="27.885246" lon="105.237431"><ele>1307.8544</ele><time>2026-08-13T00:39:37.000Z</time></trkpt>
        <trkpt lat="27.885291" lon="105.237432"><ele>1307.1141</ele><time>2026-08-13T00:39:41.000Z</time></trkpt>
        <trkpt lat="27.885314" lon="105.237436"><ele>1307.8737</ele><time>2026-08-13T00:39:43.000Z</time></trkpt>
        <trkpt lat="27.885334" lon="105.237442"><ele>1307.911</ele><time>2026-08-13T00:39:45.000Z</time></trkpt>
        <trkpt lat="27.885348" lon="105.237447"><ele>1307.3118</ele><time>2026-08-13T00:39:47.000Z</time></trkpt>
        <trkpt lat="27.885373" lon="105.237454"><ele>1305.9818</ele><time>2026-08-13T00:39:49.000Z</time></trkpt>
        <trkpt lat="27.885398" lon="105.237462"><ele>1305.5598</ele><time>2026-08-13T00:39:51.000Z</time></trkpt>
        <trkpt lat="27.885417" lon="105.237472"><ele>1304.3009</ele><time>2026-08-13T00:39:53.000Z</time></trkpt>
        <trkpt lat="27.885431" lon="105.237479"><ele>1304.8582</ele><time>2026-08-13T00:39:55.000Z</time></trkpt>
        <trkpt lat="27.885444" lon="105.237485"><ele>1304.7943</ele><time>2026-08-13T00:39:57.000Z</time></trkpt>
        <trkpt lat="27.885465" lon="105.237494"><ele>1304.9088</ele><time>2026-08-13T00:40:01.000Z</time></trkpt>
        <trkpt lat="27.885478" lon="105.237496"><ele>1305.3019</ele><time>2026-08-13T00:40:03.000Z</time></trkpt>
        <trkpt lat="27.885483" lon="105.237493"><ele>1305.494</ele><time>2026-08-13T00:40:05.000Z</time></trkpt>
        <trkpt lat="27.885506" lon="105.237488"><ele>1305.759</ele><time>2026-08-13T00:40:09.000Z</time></trkpt>
        <trkpt lat="27.88552" lon="105.237487"><ele>1306.119</ele><time>2026-08-13T00:40:15.000Z</time></trkpt>
        <trkpt lat="27.885533" lon="105.237485"><ele>1306.119</ele><time>2026-08-13T00:40:17.000Z</time></trkpt>
        <trkpt lat="27.885547" lon="105.237482"><ele>1308.0587</ele><time>2026-08-13T00:40:19.000Z</time></trkpt>
        <trkpt lat="27.885562" lon="105.237479"><ele>1308.0299</ele><time>2026-08-13T00:40:21.000Z</time></trkpt>
        <trkpt lat="27.885574" lon="105.237476"><ele>1307.1946</ele><time>2026-08-13T00:40:23.000Z</time></trkpt>
        <trkpt lat="27.885587" lon="105.237475"><ele>1306.6056</ele><time>2026-08-13T00:40:25.000Z</time></trkpt>
        <trkpt lat="27.885606" lon="105.237479"><ele>1306.4993</ele><time>2026-08-13T00:40:33.000Z</time></trkpt>
        <trkpt lat="27.885632" lon="105.237488"><ele>1306.6776</ele><time>2026-08-13T00:40:39.000Z</time></trkpt>
        <trkpt lat="27.885673" lon="105.237496"><ele>1305.9833</ele><time>2026-08-13T00:40:40.000Z</time></trkpt>
        <trkpt lat="27.88575" lon="105.23751"><ele>1306.6165</ele><time>2026-08-13T00:40:42.000Z</time></trkpt>
        <trkpt lat="27.885753" lon="105.237511"><ele>1306.7894</ele><time>2026-08-13T00:40:44.000Z</time></trkpt>
        <trkpt lat="27.885758" lon="105.237511"><ele>1306.4503</ele><time>2026-08-13T00:40:46.000Z</time></trkpt>
        <trkpt lat="27.885809" lon="105.237515"><ele>1306.1262</ele><time>2026-08-13T00:40:50.000Z</time></trkpt>
        <trkpt lat="27.885845" lon="105.237516"><ele>1306.5737</ele><time>2026-08-13T00:40:52.000Z</time></trkpt>
        <trkpt lat="27.885878" lon="105.237515"><ele>1306.521</ele><time>2026-08-13T00:40:54.000Z</time></trkpt>
        <trkpt lat="27.885909" lon="105.237513"><ele>1306.9061</ele><time>2026-08-13T00:40:56.000Z</time></trkpt>
        <trkpt lat="27.885934" lon="105.237511"><ele>1307.3086</ele><time>2026-08-13T00:40:58.000Z</time></trkpt>
        <trkpt lat="27.885952" lon="105.237505"><ele>1307.8109</ele><time>2026-08-13T00:41:00.000Z</time></trkpt>
        <trkpt lat="27.885964" lon="105.237502"><ele>1307.897</ele><time>2026-08-13T00:41:02.000Z</time></trkpt>
        <trkpt lat="27.885979" lon="105.237498"><ele>1308.0392</ele><time>2026-08-13T00:41:04.000Z</time></trkpt>
        <trkpt lat="27.885991" lon="105.237496"><ele>1307.8751</ele><time>2026-08-13T00:41:06.000Z</time></trkpt>
        <trkpt lat="27.88601" lon="105.237488"><ele>1306.8774</ele><time>2026-08-13T00:41:08.000Z</time></trkpt>
        <trkpt lat="27.886026" lon="105.237479"><ele>1306.4055</ele><time>2026-08-13T00:41:10.000Z</time></trkpt>
        <trkpt lat="27.886044" lon="105.237469"><ele>1305.9072</ele><time>2026-08-13T00:41:12.000Z</time></trkpt>
        <trkpt lat="27.88606" lon="105.237463"><ele>1305.2892</ele><time>2026-08-13T00:41:14.000Z</time></trkpt>
        <trkpt lat="27.886067" lon="105.237464"><ele>1304.8618</ele><time>2026-08-13T00:41:16.000Z</time></trkpt>
        <trkpt lat="27.88608" lon="105.237464"><ele>1305.5109</ele><time>2026-08-13T00:41:22.000Z</time></trkpt>
        <trkpt lat="27.8861" lon="105.23746"><ele>1305.9402</ele><time>2026-08-13T00:41:32.000Z</time></trkpt>
        <trkpt lat="27.886121" lon="105.237453"><ele>1306.1548</ele><time>2026-08-13T00:41:34.000Z</time></trkpt>
        <trkpt lat="27.886149" lon="105.237443"><ele>1305.5815</ele><time>2026-08-13T00:41:36.000Z</time></trkpt>
        <trkpt lat="27.886151" lon="105.237443"><ele>1305.7253</ele><time>2026-08-13T00:41:38.000Z</time></trkpt>
        <trkpt lat="27.886154" lon="105.237443"><ele>1306.1277</ele><time>2026-08-13T00:41:40.000Z</time></trkpt>
        <trkpt lat="27.886193" lon="105.237441"><ele>1306.1172</ele><time>2026-08-13T00:41:44.000Z</time></trkpt>
        <trkpt lat="27.886219" lon="105.237439"><ele>1306.0353</ele><time>2026-08-13T00:41:46.000Z</time></trkpt>
        <trkpt lat="27.886244" lon="105.237434"><ele>1306.1228</ele><time>2026-08-13T00:41:48.000Z</time></trkpt>
        <trkpt lat="27.886261" lon="105.237427"><ele>1306.0511</ele><time>2026-08-13T00:41:50.000Z</time></trkpt>
        <trkpt lat="27.886273" lon="105.23742"><ele>1306.3318</ele><time>2026-08-13T00:41:52.000Z</time></trkpt>
        <trkpt lat="27.886286" lon="105.237414"><ele>1305.641</ele><time>2026-08-13T00:41:54.000Z</time></trkpt>
        <trkpt lat="27.886293" lon="105.23741"><ele>1305.0676</ele><time>2026-08-13T00:41:56.000Z</time></trkpt>
        <trkpt lat="27.886302" lon="105.237406"><ele>1304.6459</ele><time>2026-08-13T00:41:58.000Z</time></trkpt>
        <trkpt lat="27.886314" lon="105.237401"><ele>1304.2676</ele><time>2026-08-13T00:42:00.000Z</time></trkpt>
        <trkpt lat="27.886326" lon="105.237395"><ele>1304.4202</ele><time>2026-08-13T00:42:02.000Z</time></trkpt>
        <trkpt lat="27.88634" lon="105.237391"><ele>1304.9309</ele><time>2026-08-13T00:42:04.000Z</time></trkpt>
        <trkpt lat="27.886352" lon="105.237389"><ele>1304.52</ele><time>2026-08-13T00:42:06.000Z</time></trkpt>
        <trkpt lat="27.886363" lon="105.237387"><ele>1304.0594</ele><time>2026-08-13T00:42:08.000Z</time></trkpt>
        <trkpt lat="27.886373" lon="105.237385"><ele>1304.0896</ele><time>2026-08-13T00:42:10.000Z</time></trkpt>
        <trkpt lat="27.886385" lon="105.237381"><ele>1303.4193</ele><time>2026-08-13T00:42:12.000Z</time></trkpt>
        <trkpt lat="27.886394" lon="105.237375"><ele>1303.751</ele><time>2026-08-13T00:42:14.000Z</time></trkpt>
        <trkpt lat="27.886404" lon="105.237368"><ele>1303.8834</ele><time>2026-08-13T00:42:16.000Z</time></trkpt>
        <trkpt lat="27.886415" lon="105.237358"><ele>1303.6162</ele><time>2026-08-13T00:42:18.000Z</time></trkpt>
        <trkpt lat="27.886428" lon="105.23735"><ele>1304.1365</ele><time>2026-08-13T00:42:20.000Z</time></trkpt>
        <trkpt lat="27.886439" lon="105.237345"><ele>1303.8436</ele><time>2026-08-13T00:42:22.000Z</time></trkpt>
        <trkpt lat="27.886451" lon="105.237341"><ele>1303.1755</ele><time>2026-08-13T00:42:24.000Z</time></trkpt>
        <trkpt lat="27.886465" lon="105.237337"><ele>1303.4264</ele><time>2026-08-13T00:42:26.000Z</time></trkpt>
        <trkpt lat="27.886481" lon="105.237333"><ele>1303.5292</ele><time>2026-08-13T00:42:28.000Z</time></trkpt>
        <trkpt lat="27.886491" lon="105.237332"><ele>1303.7236</ele><time>2026-08-13T00:42:30.000Z</time></trkpt>
        <trkpt lat="27.886495" lon="105.237332"><ele>1303.8907</ele><time>2026-08-13T00:42:32.000Z</time></trkpt>
        <trkpt lat="27.886509" lon="105.237333"><ele>1305.0598</ele><time>2026-08-13T00:42:40.000Z</time></trkpt>
        <trkpt lat="27.886514" lon="105.237328"><ele>1305.8962</ele><time>2026-08-13T00:42:55.000Z</time></trkpt>
        <trkpt lat="27.886534" lon="105.237314"><ele>1304.9863</ele><time>2026-08-13T00:43:22.000Z</time></trkpt>
        <trkpt lat="27.886547" lon="105.237311"><ele>1304.8102</ele><time>2026-08-13T00:43:30.000Z</time></trkpt>
        <trkpt lat="27.886551" lon="105.23731"><ele>1305.3971</ele><time>2026-08-13T00:43:32.000Z</time></trkpt>
        <trkpt lat="27.88658" lon="105.237307"><ele>1305.5488</ele><time>2026-08-13T00:43:35.000Z</time></trkpt>
        <trkpt lat="27.886598" lon="105.237308"><ele>1306.147</ele><time>2026-08-13T00:43:41.000Z</time></trkpt>
        <trkpt lat="27.886625" lon="105.237313"><ele>1306.7021</ele><time>2026-08-13T00:43:43.000Z</time></trkpt>
        <trkpt lat="27.886657" lon="105.237319"><ele>1306.6666</ele><time>2026-08-13T00:43:45.000Z</time></trkpt>
        <trkpt lat="27.886676" lon="105.237324"><ele>1307.1136</ele><time>2026-08-13T00:43:47.000Z</time></trkpt>
        <trkpt lat="27.886679" lon="105.23732"><ele>1307.6494</ele><time>2026-08-13T00:43:49.000Z</time></trkpt>
        <trkpt lat="27.886698" lon="105.237311"><ele>1308.4344</ele><time>2026-08-13T00:43:58.000Z</time></trkpt>
        <trkpt lat="27.886709" lon="105.237311"><ele>1307.5449</ele><time>2026-08-13T00:44:04.000Z</time></trkpt>
        <trkpt lat="27.886756" lon="105.237313"><ele>1307.5261</ele><time>2026-08-13T00:44:06.000Z</time></trkpt>
        <trkpt lat="27.886758" lon="105.237313"><ele>1307.3121</ele><time>2026-08-13T00:44:08.000Z</time></trkpt>
        <trkpt lat="27.88676" lon="105.237313"><ele>1308.2576</ele><time>2026-08-13T00:44:10.000Z</time></trkpt>
        <trkpt lat="27.886794" lon="105.237316"><ele>1308.3293</ele><time>2026-08-13T00:44:16.000Z</time></trkpt>
        <trkpt lat="27.886805" lon="105.237316"><ele>1309.7776</ele><time>2026-08-13T00:44:18.000Z</time></trkpt>
        <trkpt lat="27.886814" lon="105.237315"><ele>1309.7167</ele><time>2026-08-13T00:44:20.000Z</time></trkpt>
        <trkpt lat="27.886824" lon="105.237313"><ele>1309.0795</ele><time>2026-08-13T00:44:22.000Z</time></trkpt>
        <trkpt lat="27.886833" lon="105.237309"><ele>1309.2485</ele><time>2026-08-13T00:44:24.000Z</time></trkpt>
        <trkpt lat="27.886842" lon="105.237308"><ele>1309.3687</ele><time>2026-08-13T00:44:26.000Z</time></trkpt>
        <trkpt lat="27.886853" lon="105.23731"><ele>1308.6158</ele><time>2026-08-13T00:44:28.000Z</time></trkpt>
        <trkpt lat="27.886868" lon="105.237315"><ele>1308.6025</ele><time>2026-08-13T00:44:30.000Z</time></trkpt>
        <trkpt lat="27.886877" lon="105.237319"><ele>1309.5596</ele><time>2026-08-13T00:44:32.000Z</time></trkpt>
        <trkpt lat="27.886879" lon="105.237318"><ele>1309.3513</ele><time>2026-08-13T00:44:34.000Z</time></trkpt>
        <trkpt lat="27.886905" lon="105.237314"><ele>1312.5018</ele><time>2026-08-13T00:45:07.000Z</time></trkpt>
        <trkpt lat="27.886923" lon="105.23731"><ele>1312.394</ele><time>2026-08-13T00:45:09.000Z</time></trkpt>
        <trkpt lat="27.886924" lon="105.23731"><ele>1311.8159</ele><time>2026-08-13T00:45:11.000Z</time></trkpt>
        <trkpt lat="27.886957" lon="105.237322"><ele>1314.8162</ele><time>2026-08-13T00:45:21.000Z</time></trkpt>
        <trkpt lat="27.886974" lon="105.237331"><ele>1313.764</ele><time>2026-08-13T00:45:23.000Z</time></trkpt>
        <trkpt lat="27.886994" lon="105.237341"><ele>1314.5913</ele><time>2026-08-13T00:45:25.000Z</time></trkpt>
        <trkpt lat="27.887021" lon="105.237351"><ele>1315.2087</ele><time>2026-08-13T00:45:27.000Z</time></trkpt>
        <trkpt lat="27.887042" lon="105.23736"><ele>1315.6783</ele><time>2026-08-13T00:45:29.000Z</time></trkpt>
        <trkpt lat="27.887051" lon="105.237374"><ele>1315.5898</ele><time>2026-08-13T00:45:31.000Z</time></trkpt>
        <trkpt lat="27.887067" lon="105.2374"><ele>1315.0697</ele><time>2026-08-13T00:45:35.000Z</time></trkpt>
        <trkpt lat="27.887097" lon="105.237311"><ele>1314.8451</ele><time>2026-08-13T00:45:51.000Z</time></trkpt>
        <trkpt lat="27.887097" lon="105.237311"><ele>1314.9901</ele><time>2026-08-13T00:45:53.000Z</time></trkpt>
        <trkpt lat="27.887101" lon="105.237311"><ele>1314.896</ele><time>2026-08-13T00:45:55.000Z</time></trkpt>
        <trkpt lat="27.887145" lon="105.23731"><ele>1314.8391</ele><time>2026-08-13T00:45:59.000Z</time></trkpt>
        <trkpt lat="27.887176" lon="105.23731"><ele>1315.12</ele><time>2026-08-13T00:46:01.000Z</time></trkpt>
        <trkpt lat="27.887213" lon="105.237307"><ele>1315.553</ele><time>2026-08-13T00:46:03.000Z</time></trkpt>
        <trkpt lat="27.887243" lon="105.237303"><ele>1315.635</ele><time>2026-08-13T00:46:05.000Z</time></trkpt>
        <trkpt lat="27.887266" lon="105.237296"><ele>1316.2904</ele><time>2026-08-13T00:46:07.000Z</time></trkpt>
        <trkpt lat="27.887286" lon="105.237288"><ele>1316.614</ele><time>2026-08-13T00:46:09.000Z</time></trkpt>
        <trkpt lat="27.887304" lon="105.237281"><ele>1316.0513</ele><time>2026-08-13T00:46:11.000Z</time></trkpt>
        <trkpt lat="27.887317" lon="105.237275"><ele>1316.0581</ele><time>2026-08-13T00:46:13.000Z</time></trkpt>
        <trkpt lat="27.887332" lon="105.237267"><ele>1316.0806</ele><time>2026-08-13T00:46:15.000Z</time></trkpt>
        <trkpt lat="27.887345" lon="105.23726"><ele>1316.1478</ele><time>2026-08-13T00:46:17.000Z</time></trkpt>
        <trkpt lat="27.887357" lon="105.237252"><ele>1316.2864</ele><time>2026-08-13T00:46:19.000Z</time></trkpt>
        <trkpt lat="27.887364" lon="105.237247"><ele>1316.4921</ele><time>2026-08-13T00:46:21.000Z</time></trkpt>
        <trkpt lat="27.887377" lon="105.23724"><ele>1316.4879</ele><time>2026-08-13T00:46:23.000Z</time></trkpt>
        <trkpt lat="27.887388" lon="105.237242"><ele>1316.5529</ele><time>2026-08-13T00:46:27.000Z</time></trkpt>
        <trkpt lat="27.887407" lon="105.237248"><ele>1315.9556</ele><time>2026-08-13T00:46:31.000Z</time></trkpt>
        <trkpt lat="27.887417" lon="105.237253"><ele>1315.8389</ele><time>2026-08-13T00:46:33.000Z</time></trkpt>
        <trkpt lat="27.887424" lon="105.237257"><ele>1315.5636</ele><time>2026-08-13T00:46:35.000Z</time></trkpt>
        <trkpt lat="27.887449" lon="105.237271"><ele>1313.03</ele><time>2026-08-13T00:46:39.000Z</time></trkpt>
        <trkpt lat="27.887463" lon="105.237277"><ele>1312.164</ele><time>2026-08-13T00:46:41.000Z</time></trkpt>
        <trkpt lat="27.887477" lon="105.23728"><ele>1311.6147</ele><time>2026-08-13T00:46:43.000Z</time></trkpt>
        <trkpt lat="27.88749" lon="105.237278"><ele>1310.9468</ele><time>2026-08-13T00:46:45.000Z</time></trkpt>
        <trkpt lat="27.887504" lon="105.237274"><ele>1310.5297</ele><time>2026-08-13T00:46:47.000Z</time></trkpt>
        <trkpt lat="27.887519" lon="105.237269"><ele>1310.1508</ele><time>2026-08-13T00:46:49.000Z</time></trkpt>
        <trkpt lat="27.887534" lon="105.237264"><ele>1310.6315</ele><time>2026-08-13T00:46:51.000Z</time></trkpt>
        <trkpt lat="27.887546" lon="105.237258"><ele>1310.5985</ele><time>2026-08-13T00:46:53.000Z</time></trkpt>
        <trkpt lat="27.887551" lon="105.237258"><ele>1310.3679</ele><time>2026-08-13T00:46:55.000Z</time></trkpt>
        <trkpt lat="27.88749" lon="105.237254"><ele>1312.5673</ele><time>2026-08-13T00:47:28.000Z</time></trkpt>
        <trkpt lat="27.887466" lon="105.237228"><ele>1311.8171</ele><time>2026-08-13T00:47:30.000Z</time></trkpt>
        <trkpt lat="27.887465" lon="105.237227"><ele>1311.1768</ele><time>2026-08-13T00:47:32.000Z</time></trkpt>
        <trkpt lat="27.887537" lon="105.237291"><ele>1312.69</ele><time>2026-08-13T00:48:21.000Z</time></trkpt>
        <trkpt lat="27.887539" lon="105.237291"><ele>1312.7596</ele><time>2026-08-13T00:48:23.000Z</time></trkpt>
        <trkpt lat="27.88754" lon="105.23729"><ele>1312.7596</ele><time>2026-08-13T00:48:25.000Z</time></trkpt>
        <trkpt lat="27.887595" lon="105.237262"><ele>1311.3584</ele><time>2026-08-13T00:48:52.000Z</time></trkpt>
        <trkpt lat="27.887614" lon="105.237253"><ele>1310.6807</ele><time>2026-08-13T00:48:54.000Z</time></trkpt>
        <trkpt lat="27.887615" lon="105.237253"><ele>1310.6678</ele><time>2026-08-13T00:48:56.000Z</time></trkpt>
        <trkpt lat="27.887656" lon="105.237241"><ele>1310.4257</ele><time>2026-08-13T00:48:59.000Z</time></trkpt>
        <trkpt lat="27.887658" lon="105.23724"><ele>1309.6317</ele><time>2026-08-13T00:49:01.000Z</time></trkpt>
        <trkpt lat="27.887659" lon="105.23724"><ele>1309.5184</ele><time>2026-08-13T00:49:03.000Z</time></trkpt>
        <trkpt lat="27.8877" lon="105.237231"><ele>1309.8225</ele><time>2026-08-13T00:49:09.000Z</time></trkpt>
        <trkpt lat="27.887723" lon="105.237227"><ele>1309.8724</ele><time>2026-08-13T00:49:11.000Z</time></trkpt>
        <trkpt lat="27.887745" lon="105.237222"><ele>1309.3998</ele><time>2026-08-13T00:49:13.000Z</time></trkpt>
        <trkpt lat="27.887765" lon="105.237218"><ele>1309.6531</ele><time>2026-08-13T00:49:15.000Z</time></trkpt>
        <trkpt lat="27.887779" lon="105.237217"><ele>1309.6454</ele><time>2026-08-13T00:49:17.000Z</time></trkpt>
        <trkpt lat="27.88779" lon="105.237218"><ele>1308.8529</ele><time>2026-08-13T00:49:19.000Z</time></trkpt>
        <trkpt lat="27.8878" lon="105.23722"><ele>1309.011</ele><time>2026-08-13T00:49:21.000Z</time></trkpt>
        <trkpt lat="27.887811" lon="105.23722"><ele>1308.7736</ele><time>2026-08-13T00:49:23.000Z</time></trkpt>
        <trkpt lat="27.887822" lon="105.237216"><ele>1309.0994</ele><time>2026-08-13T00:49:25.000Z</time></trkpt>
        <trkpt lat="27.887834" lon="105.237209"><ele>1309.113</ele><time>2026-08-13T00:49:27.000Z</time></trkpt>
        <trkpt lat="27.887848" lon="105.237201"><ele>1308.6094</ele><time>2026-08-13T00:49:29.000Z</time></trkpt>
        <trkpt lat="27.887863" lon="105.237191"><ele>1308.5088</ele><time>2026-08-13T00:49:31.000Z</time></trkpt>
        <trkpt lat="27.88788" lon="105.23718"><ele>1308.8898</ele><time>2026-08-13T00:49:33.000Z</time></trkpt>
        <trkpt lat="27.887898" lon="105.237172"><ele>1308.5884</ele><time>2026-08-13T00:49:35.000Z</time></trkpt>
        <trkpt lat="27.887916" lon="105.237167"><ele>1309.0614</ele><time>2026-08-13T00:49:37.000Z</time></trkpt>
        <trkpt lat="27.887932" lon="105.237167"><ele>1308.6223</ele><time>2026-08-13T00:49:39.000Z</time></trkpt>
        <trkpt lat="27.887948" lon="105.237171"><ele>1308.0686</ele><time>2026-08-13T00:49:41.000Z</time></trkpt>
        <trkpt lat="27.887966" lon="105.237175"><ele>1308.1256</ele><time>2026-08-13T00:49:43.000Z</time></trkpt>
        <trkpt lat="27.887983" lon="105.23718"><ele>1308.2594</ele><time>2026-08-13T00:49:45.000Z</time></trkpt>
        <trkpt lat="27.887994" lon="105.237181"><ele>1308.8208</ele><time>2026-08-13T00:49:48.000Z</time></trkpt>
        <trkpt lat="27.888001" lon="105.237177"><ele>1309.3846</ele><time>2026-08-13T00:49:50.000Z</time></trkpt>
        <trkpt lat="27.88801" lon="105.237169"><ele>1309.2026</ele><time>2026-08-13T00:49:52.000Z</time></trkpt>
        <trkpt lat="27.888019" lon="105.237157"><ele>1309.7084</ele><time>2026-08-13T00:49:54.000Z</time></trkpt>
        <trkpt lat="27.888026" lon="105.237148"><ele>1309.6909</ele><time>2026-08-13T00:49:56.000Z</time></trkpt>
        <trkpt lat="27.888036" lon="105.237146"><ele>1309.5016</ele><time>2026-08-13T00:49:58.000Z</time></trkpt>
        <trkpt lat="27.888054" lon="105.237143"><ele>1310.0657</ele><time>2026-08-13T00:50:00.000Z</time></trkpt>
        <trkpt lat="27.888073" lon="105.237139"><ele>1310.1122</ele><time>2026-08-13T00:50:02.000Z</time></trkpt>
        <trkpt lat="27.888092" lon="105.237135"><ele>1310.1968</ele><time>2026-08-13T00:50:04.000Z</time></trkpt>
        <trkpt lat="27.888108" lon="105.237132"><ele>1310.2014</ele><time>2026-08-13T00:50:06.000Z</time></trkpt>
        <trkpt lat="27.88812" lon="105.23713"><ele>1309.9413</ele><time>2026-08-13T00:50:08.000Z</time></trkpt>
        <trkpt lat="27.888132" lon="105.237129"><ele>1309.9032</ele><time>2026-08-13T00:50:10.000Z</time></trkpt>
        <trkpt lat="27.888144" lon="105.23713"><ele>1310.1659</ele><time>2026-08-13T00:50:12.000Z</time></trkpt>
        <trkpt lat="27.888156" lon="105.237134"><ele>1309.9269</ele><time>2026-08-13T00:50:14.000Z</time></trkpt>
        <trkpt lat="27.888169" lon="105.237144"><ele>1310.2089</ele><time>2026-08-13T00:50:16.000Z</time></trkpt>
        <trkpt lat="27.888183" lon="105.237156"><ele>1310.9762</ele><time>2026-08-13T00:50:18.000Z</time></trkpt>
        <trkpt lat="27.888196" lon="105.237166"><ele>1310.4377</ele><time>2026-08-13T00:50:20.000Z</time></trkpt>
        <trkpt lat="27.888209" lon="105.237174"><ele>1310.8209</ele><time>2026-08-13T00:50:22.000Z</time></trkpt>
        <trkpt lat="27.888223" lon="105.23718"><ele>1311.2561</ele><time>2026-08-13T00:50:24.000Z</time></trkpt>
        <trkpt lat="27.888236" lon="105.237183"><ele>1311.2072</ele><time>2026-08-13T00:50:26.000Z</time></trkpt>
        <trkpt lat="27.88825" lon="105.237184"><ele>1311.4193</ele><time>2026-08-13T00:50:28.000Z</time></trkpt>
        <trkpt lat="27.888263" lon="105.237182"><ele>1311.8348</ele><time>2026-08-13T00:50:30.000Z</time></trkpt>
        <trkpt lat="27.888275" lon="105.237179"><ele>1312.1217</ele><time>2026-08-13T00:50:32.000Z</time></trkpt>
        <trkpt lat="27.888287" lon="105.237177"><ele>1311.9231</ele><time>2026-08-13T00:50:34.000Z</time></trkpt>
        <trkpt lat="27.888316" lon="105.237169"><ele>1311.7238</ele><time>2026-08-13T00:50:38.000Z</time></trkpt>
        <trkpt lat="27.888332" lon="105.237164"><ele>1311.6862</ele><time>2026-08-13T00:50:40.000Z</time></trkpt>
        <trkpt lat="27.888353" lon="105.237158"><ele>1313.3566</ele><time>2026-08-13T00:50:42.000Z</time></trkpt>
        <trkpt lat="27.888377" lon="105.237153"><ele>1314.1445</ele><time>2026-08-13T00:50:44.000Z</time></trkpt>
        <trkpt lat="27.888399" lon="105.23715"><ele>1314.7754</ele><time>2026-08-13T00:50:46.000Z</time></trkpt>
        <trkpt lat="27.88842" lon="105.237148"><ele>1315.3901</ele><time>2026-08-13T00:50:48.000Z</time></trkpt>
        <trkpt lat="27.888437" lon="105.237149"><ele>1315.2307</ele><time>2026-08-13T00:50:50.000Z</time></trkpt>
        <trkpt lat="27.888469" lon="105.237152"><ele>1315.1842</ele><time>2026-08-13T00:50:54.000Z</time></trkpt>
        <trkpt lat="27.888479" lon="105.237154"><ele>1315.6364</ele><time>2026-08-13T00:50:56.000Z</time></trkpt>
        <trkpt lat="27.888503" lon="105.237162"><ele>1315.9177</ele><time>2026-08-13T00:51:00.000Z</time></trkpt>
        <trkpt lat="27.888547" lon="105.237184"><ele>1316.0771</ele><time>2026-08-13T00:51:06.000Z</time></trkpt>
        <trkpt lat="27.888564" lon="105.237193"><ele>1313.8947</ele><time>2026-08-13T00:51:08.000Z</time></trkpt>
        <trkpt lat="27.888581" lon="105.237197"><ele>1313.527</ele><time>2026-08-13T00:51:10.000Z</time></trkpt>
        <trkpt lat="27.888623" lon="105.237201"><ele>1314.5471</ele><time>2026-08-13T00:51:13.000Z</time></trkpt>
        <trkpt lat="27.888638" lon="105.237199"><ele>1314.86</ele><time>2026-08-13T00:51:15.000Z</time></trkpt>
        <trkpt lat="27.888655" lon="105.237194"><ele>1315.8711</ele><time>2026-08-13T00:51:17.000Z</time></trkpt>
        <trkpt lat="27.888674" lon="105.237188"><ele>1316.914</ele><time>2026-08-13T00:51:19.000Z</time></trkpt>
        <trkpt lat="27.888693" lon="105.237183"><ele>1316.9052</ele><time>2026-08-13T00:51:21.000Z</time></trkpt>
        <trkpt lat="27.888713" lon="105.237178"><ele>1316.0795</ele><time>2026-08-13T00:51:23.000Z</time></trkpt>
        <trkpt lat="27.88873" lon="105.237174"><ele>1315.9369</ele><time>2026-08-13T00:51:25.000Z</time></trkpt>
        <trkpt lat="27.888749" lon="105.237172"><ele>1315.4705</ele><time>2026-08-13T00:51:27.000Z</time></trkpt>
        <trkpt lat="27.888772" lon="105.237172"><ele>1315.877</ele><time>2026-08-13T00:51:29.000Z</time></trkpt>
        <trkpt lat="27.888794" lon="105.237172"><ele>1315.7816</ele><time>2026-08-13T00:51:31.000Z</time></trkpt>
        <trkpt lat="27.888818" lon="105.237168"><ele>1315.9777</ele><time>2026-08-13T00:51:33.000Z</time></trkpt>
        <trkpt lat="27.888843" lon="105.237161"><ele>1315.5416</ele><time>2026-08-13T00:51:35.000Z</time></trkpt>
        <trkpt lat="27.888872" lon="105.237154"><ele>1315.0295</ele><time>2026-08-13T00:51:37.000Z</time></trkpt>
        <trkpt lat="27.8889" lon="105.237147"><ele>1315.3851</ele><time>2026-08-13T00:51:39.000Z</time></trkpt>
        <trkpt lat="27.88893" lon="105.237139"><ele>1314.8772</ele><time>2026-08-13T00:51:41.000Z</time></trkpt>
        <trkpt lat="27.888959" lon="105.237132"><ele>1315.075</ele><time>2026-08-13T00:51:43.000Z</time></trkpt>
        <trkpt lat="27.888991" lon="105.237126"><ele>1314.5613</ele><time>2026-08-13T00:51:45.000Z</time></trkpt>
        <trkpt lat="27.889018" lon="105.237122"><ele>1314.7178</ele><time>2026-08-13T00:51:47.000Z</time></trkpt>
        <trkpt lat="27.889039" lon="105.237115"><ele>1314.729</ele><time>2026-08-13T00:51:49.000Z</time></trkpt>
        <trkpt lat="27.889057" lon="105.237107"><ele>1314.4365</ele><time>2026-08-13T00:51:51.000Z</time></trkpt>
        <trkpt lat="27.889073" lon="105.237099"><ele>1314.9221</ele><time>2026-08-13T00:51:53.000Z</time></trkpt>
        <trkpt lat="27.889084" lon="105.237091"><ele>1315.2361</ele><time>2026-08-13T00:51:55.000Z</time></trkpt>
        <trkpt lat="27.889094" lon="105.237084"><ele>1314.8264</ele><time>2026-08-13T00:51:57.000Z</time></trkpt>
        <trkpt lat="27.889106" lon="105.237075"><ele>1315.0554</ele><time>2026-08-13T00:51:59.000Z</time></trkpt>
        <trkpt lat="27.889119" lon="105.237068"><ele>1315.534</ele><time>2026-08-13T00:52:01.000Z</time></trkpt>
        <trkpt lat="27.889132" lon="105.237061"><ele>1316.0618</ele><time>2026-08-13T00:52:03.000Z</time></trkpt>
        <trkpt lat="27.889147" lon="105.237055"><ele>1315.5421</ele><time>2026-08-13T00:52:05.000Z</time></trkpt>
        <trkpt lat="27.889159" lon="105.237051"><ele>1315.1512</ele><time>2026-08-13T00:52:07.000Z</time></trkpt>
        <trkpt lat="27.889172" lon="105.237047"><ele>1315.304</ele><time>2026-08-13T00:52:09.000Z</time></trkpt>
        <trkpt lat="27.889187" lon="105.237042"><ele>1315.1746</ele><time>2026-08-13T00:52:11.000Z</time></trkpt>
        <trkpt lat="27.889204" lon="105.237036"><ele>1315.24</ele><time>2026-08-13T00:52:13.000Z</time></trkpt>
        <trkpt lat="27.88922" lon="105.237031"><ele>1315.6285</ele><time>2026-08-13T00:52:15.000Z</time></trkpt>
        <trkpt lat="27.889235" lon="105.237025"><ele>1316.0919</ele><time>2026-08-13T00:52:17.000Z</time></trkpt>
        <trkpt lat="27.889252" lon="105.237018"><ele>1316.2655</ele><time>2026-08-13T00:52:19.000Z</time></trkpt>
        <trkpt lat="27.889274" lon="105.237007"><ele>1316.0082</ele><time>2026-08-13T00:52:21.000Z</time></trkpt>
        <trkpt lat="27.889293" lon="105.236997"><ele>1315.8615</ele><time>2026-08-13T00:52:23.000Z</time></trkpt>
        <trkpt lat="27.889309" lon="105.236988"><ele>1316.2539</ele><time>2026-08-13T00:52:25.000Z</time></trkpt>
        <trkpt lat="27.889322" lon="105.236979"><ele>1316.656</ele><time>2026-08-13T00:52:27.000Z</time></trkpt>
        <trkpt lat="27.889321" lon="105.236975"><ele>1316.7708</ele><time>2026-08-13T00:52:29.000Z</time></trkpt>
        <trkpt lat="27.889318" lon="105.23693"><ele>1316.6003</ele><time>2026-08-13T00:53:06.000Z</time></trkpt>
        <trkpt lat="27.889316" lon="105.236896"><ele>1315.9447</ele><time>2026-08-13T00:53:22.000Z</time></trkpt>
        <trkpt lat="27.889304" lon="105.23692"><ele>1317.455</ele><time>2026-08-13T00:53:38.000Z</time></trkpt>
        <trkpt lat="27.889308" lon="105.236849"><ele>1317.8057</ele><time>2026-08-13T00:54:01.000Z</time></trkpt>
        <trkpt lat="27.889263" lon="105.23694"><ele>1316.3463</ele><time>2026-08-13T00:54:46.000Z</time></trkpt>
        <trkpt lat="27.889172" lon="105.236923"><ele>1315.8815</ele><time>2026-08-13T00:55:01.000Z</time></trkpt>
        <trkpt lat="27.889161" lon="105.236924"><ele>1315.014</ele><time>2026-08-13T00:55:06.000Z</time></trkpt>
        <trkpt lat="27.889113" lon="105.236928"><ele>1315.7954</ele><time>2026-08-13T00:55:08.000Z</time></trkpt>
        <trkpt lat="27.889111" lon="105.236927"><ele>1316.1731</ele><time>2026-08-13T00:55:10.000Z</time></trkpt>
        <trkpt lat="27.88911" lon="105.236927"><ele>1316.5671</ele><time>2026-08-13T00:55:12.000Z</time></trkpt>
        <trkpt lat="27.88905" lon="105.236922"><ele>1315.9369</ele><time>2026-08-13T00:55:25.000Z</time></trkpt>
        <trkpt lat="27.88905" lon="105.236922"><ele>1316.4976</ele><time>2026-08-13T00:55:27.000Z</time></trkpt>
        <trkpt lat="27.889048" lon="105.236923"><ele>1315.9753</ele><time>2026-08-13T00:55:29.000Z</time></trkpt>
        <trkpt lat="27.889002" lon="105.236935"><ele>1314.7047</ele><time>2026-08-13T00:55:33.000Z</time></trkpt>
        <trkpt lat="27.888912" lon="105.236958"><ele>1314.3713</ele><time>2026-08-13T00:55:35.000Z</time></trkpt>
        <trkpt lat="27.888906" lon="105.236959"><ele>1314.147</ele><time>2026-08-13T00:55:37.000Z</time></trkpt>
        <trkpt lat="27.888904" lon="105.236958"><ele>1314.1595</ele><time>2026-08-13T00:55:39.000Z</time></trkpt>
        <trkpt lat="27.888869" lon="105.236945"><ele>1314.6625</ele><time>2026-08-13T00:55:43.000Z</time></trkpt>
        <trkpt lat="27.888841" lon="105.236934"><ele>1314.4868</ele><time>2026-08-13T00:55:45.000Z</time></trkpt>
        <trkpt lat="27.888815" lon="105.236922"><ele>1315.4235</ele><time>2026-08-13T00:55:47.000Z</time></trkpt>
        <trkpt lat="27.888793" lon="105.236909"><ele>1316.1326</ele><time>2026-08-13T00:55:49.000Z</time></trkpt>
        <trkpt lat="27.88877" lon="105.236898"><ele>1315.7162</ele><time>2026-08-13T00:55:51.000Z</time></trkpt>
        <trkpt lat="27.88875" lon="105.236894"><ele>1316.1976</ele><time>2026-08-13T00:55:53.000Z</time></trkpt>
        <trkpt lat="27.888727" lon="105.236893"><ele>1316.4849</ele><time>2026-08-13T00:55:55.000Z</time></trkpt>
        <trkpt lat="27.888705" lon="105.236891"><ele>1316.5935</ele><time>2026-08-13T00:55:57.000Z</time></trkpt>
        <trkpt lat="27.888679" lon="105.23689"><ele>1315.5845</ele><time>2026-08-13T00:56:00.000Z</time></trkpt>
        <trkpt lat="27.888657" lon="105.236894"><ele>1316.0175</ele><time>2026-08-13T00:56:01.000Z</time></trkpt>
        <trkpt lat="27.888635" lon="105.236899"><ele>1317.3715</ele><time>2026-08-13T00:56:03.000Z</time></trkpt>
        <trkpt lat="27.888614" lon="105.236907"><ele>1316.4991</ele><time>2026-08-13T00:56:05.000Z</time></trkpt>
        <trkpt lat="27.888599" lon="105.236919"><ele>1317.0204</ele><time>2026-08-13T00:56:07.000Z</time></trkpt>
        <trkpt lat="27.888587" lon="105.23693"><ele>1317.3304</ele><time>2026-08-13T00:56:09.000Z</time></trkpt>
        <trkpt lat="27.888572" lon="105.236938"><ele>1316.9578</ele><time>2026-08-13T00:56:11.000Z</time></trkpt>
        <trkpt lat="27.888557" lon="105.236944"><ele>1316.6113</ele><time>2026-08-13T00:56:13.000Z</time></trkpt>
        <trkpt lat="27.888538" lon="105.236945"><ele>1315.7281</ele><time>2026-08-13T00:56:15.000Z</time></trkpt>
        <trkpt lat="27.888521" lon="105.236943"><ele>1315.39</ele><time>2026-08-13T00:56:17.000Z</time></trkpt>
        <trkpt lat="27.888503" lon="105.236938"><ele>1315.0859</ele><time>2026-08-13T00:56:19.000Z</time></trkpt>
        <trkpt lat="27.888485" lon="105.236931"><ele>1314.0248</ele><time>2026-08-13T00:56:21.000Z</time></trkpt>
        <trkpt lat="27.888465" lon="105.23692"><ele>1313.8148</ele><time>2026-08-13T00:56:23.000Z</time></trkpt>
        <trkpt lat="27.888446" lon="105.236911"><ele>1313.6371</ele><time>2026-08-13T00:56:25.000Z</time></trkpt>
        <trkpt lat="27.888428" lon="105.2369"><ele>1313.2965</ele><time>2026-08-13T00:56:27.000Z</time></trkpt>
        <trkpt lat="27.888412" lon="105.236889"><ele>1312.7831</ele><time>2026-08-13T00:56:29.000Z</time></trkpt>
        <trkpt lat="27.888402" lon="105.23688"><ele>1313.3726</ele><time>2026-08-13T00:56:31.000Z</time></trkpt>
        <trkpt lat="27.888391" lon="105.236869"><ele>1312.8425</ele><time>2026-08-13T00:56:33.000Z</time></trkpt>
        <trkpt lat="27.888378" lon="105.23686"><ele>1312.9583</ele><time>2026-08-13T00:56:35.000Z</time></trkpt>
        <trkpt lat="27.888365" lon="105.236854"><ele>1312.8376</ele><time>2026-08-13T00:56:37.000Z</time></trkpt>
        <trkpt lat="27.888349" lon="105.236848"><ele>1312.0769</ele><time>2026-08-13T00:56:39.000Z</time></trkpt>
        <trkpt lat="27.888333" lon="105.236842"><ele>1311.7206</ele><time>2026-08-13T00:56:41.000Z</time></trkpt>
        <trkpt lat="27.888318" lon="105.236838"><ele>1311.2065</ele><time>2026-08-13T00:56:43.000Z</time></trkpt>
        <trkpt lat="27.888305" lon="105.236836"><ele>1310.8867</ele><time>2026-08-13T00:56:45.000Z</time></trkpt>
        <trkpt lat="27.8883" lon="105.236839"><ele>1310.555</ele><time>2026-08-13T00:56:47.000Z</time></trkpt>
        <trkpt lat="27.888291" lon="105.236846"><ele>1309.9998</ele><time>2026-08-13T00:56:51.000Z</time></trkpt>
        <trkpt lat="27.888281" lon="105.236853"><ele>1308.8273</ele><time>2026-08-13T00:56:56.000Z</time></trkpt>
        <trkpt lat="27.888276" lon="105.23686"><ele>1308.2952</ele><time>2026-08-13T00:56:58.000Z</time></trkpt>
        <trkpt lat="27.888267" lon="105.236875"><ele>1308.9674</ele><time>2026-08-13T00:57:00.000Z</time></trkpt>
        <trkpt lat="27.888267" lon="105.236875"><ele>1308.7806</ele><time>2026-08-13T00:57:04.000Z</time></trkpt>
        <trkpt lat="27.888269" lon="105.236906"><ele>1308.3903</ele><time>2026-08-13T00:57:10.000Z</time></trkpt>
        <trkpt lat="27.888269" lon="105.236906"><ele>1308.0386</ele><time>2026-08-13T00:57:12.000Z</time></trkpt>
        <trkpt lat="27.888268" lon="105.236907"><ele>1307.7264</ele><time>2026-08-13T00:57:14.000Z</time></trkpt>
        <trkpt lat="27.888243" lon="105.236941"><ele>1307.2201</ele><time>2026-08-13T00:57:18.000Z</time></trkpt>
        <trkpt lat="27.888243" lon="105.236941"><ele>1306.7985</ele><time>2026-08-13T00:57:20.000Z</time></trkpt>
        <trkpt lat="27.888241" lon="105.236943"><ele>1305.9718</ele><time>2026-08-13T00:57:22.000Z</time></trkpt>
        <trkpt lat="27.88822" lon="105.236971"><ele>1305.868</ele><time>2026-08-13T00:57:26.000Z</time></trkpt>
        <trkpt lat="27.888211" lon="105.236984"><ele>1305.9912</ele><time>2026-08-13T00:57:28.000Z</time></trkpt>
        <trkpt lat="27.888206" lon="105.236996"><ele>1306.2535</ele><time>2026-08-13T00:57:29.000Z</time></trkpt>
        <trkpt lat="27.888203" lon="105.237007"><ele>1305.914</ele><time>2026-08-13T00:57:31.000Z</time></trkpt>
        <trkpt lat="27.8882" lon="105.237021"><ele>1306.5195</ele><time>2026-08-13T00:57:33.000Z</time></trkpt>
        <trkpt lat="27.888197" lon="105.237035"><ele>1306.4622</ele><time>2026-08-13T00:57:35.000Z</time></trkpt>
        <trkpt lat="27.88819" lon="105.237052"><ele>1306.6205</ele><time>2026-08-13T00:57:37.000Z</time></trkpt>
        <trkpt lat="27.888183" lon="105.23707"><ele>1306.9409</ele><time>2026-08-13T00:57:39.000Z</time></trkpt>
        <trkpt lat="27.888178" lon="105.237092"><ele>1307.2723</ele><time>2026-08-13T00:57:41.000Z</time></trkpt>
        <trkpt lat="27.888174" lon="105.237114"><ele>1308.1635</ele><time>2026-08-13T00:57:43.000Z</time></trkpt>
        <trkpt lat="27.888171" lon="105.237138"><ele>1308.2621</ele><time>2026-08-13T00:57:45.000Z</time></trkpt>
        <trkpt lat="27.888166" lon="105.237161"><ele>1307.8932</ele><time>2026-08-13T00:57:47.000Z</time></trkpt>
        <trkpt lat="27.888154" lon="105.237177"><ele>1308.043</ele><time>2026-08-13T00:57:50.000Z</time></trkpt>
        <trkpt lat="27.888137" lon="105.237187"><ele>1307.6737</ele><time>2026-08-13T00:57:52.000Z</time></trkpt>
        <trkpt lat="27.888114" lon="105.237193"><ele>1307.233</ele><time>2026-08-13T00:57:54.000Z</time></trkpt>
        <trkpt lat="27.888083" lon="105.237196"><ele>1308.3057</ele><time>2026-08-13T00:57:56.000Z</time></trkpt>
        <trkpt lat="27.888055" lon="105.237199"><ele>1309.456</ele><time>2026-08-13T00:57:58.000Z</time></trkpt>
        <trkpt lat="27.888031" lon="105.237198"><ele>1308.5262</ele><time>2026-08-13T00:58:00.000Z</time></trkpt>
        <trkpt lat="27.888005" lon="105.237198"><ele>1308.8923</ele><time>2026-08-13T00:58:02.000Z</time></trkpt>
        <trkpt lat="27.887978" lon="105.237194"><ele>1308.614</ele><time>2026-08-13T00:58:04.000Z</time></trkpt>
        <trkpt lat="27.887945" lon="105.237189"><ele>1307.5616</ele><time>2026-08-13T00:58:06.000Z</time></trkpt>
        <trkpt lat="27.887914" lon="105.237186"><ele>1307.7046</ele><time>2026-08-13T00:58:08.000Z</time></trkpt>
        <trkpt lat="27.887884" lon="105.237188"><ele>1307.1914</ele><time>2026-08-13T00:58:10.000Z</time></trkpt>
        <trkpt lat="27.887854" lon="105.237191"><ele>1306.8002</ele><time>2026-08-13T00:58:12.000Z</time></trkpt>
        <trkpt lat="27.887827" lon="105.237199"><ele>1306.6079</ele><time>2026-08-13T00:58:14.000Z</time></trkpt>
        <trkpt lat="27.8878" lon="105.237208"><ele>1307.4729</ele><time>2026-08-13T00:58:16.000Z</time></trkpt>
        <trkpt lat="27.887775" lon="105.237215"><ele>1306.9948</ele><time>2026-08-13T00:58:18.000Z</time></trkpt>
        <trkpt lat="27.887751" lon="105.237221"><ele>1306.9645</ele><time>2026-08-13T00:58:20.000Z</time></trkpt>
        <trkpt lat="27.887725" lon="105.237227"><ele>1306.9421</ele><time>2026-08-13T00:58:22.000Z</time></trkpt>
        <trkpt lat="27.887698" lon="105.237234"><ele>1307.1531</ele><time>2026-08-13T00:58:24.000Z</time></trkpt>
        <trkpt lat="27.887672" lon="105.237243"><ele>1307.6061</ele><time>2026-08-13T00:58:26.000Z</time></trkpt>
        <trkpt lat="27.887644" lon="105.237254"><ele>1308.5214</ele><time>2026-08-13T00:58:28.000Z</time></trkpt>
        <trkpt lat="27.887621" lon="105.237261"><ele>1309.8907</ele><time>2026-08-13T00:58:30.000Z</time></trkpt>
        <trkpt lat="27.887601" lon="105.237267"><ele>1310.4672</ele><time>2026-08-13T00:58:32.000Z</time></trkpt>
        <trkpt lat="27.887582" lon="105.237269"><ele>1311.403</ele><time>2026-08-13T00:58:34.000Z</time></trkpt>
        <trkpt lat="27.887563" lon="105.237271"><ele>1311.8624</ele><time>2026-08-13T00:58:36.000Z</time></trkpt>
        <trkpt lat="27.887533" lon="105.237277"><ele>1312.0657</ele><time>2026-08-13T00:58:38.000Z</time></trkpt>
        <trkpt lat="27.887507" lon="105.237283"><ele>1311.7533</ele><time>2026-08-13T00:58:40.000Z</time></trkpt>
        <trkpt lat="27.887483" lon="105.237286"><ele>1311.146</ele><time>2026-08-13T00:58:42.000Z</time></trkpt>
        <trkpt lat="27.88746" lon="105.237284"><ele>1311.0505</ele><time>2026-08-13T00:58:44.000Z</time></trkpt>
        <trkpt lat="27.887441" lon="105.237282"><ele>1310.6024</ele><time>2026-08-13T00:58:46.000Z</time></trkpt>
        <trkpt lat="27.887422" lon="105.237283"><ele>1310.0962</ele><time>2026-08-13T00:58:48.000Z</time></trkpt>
        <trkpt lat="27.887401" lon="105.237288"><ele>1310.1239</ele><time>2026-08-13T00:58:50.000Z</time></trkpt>
        <trkpt lat="27.88738" lon="105.237295"><ele>1311.1407</ele><time>2026-08-13T00:58:52.000Z</time></trkpt>
        <trkpt lat="27.887362" lon="105.2373"><ele>1311.7084</ele><time>2026-08-13T00:58:54.000Z</time></trkpt>
        <trkpt lat="27.887341" lon="105.237304"><ele>1311.9492</ele><time>2026-08-13T00:58:56.000Z</time></trkpt>
        <trkpt lat="27.887315" lon="105.23731"><ele>1313.2075</ele><time>2026-08-13T00:58:58.000Z</time></trkpt>
        <trkpt lat="27.887291" lon="105.237316"><ele>1315.283</ele><time>2026-08-13T00:59:00.000Z</time></trkpt>
        <trkpt lat="27.887266" lon="105.237322"><ele>1315.941</ele><time>2026-08-13T00:59:02.000Z</time></trkpt>
        <trkpt lat="27.88724" lon="105.237327"><ele>1316.9238</ele><time>2026-08-13T00:59:04.000Z</time></trkpt>
        <trkpt lat="27.887214" lon="105.23733"><ele>1317.775</ele><time>2026-08-13T00:59:06.000Z</time></trkpt>
        <trkpt lat="27.887188" lon="105.237327"><ele>1318.3035</ele><time>2026-08-13T00:59:08.000Z</time></trkpt>
        <trkpt lat="27.887161" lon="105.237323"><ele>1317.8435</ele><time>2026-08-13T00:59:10.000Z</time></trkpt>
        <trkpt lat="27.887136" lon="105.237318"><ele>1316.0347</ele><time>2026-08-13T00:59:12.000Z</time></trkpt>
        <trkpt lat="27.887123" lon="105.237314"><ele>1316.1174</ele><time>2026-08-13T00:59:14.000Z</time></trkpt>
        <trkpt lat="27.887109" lon="105.237314"><ele>1316.1464</ele><time>2026-08-13T00:59:16.000Z</time></trkpt>
        <trkpt lat="27.887105" lon="105.237317"><ele>1316.1052</ele><time>2026-08-13T00:59:18.000Z</time></trkpt>
        <trkpt lat="27.887097" lon="105.237324"><ele>1316.3938</ele><time>2026-08-13T00:59:20.000Z</time></trkpt>
        <trkpt lat="27.887089" lon="105.237336"><ele>1317.2446</ele><time>2026-08-13T00:59:26.000Z</time></trkpt>
        <trkpt lat="27.887082" lon="105.237342"><ele>1317.0325</ele><time>2026-08-13T00:59:28.000Z</time></trkpt>
        <trkpt lat="27.887065" lon="105.237355"><ele>1317.2604</ele><time>2026-08-13T00:59:30.000Z</time></trkpt>
        <trkpt lat="27.887064" lon="105.237354"><ele>1316.6061</ele><time>2026-08-13T00:59:32.000Z</time></trkpt>
        <trkpt lat="27.88704" lon="105.237341"><ele>1315.9202</ele><time>2026-08-13T00:59:38.000Z</time></trkpt>
        <trkpt lat="27.887024" lon="105.237335"><ele>1315.9335</ele><time>2026-08-13T00:59:40.000Z</time></trkpt>
        <trkpt lat="27.887008" lon="105.237331"><ele>1315.7949</ele><time>2026-08-13T00:59:42.000Z</time></trkpt>
        <trkpt lat="27.886992" lon="105.237327"><ele>1315.7773</ele><time>2026-08-13T00:59:44.000Z</time></trkpt>
        <trkpt lat="27.886978" lon="105.237325"><ele>1315.0563</ele><time>2026-08-13T00:59:46.000Z</time></trkpt>
        <trkpt lat="27.886964" lon="105.237322"><ele>1315.0906</ele><time>2026-08-13T00:59:48.000Z</time></trkpt>
        <trkpt lat="27.886953" lon="105.23732"><ele>1315.0374</ele><time>2026-08-13T00:59:50.000Z</time></trkpt>
        <trkpt lat="27.886941" lon="105.237319"><ele>1315.1182</ele><time>2026-08-13T00:59:52.000Z</time></trkpt>
        <trkpt lat="27.886922" lon="105.237319"><ele>1315.0226</ele><time>2026-08-13T00:59:54.000Z</time></trkpt>
        <trkpt lat="27.886906" lon="105.237322"><ele>1314.0544</ele><time>2026-08-13T00:59:56.000Z</time></trkpt>
        <trkpt lat="27.886892" lon="105.237323"><ele>1314.2324</ele><time>2026-08-13T00:59:58.000Z</time></trkpt>
        <trkpt lat="27.886882" lon="105.237324"><ele>1314.1926</ele><time>2026-08-13T01:00:00.000Z</time></trkpt>
        <trkpt lat="27.886878" lon="105.237322"><ele>1313.8246</ele><time>2026-08-13T01:00:02.000Z</time></trkpt>
        <trkpt lat="27.886826" lon="105.2373"><ele>1313.3011</ele><time>2026-08-13T01:00:34.000Z</time></trkpt>
        <trkpt lat="27.886826" lon="105.2373"><ele>1312.9698</ele><time>2026-08-13T01:00:36.000Z</time></trkpt>
        <trkpt lat="27.886825" lon="105.2373"><ele>1312.4103</ele><time>2026-08-13T01:00:38.000Z</time></trkpt>
        <trkpt lat="27.886737" lon="105.237313"><ele>1310.939</ele><time>2026-08-13T01:01:33.000Z</time></trkpt>
        <trkpt lat="27.886716" lon="105.237315"><ele>1310.2216</ele><time>2026-08-13T01:01:35.000Z</time></trkpt>
        <trkpt lat="27.886695" lon="105.237317"><ele>1310.7126</ele><time>2026-08-13T01:01:37.000Z</time></trkpt>
        <trkpt lat="27.886655" lon="105.237317"><ele>1309.314</ele><time>2026-08-13T01:01:40.000Z</time></trkpt>
        <trkpt lat="27.886636" lon="105.237316"><ele>1308.5337</ele><time>2026-08-13T01:01:46.000Z</time></trkpt>
        <trkpt lat="27.886609" lon="105.237315"><ele>1308.4077</ele><time>2026-08-13T01:01:48.000Z</time></trkpt>
        <trkpt lat="27.886573" lon="105.237315"><ele>1307.7916</ele><time>2026-08-13T01:01:50.000Z</time></trkpt>
        <trkpt lat="27.886545" lon="105.237319"><ele>1307.8013</ele><time>2026-08-13T01:01:52.000Z</time></trkpt>
        <trkpt lat="27.886529" lon="105.237323"><ele>1307.6818</ele><time>2026-08-13T01:01:54.000Z</time></trkpt>
        <trkpt lat="27.886529" lon="105.237326"><ele>1307.8512</ele><time>2026-08-13T01:01:56.000Z</time></trkpt>
        <trkpt lat="27.886544" lon="105.237269"><ele>1307.146</ele><time>2026-08-13T01:02:53.000Z</time></trkpt>
        <trkpt lat="27.886544" lon="105.237269"><ele>1308.4834</ele><time>2026-08-13T01:03:08.000Z</time></trkpt>
        <trkpt lat="27.88647" lon="105.237334"><ele>1307.9021</ele><time>2026-08-13T01:04:05.000Z</time></trkpt>
        <trkpt lat="27.886453" lon="105.237348"><ele>1307.7533</ele><time>2026-08-13T01:04:07.000Z</time></trkpt>
        <trkpt lat="27.886452" lon="105.237349"><ele>1307.4861</ele><time>2026-08-13T01:04:09.000Z</time></trkpt>
        <trkpt lat="27.886407" lon="105.237366"><ele>1307.0166</ele><time>2026-08-13T01:04:17.000Z</time></trkpt>
        <trkpt lat="27.886392" lon="105.237372"><ele>1307.2424</ele><time>2026-08-13T01:04:19.000Z</time></trkpt>
        <trkpt lat="27.886379" lon="105.237378"><ele>1306.9966</ele><time>2026-08-13T01:04:21.000Z</time></trkpt>
        <trkpt lat="27.886353" lon="105.237389"><ele>1306.5211</ele><time>2026-08-13T01:04:25.000Z</time></trkpt>
        <trkpt lat="27.886341" lon="105.237393"><ele>1306.5039</ele><time>2026-08-13T01:04:27.000Z</time></trkpt>
        <trkpt lat="27.886326" lon="105.237397"><ele>1306.5243</ele><time>2026-08-13T01:04:29.000Z</time></trkpt>
        <trkpt lat="27.886299" lon="105.237407"><ele>1306.234</ele><time>2026-08-13T01:04:33.000Z</time></trkpt>
        <trkpt lat="27.886287" lon="105.237412"><ele>1306.4935</ele><time>2026-08-13T01:04:35.000Z</time></trkpt>
        <trkpt lat="27.886271" lon="105.23742"><ele>1306.8494</ele><time>2026-08-13T01:04:37.000Z</time></trkpt>
        <trkpt lat="27.886254" lon="105.237429"><ele>1306.9545</ele><time>2026-08-13T01:04:39.000Z</time></trkpt>
        <trkpt lat="27.886236" lon="105.237439"><ele>1306.7816</ele><time>2026-08-13T01:04:41.000Z</time></trkpt>
        <trkpt lat="27.886218" lon="105.23745"><ele>1306.7166</ele><time>2026-08-13T01:04:43.000Z</time></trkpt>
        <trkpt lat="27.886201" lon="105.237458"><ele>1306.9437</ele><time>2026-08-13T01:04:45.000Z</time></trkpt>
        <trkpt lat="27.886185" lon="105.237463"><ele>1306.707</ele><time>2026-08-13T01:04:47.000Z</time></trkpt>
        <trkpt lat="27.886171" lon="105.237466"><ele>1306.6171</ele><time>2026-08-13T01:04:49.000Z</time></trkpt>
        <trkpt lat="27.886157" lon="105.237468"><ele>1306.6967</ele><time>2026-08-13T01:04:51.000Z</time></trkpt>
        <trkpt lat="27.886144" lon="105.237468"><ele>1306.7162</ele><time>2026-08-13T01:04:53.000Z</time></trkpt>
        <trkpt lat="27.886129" lon="105.237465"><ele>1306.8899</ele><time>2026-08-13T01:04:55.000Z</time></trkpt>
        <trkpt lat="27.886115" lon="105.237461"><ele>1306.7401</ele><time>2026-08-13T01:04:57.000Z</time></trkpt>
        <trkpt lat="27.886104" lon="105.237458"><ele>1306.5516</ele><time>2026-08-13T01:04:59.000Z</time></trkpt>
        <trkpt lat="27.886094" lon="105.237455"><ele>1306.5032</ele><time>2026-08-13T01:05:01.000Z</time></trkpt>
        <trkpt lat="27.886077" lon="105.237452"><ele>1307.206</ele><time>2026-08-13T01:05:05.000Z</time></trkpt>
        <trkpt lat="27.886061" lon="105.237456"><ele>1306.736</ele><time>2026-08-13T01:05:21.000Z</time></trkpt>
        <trkpt lat="27.886037" lon="105.23746"><ele>1306.5371</ele><time>2026-08-13T01:05:23.000Z</time></trkpt>
        <trkpt lat="27.886022" lon="105.237462"><ele>1306.7802</ele><time>2026-08-13T01:05:29.000Z</time></trkpt>
        <trkpt lat="27.885983" lon="105.237466"><ele>1306.4631</ele><time>2026-08-13T01:05:31.000Z</time></trkpt>
        <trkpt lat="27.88598" lon="105.237467"><ele>1306.4554</ele><time>2026-08-13T01:05:33.000Z</time></trkpt>
        <trkpt lat="27.88596" lon="105.237477"><ele>1306.2068</ele><time>2026-08-13T01:05:45.000Z</time></trkpt>
        <trkpt lat="27.885918" lon="105.237499"><ele>1306.2262</ele><time>2026-08-13T01:05:52.000Z</time></trkpt>
        <trkpt lat="27.885917" lon="105.237499"><ele>1306.1586</ele><time>2026-08-13T01:05:54.000Z</time></trkpt>
        <trkpt lat="27.885894" lon="105.237507"><ele>1305.8903</ele><time>2026-08-13T01:06:00.000Z</time></trkpt>
        <trkpt lat="27.885847" lon="105.237521"><ele>1308.5011</ele><time>2026-08-13T01:06:06.000Z</time></trkpt>
        <trkpt lat="27.885834" lon="105.237523"><ele>1308.8319</ele><time>2026-08-13T01:06:08.000Z</time></trkpt>
        <trkpt lat="27.885822" lon="105.237521"><ele>1309.1296</ele><time>2026-08-13T01:06:10.000Z</time></trkpt>
        <trkpt lat="27.885762" lon="105.237511"><ele>1307.4177</ele><time>2026-08-13T01:06:30.000Z</time></trkpt>
        <trkpt lat="27.885738" lon="105.237505"><ele>1307.5293</ele><time>2026-08-13T01:06:32.000Z</time></trkpt>
        <trkpt lat="27.885709" lon="105.237497"><ele>1307.1682</ele><time>2026-08-13T01:06:34.000Z</time></trkpt>
        <trkpt lat="27.885678" lon="105.237487"><ele>1307.357</ele><time>2026-08-13T01:06:36.000Z</time></trkpt>
        <trkpt lat="27.885648" lon="105.23748"><ele>1307.7753</ele><time>2026-08-13T01:06:38.000Z</time></trkpt>
        <trkpt lat="27.885619" lon="105.237475"><ele>1307.5426</ele><time>2026-08-13T01:06:40.000Z</time></trkpt>
        <trkpt lat="27.885596" lon="105.237473"><ele>1307.2601</ele><time>2026-08-13T01:06:42.000Z</time></trkpt>
        <trkpt lat="27.885568" lon="105.237473"><ele>1307.4431</ele><time>2026-08-13T01:06:44.000Z</time></trkpt>
        <trkpt lat="27.885545" lon="105.237473"><ele>1307.5559</ele><time>2026-08-13T01:06:46.000Z</time></trkpt>
        <trkpt lat="27.885528" lon="105.237473"><ele>1307.5546</ele><time>2026-08-13T01:06:48.000Z</time></trkpt>
        <trkpt lat="27.885512" lon="105.237472"><ele>1306.396</ele><time>2026-08-13T01:06:50.000Z</time></trkpt>
        <trkpt lat="27.885478" lon="105.237467"><ele>1306.6205</ele><time>2026-08-13T01:06:54.000Z</time></trkpt>
        <trkpt lat="27.885463" lon="105.237463"><ele>1306.6538</ele><time>2026-08-13T01:06:56.000Z</time></trkpt>
        <trkpt lat="27.885447" lon="105.237459"><ele>1305.9453</ele><time>2026-08-13T01:06:58.000Z</time></trkpt>
        <trkpt lat="27.885412" lon="105.23745"><ele>1304.1256</ele><time>2026-08-13T01:07:02.000Z</time></trkpt>
        <trkpt lat="27.8854" lon="105.237446"><ele>1303.5665</ele><time>2026-08-13T01:07:04.000Z</time></trkpt>
        <trkpt lat="27.885385" lon="105.237442"><ele>1303.6038</ele><time>2026-08-13T01:07:06.000Z</time></trkpt>
        <trkpt lat="27.885346" lon="105.237433"><ele>1303.1688</ele><time>2026-08-13T01:07:10.000Z</time></trkpt>
        <trkpt lat="27.885327" lon="105.23743"><ele>1302.8851</ele><time>2026-08-13T01:07:12.000Z</time></trkpt>
        <trkpt lat="27.885308" lon="105.237427"><ele>1303.2089</ele><time>2026-08-13T01:07:14.000Z</time></trkpt>
        <trkpt lat="27.885292" lon="105.237426"><ele>1303.6664</ele><time>2026-08-13T01:07:16.000Z</time></trkpt>
        <trkpt lat="27.885279" lon="105.237426"><ele>1304.2849</ele><time>2026-08-13T01:07:18.000Z</time></trkpt>
        <trkpt lat="27.885266" lon="105.237427"><ele>1304.6837</ele><time>2026-08-13T01:07:20.000Z</time></trkpt>
        <trkpt lat="27.885237" lon="105.237429"><ele>1306.0282</ele><time>2026-08-13T01:07:24.000Z</time></trkpt>
        <trkpt lat="27.885222" lon="105.237431"><ele>1306.5896</ele><time>2026-08-13T01:07:26.000Z</time></trkpt>
        <trkpt lat="27.885207" lon="105.237434"><ele>1306.9365</ele><time>2026-08-13T01:07:28.000Z</time></trkpt>
        <trkpt lat="27.885192" lon="105.237438"><ele>1306.8495</ele><time>2026-08-13T01:07:30.000Z</time></trkpt>
        <trkpt lat="27.885177" lon="105.237442"><ele>1307.0281</ele><time>2026-08-13T01:07:32.000Z</time></trkpt>
        <trkpt lat="27.885162" lon="105.237445"><ele>1307.8561</ele><time>2026-08-13T01:07:34.000Z</time></trkpt>
        <trkpt lat="27.885147" lon="105.237448"><ele>1308.2404</ele><time>2026-08-13T01:07:36.000Z</time></trkpt>
        <trkpt lat="27.885134" lon="105.237451"><ele>1308.2823</ele><time>2026-08-13T01:07:38.000Z</time></trkpt>
        <trkpt lat="27.885126" lon="105.237453"><ele>1308.7651</ele><time>2026-08-13T01:07:40.000Z</time></trkpt>
        <trkpt lat="27.885102" lon="105.237457"><ele>1309.5054</ele><time>2026-08-13T01:07:44.000Z</time></trkpt>
        <trkpt lat="27.885091" lon="105.237459"><ele>1309.2911</ele><time>2026-08-13T01:07:46.000Z</time></trkpt>
        <trkpt lat="27.885077" lon="105.237464"><ele>1308.9501</ele><time>2026-08-13T01:07:48.000Z</time></trkpt>
        <trkpt lat="27.885063" lon="105.237469"><ele>1308.6436</ele><time>2026-08-13T01:07:52.000Z</time></trkpt>
        <trkpt lat="27.885054" lon="105.237473"><ele>1307.5841</ele><time>2026-08-13T01:07:56.000Z</time></trkpt>
        <trkpt lat="27.885028" lon="105.237485"><ele>1308.0707</ele><time>2026-08-13T01:07:59.000Z</time></trkpt>
        <trkpt lat="27.885015" lon="105.23749"><ele>1308.1271</ele><time>2026-08-13T01:08:05.000Z</time></trkpt>
        <trkpt lat="27.884999" lon="105.237494"><ele>1308.2843</ele><time>2026-08-13T01:08:07.000Z</time></trkpt>
        <trkpt lat="27.884985" lon="105.237499"><ele>1307.971</ele><time>2026-08-13T01:08:09.000Z</time></trkpt>
        <trkpt lat="27.884974" lon="105.237505"><ele>1307.9185</ele><time>2026-08-13T01:08:11.000Z</time></trkpt>
        <trkpt lat="27.884947" lon="105.23752"><ele>1310.8119</ele><time>2026-08-13T01:09:56.000Z</time></trkpt>
        <trkpt lat="27.884931" lon="105.237528"><ele>1309.6575</ele><time>2026-08-13T01:10:00.000Z</time></trkpt>
        <trkpt lat="27.884917" lon="105.237535"><ele>1309.623</ele><time>2026-08-13T01:10:02.000Z</time></trkpt>
        <trkpt lat="27.884871" lon="105.237551"><ele>1310.447</ele><time>2026-08-13T01:10:12.000Z</time></trkpt>
        <trkpt lat="27.88485" lon="105.237556"><ele>1310.6632</ele><time>2026-08-13T01:10:14.000Z</time></trkpt>
        <trkpt lat="27.884827" lon="105.237563"><ele>1311.437</ele><time>2026-08-13T01:10:16.000Z</time></trkpt>
        <trkpt lat="27.884807" lon="105.23757"><ele>1310.8623</ele><time>2026-08-13T01:10:18.000Z</time></trkpt>
        <trkpt lat="27.884786" lon="105.237575"><ele>1311.2943</ele><time>2026-08-13T01:10:20.000Z</time></trkpt>
        <trkpt lat="27.884743" lon="105.237584"><ele>1311.8191</ele><time>2026-08-13T01:10:24.000Z</time></trkpt>
        <trkpt lat="27.884724" lon="105.237586"><ele>1311.2682</ele><time>2026-08-13T01:10:26.000Z</time></trkpt>
        <trkpt lat="27.884704" lon="105.23759"><ele>1311.3013</ele><time>2026-08-13T01:10:28.000Z</time></trkpt>
        <trkpt lat="27.884686" lon="105.237594"><ele>1310.7339</ele><time>2026-08-13T01:10:30.000Z</time></trkpt>
        <trkpt lat="27.884665" lon="105.237599"><ele>1310.5007</ele><time>2026-08-13T01:10:34.000Z</time></trkpt>
        <trkpt lat="27.884654" lon="105.237599"><ele>1309.8041</ele><time>2026-08-13T01:10:36.000Z</time></trkpt>
        <trkpt lat="27.884625" lon="105.237602"><ele>1309.6544</ele><time>2026-08-13T01:10:40.000Z</time></trkpt>
        <trkpt lat="27.88461" lon="105.237604"><ele>1310.0885</ele><time>2026-08-13T01:10:42.000Z</time></trkpt>
        <trkpt lat="27.884598" lon="105.237608"><ele>1309.7917</ele><time>2026-08-13T01:10:44.000Z</time></trkpt>
        <trkpt lat="27.884572" lon="105.237617"><ele>1307.96</ele><time>2026-08-13T01:10:48.000Z</time></trkpt>
        <trkpt lat="27.88456" lon="105.237623"><ele>1307.7659</ele><time>2026-08-13T01:10:50.000Z</time></trkpt>
        <trkpt lat="27.884536" lon="105.237634"><ele>1307.886</ele><time>2026-08-13T01:10:54.000Z</time></trkpt>
        <trkpt lat="27.884522" lon="105.237642"><ele>1307.7443</ele><time>2026-08-13T01:10:58.000Z</time></trkpt>
        <trkpt lat="27.884492" lon="105.23766"><ele>1306.6414</ele><time>2026-08-13T01:11:04.000Z</time></trkpt>
        <trkpt lat="27.88449" lon="105.237663"><ele>1306.3926</ele><time>2026-08-13T01:11:08.000Z</time></trkpt>
        <trkpt lat="27.88447" lon="105.237682"><ele>1306.103</ele><time>2026-08-13T01:11:12.000Z</time></trkpt>
        <trkpt lat="27.884424" lon="105.237727"><ele>1304.924</ele><time>2026-08-13T01:11:30.000Z</time></trkpt>
        <trkpt lat="27.884424" lon="105.237727"><ele>1305.0537</ele><time>2026-08-13T01:11:32.000Z</time></trkpt>
        <trkpt lat="27.884409" lon="105.237742"><ele>1304.899</ele><time>2026-08-13T01:11:36.000Z</time></trkpt>
        <trkpt lat="27.884355" lon="105.237799"><ele>1305.0149</ele><time>2026-08-13T01:11:40.000Z</time></trkpt>
        <trkpt lat="27.884328" lon="105.237827"><ele>1305.3016</ele><time>2026-08-13T01:11:42.000Z</time></trkpt>
        <trkpt lat="27.884304" lon="105.237854"><ele>1305.7661</ele><time>2026-08-13T01:11:44.000Z</time></trkpt>
        <trkpt lat="27.88428" lon="105.237877"><ele>1306.0533</ele><time>2026-08-13T01:11:46.000Z</time></trkpt>
        <trkpt lat="27.884256" lon="105.237895"><ele>1306.2312</ele><time>2026-08-13T01:11:48.000Z</time></trkpt>
        <trkpt lat="27.884236" lon="105.237909"><ele>1306.4637</ele><time>2026-08-13T01:11:50.000Z</time></trkpt>
        <trkpt lat="27.88422" lon="105.23792"><ele>1306.4454</ele><time>2026-08-13T01:11:52.000Z</time></trkpt>
        <trkpt lat="27.884204" lon="105.237931"><ele>1306.6372</ele><time>2026-08-13T01:11:54.000Z</time></trkpt>
        <trkpt lat="27.884187" lon="105.237942"><ele>1306.2101</ele><time>2026-08-13T01:11:56.000Z</time></trkpt>
        <trkpt lat="27.88417" lon="105.237951"><ele>1306.727</ele><time>2026-08-13T01:11:58.000Z</time></trkpt>
        <trkpt lat="27.884157" lon="105.237958"><ele>1306.6125</ele><time>2026-08-13T01:12:00.000Z</time></trkpt>
        <trkpt lat="27.884143" lon="105.237963"><ele>1306.9401</ele><time>2026-08-13T01:12:02.000Z</time></trkpt>
        <trkpt lat="27.88413" lon="105.237967"><ele>1307.1407</ele><time>2026-08-13T01:12:04.000Z</time></trkpt>
        <trkpt lat="27.884119" lon="105.237973"><ele>1307.3417</ele><time>2026-08-13T01:12:06.000Z</time></trkpt>
        <trkpt lat="27.884103" lon="105.237983"><ele>1307.1692</ele><time>2026-08-13T01:12:08.000Z</time></trkpt>
        <trkpt lat="27.88409" lon="105.237992"><ele>1307.1855</ele><time>2026-08-13T01:12:10.000Z</time></trkpt>
        <trkpt lat="27.884075" lon="105.238001"><ele>1307.3422</ele><time>2026-08-13T01:12:12.000Z</time></trkpt>
        <trkpt lat="27.884056" lon="105.238013"><ele>1307.6029</ele><time>2026-08-13T01:12:14.000Z</time></trkpt>
        <trkpt lat="27.884045" lon="105.23802"><ele>1307.2344</ele><time>2026-08-13T01:12:16.000Z</time></trkpt>
        <trkpt lat="27.884046" lon="105.238019"><ele>1307.567</ele><time>2026-08-13T01:12:18.000Z</time></trkpt>
        <trkpt lat="27.884084" lon="105.238003"><ele>1307.9619</ele><time>2026-08-13T01:12:24.000Z</time></trkpt>
        <trkpt lat="27.884084" lon="105.238003"><ele>1307.7775</ele><time>2026-08-13T01:12:26.000Z</time></trkpt>
        <trkpt lat="27.884015" lon="105.238021"><ele>1307.9127</ele><time>2026-08-13T01:12:31.000Z</time></trkpt>
        <trkpt lat="27.884015" lon="105.238021"><ele>1307.8319</ele><time>2026-08-13T01:12:33.000Z</time></trkpt>
        <trkpt lat="27.884015" lon="105.238021"><ele>1307.6608</ele><time>2026-08-13T01:12:35.000Z</time></trkpt>
        <trkpt lat="27.883979" lon="105.238032"><ele>1308.233</ele><time>2026-08-13T01:12:51.000Z</time></trkpt>
        <trkpt lat="27.883966" lon="105.238032"><ele>1308.2662</ele><time>2026-08-13T01:12:53.000Z</time></trkpt>
        <trkpt lat="27.883947" lon="105.238028"><ele>1307.9988</ele><time>2026-08-13T01:12:55.000Z</time></trkpt>
        <trkpt lat="27.883932" lon="105.238024"><ele>1308.8386</ele><time>2026-08-13T01:13:01.000Z</time></trkpt>
        <trkpt lat="27.883919" lon="105.23802"><ele>1308.8191</ele><time>2026-08-13T01:13:03.000Z</time></trkpt>
        <trkpt lat="27.883899" lon="105.238019"><ele>1308.6742</ele><time>2026-08-13T01:13:05.000Z</time></trkpt>
        <trkpt lat="27.883876" lon="105.238024"><ele>1309.0277</ele><time>2026-08-13T01:13:07.000Z</time></trkpt>
        <trkpt lat="27.883855" lon="105.238037"><ele>1308.591</ele><time>2026-08-13T01:13:09.000Z</time></trkpt>
        <trkpt lat="27.883836" lon="105.238056"><ele>1308.4493</ele><time>2026-08-13T01:13:11.000Z</time></trkpt>
        <trkpt lat="27.883817" lon="105.23808"><ele>1308.3649</ele><time>2026-08-13T01:13:13.000Z</time></trkpt>
        <trkpt lat="27.883798" lon="105.238106"><ele>1308.3087</ele><time>2026-08-13T01:13:15.000Z</time></trkpt>
        <trkpt lat="27.883777" lon="105.238133"><ele>1308.6696</ele><time>2026-08-13T01:13:17.000Z</time></trkpt>
        <trkpt lat="27.883755" lon="105.238159"><ele>1309.0565</ele><time>2026-08-13T01:13:19.000Z</time></trkpt>
        <trkpt lat="27.883731" lon="105.23818"><ele>1309.0437</ele><time>2026-08-13T01:13:21.000Z</time></trkpt>
        <trkpt lat="27.883707" lon="105.238196"><ele>1309.7267</ele><time>2026-08-13T01:13:23.000Z</time></trkpt>
        <trkpt lat="27.883683" lon="105.238207"><ele>1309.248</ele><time>2026-08-13T01:13:25.000Z</time></trkpt>
        <trkpt lat="27.883658" lon="105.238216"><ele>1309.7496</ele><time>2026-08-13T01:13:27.000Z</time></trkpt>
        <trkpt lat="27.883638" lon="105.23822"><ele>1310.5492</ele><time>2026-08-13T01:13:29.000Z</time></trkpt>
        <trkpt lat="27.883627" lon="105.238221"><ele>1310.8802</ele><time>2026-08-13T01:13:31.000Z</time></trkpt>
        <trkpt lat="27.883625" lon="105.238224"><ele>1311.0161</ele><time>2026-08-13T01:13:33.000Z</time></trkpt>
        <trkpt lat="27.883604" lon="105.238244"><ele>1312.3677</ele><time>2026-08-13T01:13:43.000Z</time></trkpt>
        <trkpt lat="27.883589" lon="105.238259"><ele>1311.1937</ele><time>2026-08-13T01:13:49.000Z</time></trkpt>
        <trkpt lat="27.883568" lon="105.238279"><ele>1310.2627</ele><time>2026-08-13T01:13:51.000Z</time></trkpt>
        <trkpt lat="27.883538" lon="105.238305"><ele>1309.3159</ele><time>2026-08-13T01:13:53.000Z</time></trkpt>
        <trkpt lat="27.883508" lon="105.238326"><ele>1308.7178</ele><time>2026-08-13T01:13:55.000Z</time></trkpt>
        <trkpt lat="27.883486" lon="105.238341"><ele>1307.885</ele><time>2026-08-13T01:13:57.000Z</time></trkpt>
        <trkpt lat="27.883466" lon="105.238356"><ele>1307.3381</ele><time>2026-08-13T01:13:59.000Z</time></trkpt>
        <trkpt lat="27.883447" lon="105.238369"><ele>1307.0283</ele><time>2026-08-13T01:14:01.000Z</time></trkpt>
        <trkpt lat="27.883429" lon="105.23838"><ele>1306.5336</ele><time>2026-08-13T01:14:03.000Z</time></trkpt>
        <trkpt lat="27.883413" lon="105.238387"><ele>1306.0471</ele><time>2026-08-13T01:14:05.000Z</time></trkpt>
        <trkpt lat="27.883413" lon="105.238386"><ele>1304.0494</ele><time>2026-08-13T01:14:07.000Z</time></trkpt>
        <trkpt lat="27.883398" lon="105.238351"><ele>1300.149</ele><time>2026-08-13T01:14:58.000Z</time></trkpt>
        <trkpt lat="27.883381" lon="105.238312"><ele>1302.152</ele><time>2026-08-13T01:15:04.000Z</time></trkpt>
        <trkpt lat="27.883383" lon="105.23831"><ele>1301.4167</ele><time>2026-08-13T01:15:06.000Z</time></trkpt>
        <trkpt lat="27.883316" lon="105.238405"><ele>1299.6986</ele><time>2026-08-13T01:15:16.000Z</time></trkpt>
        <trkpt lat="27.883316" lon="105.238405"><ele>1299.8759</ele><time>2026-08-13T01:15:18.000Z</time></trkpt>
        <trkpt lat="27.883311" lon="105.238406"><ele>1298.9275</ele><time>2026-08-13T01:15:20.000Z</time></trkpt>
        <trkpt lat="27.883243" lon="105.238424"><ele>1301.7594</ele><time>2026-08-13T01:15:26.000Z</time></trkpt>
        <trkpt lat="27.88322" lon="105.238427"><ele>1302.262</ele><time>2026-08-13T01:15:28.000Z</time></trkpt>
        <trkpt lat="27.883198" lon="105.23843"><ele>1302.2397</ele><time>2026-08-13T01:15:30.000Z</time></trkpt>
        <trkpt lat="27.883179" lon="105.238432"><ele>1302.0591</ele><time>2026-08-13T01:15:32.000Z</time></trkpt>
        <trkpt lat="27.88315" lon="105.238429"><ele>1304.1085</ele><time>2026-08-13T01:15:36.000Z</time></trkpt>
        <trkpt lat="27.883115" lon="105.238427"><ele>1304.3617</ele><time>2026-08-13T01:15:40.000Z</time></trkpt>
        <trkpt lat="27.883096" lon="105.238428"><ele>1304.8741</ele><time>2026-08-13T01:15:42.000Z</time></trkpt>
        <trkpt lat="27.883075" lon="105.23843"><ele>1305.5621</ele><time>2026-08-13T01:15:44.000Z</time></trkpt>
        <trkpt lat="27.883036" lon="105.238434"><ele>1306.5065</ele><time>2026-08-13T01:15:48.000Z</time></trkpt>
        <trkpt lat="27.883023" lon="105.23844"><ele>1306.5536</ele><time>2026-08-13T01:15:50.000Z</time></trkpt>
        <trkpt lat="27.882999" lon="105.238449"><ele>1306.2151</ele><time>2026-08-13T01:15:52.000Z</time></trkpt>
        <trkpt lat="27.882976" lon="105.238457"><ele>1306.165</ele><time>2026-08-13T01:15:54.000Z</time></trkpt>
        <trkpt lat="27.882946" lon="105.238461"><ele>1305.7146</ele><time>2026-08-13T01:15:56.000Z</time></trkpt>
        <trkpt lat="27.882915" lon="105.238467"><ele>1305.2307</ele><time>2026-08-13T01:15:58.000Z</time></trkpt>
        <trkpt lat="27.882877" lon="105.238476"><ele>1304.6836</ele><time>2026-08-13T01:16:00.000Z</time></trkpt>
        <trkpt lat="27.882833" lon="105.238482"><ele>1304.0022</ele><time>2026-08-13T01:16:02.000Z</time></trkpt>
        <trkpt lat="27.88279" lon="105.238484"><ele>1303.2281</ele><time>2026-08-13T01:16:04.000Z</time></trkpt>
        <trkpt lat="27.882749" lon="105.238484"><ele>1303.1287</ele><time>2026-08-13T01:16:06.000Z</time></trkpt>
        <trkpt lat="27.882711" lon="105.238484"><ele>1302.3248</ele><time>2026-08-13T01:16:08.000Z</time></trkpt>
        <trkpt lat="27.882679" lon="105.238483"><ele>1301.3594</ele><time>2026-08-13T01:16:10.000Z</time></trkpt>
        <trkpt lat="27.882653" lon="105.238485"><ele>1300.7831</ele><time>2026-08-13T01:16:12.000Z</time></trkpt>
        <trkpt lat="27.882637" lon="105.238491"><ele>1299.9749</ele><time>2026-08-13T01:16:14.000Z</time></trkpt>
        <trkpt lat="27.882619" lon="105.238499"><ele>1298.9786</ele><time>2026-08-13T01:16:16.000Z</time></trkpt>
        <trkpt lat="27.882599" lon="105.238507"><ele>1297.9873</ele><time>2026-08-13T01:16:18.000Z</time></trkpt>
        <trkpt lat="27.882581" lon="105.23851"><ele>1298.0767</ele><time>2026-08-13T01:16:20.000Z</time></trkpt>
        <trkpt lat="27.882561" lon="105.23851"><ele>1297.848</ele><time>2026-08-13T01:16:22.000Z</time></trkpt>
        <trkpt lat="27.882536" lon="105.238508"><ele>1296.9552</ele><time>2026-08-13T01:16:24.000Z</time></trkpt>
        <trkpt lat="27.882519" lon="105.238505"><ele>1296.3793</ele><time>2026-08-13T01:16:26.000Z</time></trkpt>
        <trkpt lat="27.882502" lon="105.2385"><ele>1296.3685</ele><time>2026-08-13T01:16:28.000Z</time></trkpt>
        <trkpt lat="27.882489" lon="105.238497"><ele>1296.354</ele><time>2026-08-13T01:16:30.000Z</time></trkpt>
        <trkpt lat="27.882475" lon="105.238496"><ele>1296.2977</ele><time>2026-08-13T01:16:32.000Z</time></trkpt>
        <trkpt lat="27.882457" lon="105.238496"><ele>1295.7944</ele><time>2026-08-13T01:16:34.000Z</time></trkpt>
        <trkpt lat="27.882438" lon="105.238496"><ele>1295.5295</ele><time>2026-08-13T01:16:36.000Z</time></trkpt>
        <trkpt lat="27.882412" lon="105.238499"><ele>1295.5052</ele><time>2026-08-13T01:16:38.000Z</time></trkpt>
        <trkpt lat="27.882385" lon="105.238501"><ele>1294.9725</ele><time>2026-08-13T01:16:40.000Z</time></trkpt>
        <trkpt lat="27.882364" lon="105.238502"><ele>1295.0502</ele><time>2026-08-13T01:16:42.000Z</time></trkpt>
        <trkpt lat="27.882339" lon="105.238504"><ele>1295.3811</ele><time>2026-08-13T01:16:45.000Z</time></trkpt>
        <trkpt lat="27.882323" lon="105.238511"><ele>1295.7125</ele><time>2026-08-13T01:16:47.000Z</time></trkpt>
        <trkpt lat="27.8823" lon="105.238528"><ele>1295.2028</ele><time>2026-08-13T01:16:49.000Z</time></trkpt>
        <trkpt lat="27.882274" lon="105.238551"><ele>1294.6779</ele><time>2026-08-13T01:16:51.000Z</time></trkpt>
        <trkpt lat="27.882253" lon="105.238575"><ele>1293.4406</ele><time>2026-08-13T01:16:53.000Z</time></trkpt>
        <trkpt lat="27.882237" lon="105.238596"><ele>1292.9432</ele><time>2026-08-13T01:16:55.000Z</time></trkpt>
        <trkpt lat="27.882215" lon="105.23862"><ele>1293.2227</ele><time>2026-08-13T01:16:57.000Z</time></trkpt>
        <trkpt lat="27.882189" lon="105.23865"><ele>1293.284</ele><time>2026-08-13T01:16:59.000Z</time></trkpt>
        <trkpt lat="27.882161" lon="105.238679"><ele>1294.5796</ele><time>2026-08-13T01:17:01.000Z</time></trkpt>
        <trkpt lat="27.882132" lon="105.238703"><ele>1295.1099</ele><time>2026-08-13T01:17:03.000Z</time></trkpt>
        <trkpt lat="27.882105" lon="105.238727"><ele>1295.8507</ele><time>2026-08-13T01:17:05.000Z</time></trkpt>
        <trkpt lat="27.88208" lon="105.238751"><ele>1296.5035</ele><time>2026-08-13T01:17:07.000Z</time></trkpt>
        <trkpt lat="27.882055" lon="105.238774"><ele>1297.5308</ele><time>2026-08-13T01:17:09.000Z</time></trkpt>
        <trkpt lat="27.882034" lon="105.238792"><ele>1297.5828</ele><time>2026-08-13T01:17:11.000Z</time></trkpt>
        <trkpt lat="27.882013" lon="105.238813"><ele>1297.5569</ele><time>2026-08-13T01:17:13.000Z</time></trkpt>
        <trkpt lat="27.881994" lon="105.238835"><ele>1297.9927</ele><time>2026-08-13T01:17:15.000Z</time></trkpt>
        <trkpt lat="27.881979" lon="105.238857"><ele>1298.5465</ele><time>2026-08-13T01:17:17.000Z</time></trkpt>
        <trkpt lat="27.881962" lon="105.238885"><ele>1298.8887</ele><time>2026-08-13T01:17:19.000Z</time></trkpt>
        <trkpt lat="27.881944" lon="105.238914"><ele>1299.4198</ele><time>2026-08-13T01:17:21.000Z</time></trkpt>
        <trkpt lat="27.88193" lon="105.238936"><ele>1299.6285</ele><time>2026-08-13T01:17:23.000Z</time></trkpt>
        <trkpt lat="27.881913" lon="105.23896"><ele>1299.8767</ele><time>2026-08-13T01:17:25.000Z</time></trkpt>
        <trkpt lat="27.881895" lon="105.238987"><ele>1299.9292</ele><time>2026-08-13T01:17:27.000Z</time></trkpt>
        <trkpt lat="27.881875" lon="105.239013"><ele>1299.9397</ele><time>2026-08-13T01:17:29.000Z</time></trkpt>
        <trkpt lat="27.881854" lon="105.239043"><ele>1299.9198</ele><time>2026-08-13T01:17:31.000Z</time></trkpt>
        <trkpt lat="27.881837" lon="105.239074"><ele>1299.1387</ele><time>2026-08-13T01:17:33.000Z</time></trkpt>
        <trkpt lat="27.881821" lon="105.239107"><ele>1297.9629</ele><time>2026-08-13T01:17:35.000Z</time></trkpt>
        <trkpt lat="27.881802" lon="105.239141"><ele>1297.3896</ele><time>2026-08-13T01:17:37.000Z</time></trkpt>
        <trkpt lat="27.881782" lon="105.239173"><ele>1296.8638</ele><time>2026-08-13T01:17:39.000Z</time></trkpt>
        <trkpt lat="27.88176" lon="105.239201"><ele>1297.1995</ele><time>2026-08-13T01:17:41.000Z</time></trkpt>
        <trkpt lat="27.881737" lon="105.239228"><ele>1297.7911</ele><time>2026-08-13T01:17:43.000Z</time></trkpt>
        <trkpt lat="27.881715" lon="105.239252"><ele>1298.5791</ele><time>2026-08-13T01:17:45.000Z</time></trkpt>
        <trkpt lat="27.881696" lon="105.23927"><ele>1300.5043</ele><time>2026-08-13T01:17:47.000Z</time></trkpt>
        <trkpt lat="27.881687" lon="105.239276"><ele>1300.5675</ele><time>2026-08-13T01:17:49.000Z</time></trkpt>
        <trkpt lat="27.881682" lon="105.239275"><ele>1299.7279</ele><time>2026-08-13T01:17:51.000Z</time></trkpt>
        <trkpt lat="27.88166" lon="105.239281"><ele>1298.8074</ele><time>2026-08-13T01:17:55.000Z</time></trkpt>
        <trkpt lat="27.881654" lon="105.239288"><ele>1298.7671</ele><time>2026-08-13T01:17:57.000Z</time></trkpt>
        <trkpt lat="27.881645" lon="105.239303"><ele>1299.6914</ele><time>2026-08-13T01:17:59.000Z</time></trkpt>
        <trkpt lat="27.881632" lon="105.239328"><ele>1300.4609</ele><time>2026-08-13T01:18:01.000Z</time></trkpt>
        <trkpt lat="27.881615" lon="105.239359"><ele>1301.5917</ele><time>2026-08-13T01:18:03.000Z</time></trkpt>
        <trkpt lat="27.881595" lon="105.239388"><ele>1302.0066</ele><time>2026-08-13T01:18:05.000Z</time></trkpt>
        <trkpt lat="27.881575" lon="105.239413"><ele>1302.7285</ele><time>2026-08-13T01:18:07.000Z</time></trkpt>
        <trkpt lat="27.881558" lon="105.239434"><ele>1303.7048</ele><time>2026-08-13T01:18:09.000Z</time></trkpt>
        <trkpt lat="27.88154" lon="105.239455"><ele>1302.9634</ele><time>2026-08-13T01:18:11.000Z</time></trkpt>
        <trkpt lat="27.881524" lon="105.239474"><ele>1301.9989</ele><time>2026-08-13T01:18:13.000Z</time></trkpt>
        <trkpt lat="27.881509" lon="105.239493"><ele>1300.9099</ele><time>2026-08-13T01:18:15.000Z</time></trkpt>
        <trkpt lat="27.881496" lon="105.239513"><ele>1302.7163</ele><time>2026-08-13T01:18:17.000Z</time></trkpt>
        <trkpt lat="27.881482" lon="105.239532"><ele>1303.8307</ele><time>2026-08-13T01:18:19.000Z</time></trkpt>
        <trkpt lat="27.881468" lon="105.239549"><ele>1306.0042</ele><time>2026-08-13T01:18:21.000Z</time></trkpt>
        <trkpt lat="27.881459" lon="105.239566"><ele>1308.4143</ele><time>2026-08-13T01:18:23.000Z</time></trkpt>
        <trkpt lat="27.881451" lon="105.239581"><ele>1307.154</ele><time>2026-08-13T01:18:25.000Z</time></trkpt>
        <trkpt lat="27.881441" lon="105.239592"><ele>1307.6365</ele><time>2026-08-13T01:18:27.000Z</time></trkpt>
        <trkpt lat="27.881433" lon="105.239602"><ele>1310.1398</ele><time>2026-08-13T01:18:28.000Z</time></trkpt>
        <trkpt lat="27.881428" lon="105.239611"><ele>1309.1101</ele><time>2026-08-13T01:18:30.000Z</time></trkpt>
        <trkpt lat="27.881423" lon="105.239624"><ele>1307.2736</ele><time>2026-08-13T01:18:32.000Z</time></trkpt>
        <trkpt lat="27.881415" lon="105.239643"><ele>1305.6405</ele><time>2026-08-13T01:18:34.000Z</time></trkpt>
        <trkpt lat="27.881403" lon="105.239662"><ele>1310.151</ele><time>2026-08-13T01:18:36.000Z</time></trkpt>
        <trkpt lat="27.88139" lon="105.239679"><ele>1312.6183</ele><time>2026-08-13T01:18:38.000Z</time></trkpt>
        <trkpt lat="27.881377" lon="105.239693"><ele>1314.4525</ele><time>2026-08-13T01:18:41.000Z</time></trkpt>
        <trkpt lat="27.88136" lon="105.239708"><ele>1315.4641</ele><time>2026-08-13T01:18:43.000Z</time></trkpt>
        <trkpt lat="27.881344" lon="105.239723"><ele>1316.4779</ele><time>2026-08-13T01:18:45.000Z</time></trkpt>
        <trkpt lat="27.88133" lon="105.239737"><ele>1317.823</ele><time>2026-08-13T01:18:47.000Z</time></trkpt>
        <trkpt lat="27.881313" lon="105.239752"><ele>1319.1836</ele><time>2026-08-13T01:18:49.000Z</time></trkpt>
        <trkpt lat="27.881301" lon="105.239763"><ele>1320.3826</ele><time>2026-08-13T01:18:51.000Z</time></trkpt>
        <trkpt lat="27.881292" lon="105.239772"><ele>1321.597</ele><time>2026-08-13T01:18:53.000Z</time></trkpt>
        <trkpt lat="27.881289" lon="105.239776"><ele>1322.3518</ele><time>2026-08-13T01:18:55.000Z</time></trkpt>
        <trkpt lat="27.881276" lon="105.239789"><ele>1324.3029</ele><time>2026-08-13T01:18:59.000Z</time></trkpt>
        <trkpt lat="27.88126" lon="105.239803"><ele>1325.1277</ele><time>2026-08-13T01:19:05.000Z</time></trkpt>
        <trkpt lat="27.881236" lon="105.239828"><ele>1324.3712</ele><time>2026-08-13T01:19:07.000Z</time></trkpt>
        <trkpt lat="27.881207" lon="105.239856"><ele>1324.3052</ele><time>2026-08-13T01:19:09.000Z</time></trkpt>
        <trkpt lat="27.88118" lon="105.239879"><ele>1323.2543</ele><time>2026-08-13T01:19:11.000Z</time></trkpt>
        <trkpt lat="27.881155" lon="105.239893"><ele>1323.4434</ele><time>2026-08-13T01:19:13.000Z</time></trkpt>
        <trkpt lat="27.881133" lon="105.239901"><ele>1323.431</ele><time>2026-08-13T01:19:15.000Z</time></trkpt>
        <trkpt lat="27.88111" lon="105.239909"><ele>1322.8334</ele><time>2026-08-13T01:19:17.000Z</time></trkpt>
        <trkpt lat="27.88109" lon="105.239917"><ele>1322.7273</ele><time>2026-08-13T01:19:19.000Z</time></trkpt>
        <trkpt lat="27.881072" lon="105.239926"><ele>1322.7195</ele><time>2026-08-13T01:19:21.000Z</time></trkpt>
        <trkpt lat="27.881052" lon="105.239935"><ele>1322.9408</ele><time>2026-08-13T01:19:23.000Z</time></trkpt>
        <trkpt lat="27.881031" lon="105.239941"><ele>1323.6901</ele><time>2026-08-13T01:19:25.000Z</time></trkpt>
        <trkpt lat="27.881016" lon="105.239944"><ele>1323.9155</ele><time>2026-08-13T01:19:27.000Z</time></trkpt>
        <trkpt lat="27.880998" lon="105.239947"><ele>1324.1958</ele><time>2026-08-13T01:19:29.000Z</time></trkpt>
        <trkpt lat="27.880978" lon="105.239952"><ele>1324.3794</ele><time>2026-08-13T01:19:31.000Z</time></trkpt>
        <trkpt lat="27.880958" lon="105.239955"><ele>1324.7296</ele><time>2026-08-13T01:19:33.000Z</time></trkpt>
        <trkpt lat="27.88094" lon="105.239961"><ele>1324.2603</ele><time>2026-08-13T01:19:35.000Z</time></trkpt>
        <trkpt lat="27.880923" lon="105.239973"><ele>1323.7125</ele><time>2026-08-13T01:19:37.000Z</time></trkpt>
        <trkpt lat="27.880906" lon="105.239988"><ele>1322.7233</ele><time>2026-08-13T01:19:39.000Z</time></trkpt>
        <trkpt lat="27.880886" lon="105.240005"><ele>1321.7351</ele><time>2026-08-13T01:19:41.000Z</time></trkpt>
        <trkpt lat="27.880864" lon="105.240022"><ele>1322.2665</ele><time>2026-08-13T01:19:43.000Z</time></trkpt>
        <trkpt lat="27.880846" lon="105.240037"><ele>1321.7323</ele><time>2026-08-13T01:19:45.000Z</time></trkpt>
        <trkpt lat="27.880836" lon="105.240046"><ele>1321.0381</ele><time>2026-08-13T01:19:47.000Z</time></trkpt>
        <trkpt lat="27.880834" lon="105.240045"><ele>1320.8905</ele><time>2026-08-13T01:19:49.000Z</time></trkpt>
        <trkpt lat="27.880809" lon="105.24002"><ele>1320.7026</ele><time>2026-08-13T01:20:04.000Z</time></trkpt>
        <trkpt lat="27.880791" lon="105.240001"><ele>1321.2495</ele><time>2026-08-13T01:20:06.000Z</time></trkpt>
        <trkpt lat="27.880791" lon="105.24"><ele>1321.9747</ele><time>2026-08-13T01:20:08.000Z</time></trkpt>
        <trkpt lat="27.880783" lon="105.239979"><ele>1323.6284</ele><time>2026-08-13T01:20:14.000Z</time></trkpt>
        <trkpt lat="27.88077" lon="105.239955"><ele>1323.4469</ele><time>2026-08-13T01:20:18.000Z</time></trkpt>
        <trkpt lat="27.880765" lon="105.239946"><ele>1323.7391</ele><time>2026-08-13T01:20:20.000Z</time></trkpt>
        <trkpt lat="27.880759" lon="105.239943"><ele>1324.1519</ele><time>2026-08-13T01:20:22.000Z</time></trkpt>
        <trkpt lat="27.880732" lon="105.239926"><ele>1325.1512</ele><time>2026-08-13T01:20:34.000Z</time></trkpt>
        <trkpt lat="27.880712" lon="105.239912"><ele>1325.5294</ele><time>2026-08-13T01:20:36.000Z</time></trkpt>
        <trkpt lat="27.88071" lon="105.239912"><ele>1325.3339</ele><time>2026-08-13T01:20:38.000Z</time></trkpt>
        <trkpt lat="27.880682" lon="105.239912"><ele>1326.8613</ele><time>2026-08-13T01:20:44.000Z</time></trkpt>
        <trkpt lat="27.88067" lon="105.239914"><ele>1326.611</ele><time>2026-08-13T01:20:46.000Z</time></trkpt>
        <trkpt lat="27.880662" lon="105.239916"><ele>1326.611</ele><time>2026-08-13T01:20:48.000Z</time></trkpt>
        <trkpt lat="27.88062" lon="105.23992"><ele>1327.1937</ele><time>2026-08-13T01:20:56.000Z</time></trkpt>
        <trkpt lat="27.880611" lon="105.239919"><ele>1327.8345</ele><time>2026-08-13T01:21:02.000Z</time></trkpt>
        <trkpt lat="27.880596" lon="105.239919"><ele>1327.7595</ele><time>2026-08-13T01:21:04.000Z</time></trkpt>
        <trkpt lat="27.88055" lon="105.239924"><ele>1324.1722</ele><time>2026-08-13T01:21:10.000Z</time></trkpt>
        <trkpt lat="27.880536" lon="105.239928"><ele>1322.0917</ele><time>2026-08-13T01:21:12.000Z</time></trkpt>
        <trkpt lat="27.880522" lon="105.239929"><ele>1321.2009</ele><time>2026-08-13T01:21:14.000Z</time></trkpt>
        <trkpt lat="27.880482" lon="105.239927"><ele>1317.694</ele><time>2026-08-13T01:21:22.000Z</time></trkpt>
        <trkpt lat="27.880468" lon="105.239923"><ele>1320.3413</ele><time>2026-08-13T01:21:24.000Z</time></trkpt>
        <trkpt lat="27.880452" lon="105.239916"><ele>1321.4036</ele><time>2026-08-13T01:21:26.000Z</time></trkpt>
        <trkpt lat="27.880433" lon="105.23991"><ele>1321.4883</ele><time>2026-08-13T01:21:30.000Z</time></trkpt>
        <trkpt lat="27.880412" lon="105.239907"><ele>1319.4417</ele><time>2026-08-13T01:21:34.000Z</time></trkpt>
        <trkpt lat="27.880397" lon="105.239906"><ele>1316.8505</ele><time>2026-08-13T01:21:36.000Z</time></trkpt>
        <trkpt lat="27.880382" lon="105.239906"><ele>1315.2174</ele><time>2026-08-13T01:21:38.000Z</time></trkpt>
        <trkpt lat="27.880353" lon="105.239906"><ele>1314.6238</ele><time>2026-08-13T01:21:42.000Z</time></trkpt>
        <trkpt lat="27.880345" lon="105.239905"><ele>1313.1643</ele><time>2026-08-13T01:21:44.000Z</time></trkpt>
        <trkpt lat="27.880327" lon="105.239905"><ele>1313.8505</ele><time>2026-08-13T01:21:46.000Z</time></trkpt>
        <trkpt lat="27.880309" lon="105.239903"><ele>1311.9275</ele><time>2026-08-13T01:21:48.000Z</time></trkpt>
        <trkpt lat="27.880292" lon="105.239902"><ele>1310.1881</ele><time>2026-08-13T01:21:50.000Z</time></trkpt>
        <trkpt lat="27.880279" lon="105.239903"><ele>1307.887</ele><time>2026-08-13T01:21:52.000Z</time></trkpt>
        <trkpt lat="27.880268" lon="105.239909"><ele>1306.3949</ele><time>2026-08-13T01:21:54.000Z</time></trkpt>
        <trkpt lat="27.880246" lon="105.239922"><ele>1303.9965</ele><time>2026-08-13T01:21:58.000Z</time></trkpt>
        <trkpt lat="27.880238" lon="105.239929"><ele>1302.562</ele><time>2026-08-13T01:22:00.000Z</time></trkpt>
        <trkpt lat="27.88023" lon="105.239937"><ele>1301.538</ele><time>2026-08-13T01:22:02.000Z</time></trkpt>
        <trkpt lat="27.880221" lon="105.239956"><ele>1298.8484</ele><time>2026-08-13T01:22:06.000Z</time></trkpt>
        <trkpt lat="27.880217" lon="105.239957"><ele>1289.5403</ele><time>2026-08-13T01:22:31.000Z</time></trkpt>
        <trkpt lat="27.88017" lon="105.239973"><ele>1289.441</ele><time>2026-08-13T01:22:35.000Z</time></trkpt>
        <trkpt lat="27.88017" lon="105.239973"><ele>1288.9995</ele><time>2026-08-13T01:22:37.000Z</time></trkpt>
        <trkpt lat="27.880169" lon="105.239973"><ele>1288.5592</ele><time>2026-08-13T01:22:39.000Z</time></trkpt>
        <trkpt lat="27.880136" lon="105.239976"><ele>1292.6091</ele><time>2026-08-13T01:22:45.000Z</time></trkpt>
        <trkpt lat="27.880124" lon="105.23998"><ele>1292.9205</ele><time>2026-08-13T01:22:47.000Z</time></trkpt>
        <trkpt lat="27.880113" lon="105.239986"><ele>1296.165</ele><time>2026-08-13T01:22:49.000Z</time></trkpt>
        <trkpt lat="27.880107" lon="105.239991"><ele>1294.9205</ele><time>2026-08-13T01:22:51.000Z</time></trkpt>
        <trkpt lat="27.880091" lon="105.240001"><ele>1297.8849</ele><time>2026-08-13T01:22:55.000Z</time></trkpt>
        <trkpt lat="27.880081" lon="105.240005"><ele>1297.66</ele><time>2026-08-13T01:22:57.000Z</time></trkpt>
        <trkpt lat="27.880068" lon="105.240008"><ele>1297.6418</ele><time>2026-08-13T01:22:59.000Z</time></trkpt>
        <trkpt lat="27.880056" lon="105.240012"><ele>1296.8597</ele><time>2026-08-13T01:23:01.000Z</time></trkpt>
        <trkpt lat="27.880042" lon="105.240016"><ele>1296.3162</ele><time>2026-08-13T01:23:03.000Z</time></trkpt>
        <trkpt lat="27.880033" lon="105.24002"><ele>1295.575</ele><time>2026-08-13T01:23:05.000Z</time></trkpt>
        <trkpt lat="27.880023" lon="105.240025"><ele>1295.0455</ele><time>2026-08-13T01:23:07.000Z</time></trkpt>
        <trkpt lat="27.880011" lon="105.240029"><ele>1294.719</ele><time>2026-08-13T01:23:09.000Z</time></trkpt>
        <trkpt lat="27.880001" lon="105.240032"><ele>1294.2473</ele><time>2026-08-13T01:23:11.000Z</time></trkpt>
        <trkpt lat="27.879989" lon="105.240035"><ele>1293.7708</ele><time>2026-08-13T01:23:13.000Z</time></trkpt>
        <trkpt lat="27.879978" lon="105.240041"><ele>1293.4413</ele><time>2026-08-13T01:23:15.000Z</time></trkpt>
        <trkpt lat="27.879965" lon="105.24005"><ele>1292.9176</ele><time>2026-08-13T01:23:17.000Z</time></trkpt>
        <trkpt lat="27.879949" lon="105.240064"><ele>1293.1003</ele><time>2026-08-13T01:23:19.000Z</time></trkpt>
        <trkpt lat="27.879935" lon="105.240077"><ele>1293.0945</ele><time>2026-08-13T01:23:21.000Z</time></trkpt>
        <trkpt lat="27.879922" lon="105.240089"><ele>1293.078</ele><time>2026-08-13T01:23:23.000Z</time></trkpt>
        <trkpt lat="27.879909" lon="105.2401"><ele>1292.7723</ele><time>2026-08-13T01:23:25.000Z</time></trkpt>
        <trkpt lat="27.879898" lon="105.240109"><ele>1292.4808</ele><time>2026-08-13T01:23:27.000Z</time></trkpt>
        <trkpt lat="27.879886" lon="105.240119"><ele>1292.4154</ele><time>2026-08-13T01:23:29.000Z</time></trkpt>
        <trkpt lat="27.879873" lon="105.240128"><ele>1292.5013</ele><time>2026-08-13T01:23:31.000Z</time></trkpt>
        <trkpt lat="27.87986" lon="105.240133"><ele>1292.581</ele><time>2026-08-13T01:23:33.000Z</time></trkpt>
        <trkpt lat="27.879841" lon="105.240139"><ele>1292.5511</ele><time>2026-08-13T01:23:35.000Z</time></trkpt>
        <trkpt lat="27.879821" lon="105.240146"><ele>1292.5005</ele><time>2026-08-13T01:23:37.000Z</time></trkpt>
        <trkpt lat="27.879804" lon="105.240154"><ele>1291.9984</ele><time>2026-08-13T01:23:39.000Z</time></trkpt>
        <trkpt lat="27.879792" lon="105.240164"><ele>1291.708</ele><time>2026-08-13T01:23:41.000Z</time></trkpt>
        <trkpt lat="27.879782" lon="105.240174"><ele>1291.5381</ele><time>2026-08-13T01:23:43.000Z</time></trkpt>
        <trkpt lat="27.87977" lon="105.240186"><ele>1290.6879</ele><time>2026-08-13T01:23:47.000Z</time></trkpt>
        <trkpt lat="27.879755" lon="105.240199"><ele>1289.626</ele><time>2026-08-13T01:23:55.000Z</time></trkpt>
        <trkpt lat="27.879754" lon="105.240198"><ele>1290.1433</ele><time>2026-08-13T01:23:59.000Z</time></trkpt>
        <trkpt lat="27.879723" lon="105.24017"><ele>1289.5225</ele><time>2026-08-13T01:24:13.000Z</time></trkpt>
        <trkpt lat="27.879718" lon="105.240165"><ele>1289.255</ele><time>2026-08-13T01:24:15.000Z</time></trkpt>
        <trkpt lat="27.879712" lon="105.240165"><ele>1288.8105</ele><time>2026-08-13T01:24:17.000Z</time></trkpt>
        <trkpt lat="27.879673" lon="105.240168"><ele>1288.7291</ele><time>2026-08-13T01:24:27.000Z</time></trkpt>
        <trkpt lat="27.879662" lon="105.240172"><ele>1289.2174</ele><time>2026-08-13T01:24:29.000Z</time></trkpt>
        <trkpt lat="27.879648" lon="105.240181"><ele>1289.6046</ele><time>2026-08-13T01:24:31.000Z</time></trkpt>
        <trkpt lat="27.879636" lon="105.24019"><ele>1289.5457</ele><time>2026-08-13T01:24:33.000Z</time></trkpt>
        <trkpt lat="27.879622" lon="105.240201"><ele>1289.8625</ele><time>2026-08-13T01:24:35.000Z</time></trkpt>
        <trkpt lat="27.879611" lon="105.24021"><ele>1290.4111</ele><time>2026-08-13T01:24:37.000Z</time></trkpt>
        <trkpt lat="27.879601" lon="105.240219"><ele>1290.3817</ele><time>2026-08-13T01:24:39.000Z</time></trkpt>
        <trkpt lat="27.879591" lon="105.240229"><ele>1290.8099</ele><time>2026-08-13T01:24:41.000Z</time></trkpt>
        <trkpt lat="27.879579" lon="105.240238"><ele>1291.159</ele><time>2026-08-13T01:24:43.000Z</time></trkpt>
        <trkpt lat="27.879568" lon="105.24025"><ele>1291.556</ele><time>2026-08-13T01:24:45.000Z</time></trkpt>
        <trkpt lat="27.879559" lon="105.240263"><ele>1291.8866</ele><time>2026-08-13T01:24:47.000Z</time></trkpt>
        <trkpt lat="27.87955" lon="105.24028"><ele>1292.5011</ele><time>2026-08-13T01:24:49.000Z</time></trkpt>
        <trkpt lat="27.879538" lon="105.240297"><ele>1293.063</ele><time>2026-08-13T01:24:51.000Z</time></trkpt>
        <trkpt lat="27.879525" lon="105.240315"><ele>1293.89</ele><time>2026-08-13T01:24:53.000Z</time></trkpt>
        <trkpt lat="27.879508" lon="105.240334"><ele>1294.5905</ele><time>2026-08-13T01:24:55.000Z</time></trkpt>
        <trkpt lat="27.879493" lon="105.24035"><ele>1295.0865</ele><time>2026-08-13T01:24:57.000Z</time></trkpt>
        <trkpt lat="27.87948" lon="105.240364"><ele>1295.8357</ele><time>2026-08-13T01:24:59.000Z</time></trkpt>
        <trkpt lat="27.879466" lon="105.240378"><ele>1296.3981</ele><time>2026-08-13T01:25:01.000Z</time></trkpt>
        <trkpt lat="27.879454" lon="105.24039"><ele>1296.675</ele><time>2026-08-13T01:25:03.000Z</time></trkpt>
        <trkpt lat="27.879443" lon="105.240401"><ele>1295.7964</ele><time>2026-08-13T01:25:05.000Z</time></trkpt>
        <trkpt lat="27.879434" lon="105.240412"><ele>1294.731</ele><time>2026-08-13T01:25:07.000Z</time></trkpt>
        <trkpt lat="27.879425" lon="105.240421"><ele>1293.233</ele><time>2026-08-13T01:25:09.000Z</time></trkpt>
        <trkpt lat="27.879416" lon="105.240429"><ele>1292.5022</ele><time>2026-08-13T01:25:11.000Z</time></trkpt>
        <trkpt lat="27.879395" lon="105.240446"><ele>1291.9592</ele><time>2026-08-13T01:25:15.000Z</time></trkpt>
        <trkpt lat="27.879388" lon="105.24045"><ele>1291.3734</ele><time>2026-08-13T01:25:17.000Z</time></trkpt>
        <trkpt lat="27.879383" lon="105.240454"><ele>1289.8655</ele><time>2026-08-13T01:25:19.000Z</time></trkpt>
        <trkpt lat="27.879365" lon="105.240472"><ele>1285.9447</ele><time>2026-08-13T01:25:27.000Z</time></trkpt>
        <trkpt lat="27.879353" lon="105.240485"><ele>1284.8092</ele><time>2026-08-13T01:25:29.000Z</time></trkpt>
        <trkpt lat="27.879352" lon="105.240486"><ele>1283.9939</ele><time>2026-08-13T01:25:31.000Z</time></trkpt>
        <trkpt lat="27.879343" lon="105.240512"><ele>1282.5045</ele><time>2026-08-13T01:25:37.000Z</time></trkpt>
        <trkpt lat="27.879338" lon="105.240524"><ele>1281.2971</ele><time>2026-08-13T01:25:39.000Z</time></trkpt>
        <trkpt lat="27.879331" lon="105.240539"><ele>1280.645</ele><time>2026-08-13T01:25:41.000Z</time></trkpt>
        <trkpt lat="27.879326" lon="105.240549"><ele>1279.8809</ele><time>2026-08-13T01:25:43.000Z</time></trkpt>
        <trkpt lat="27.879318" lon="105.240568"><ele>1296.8345</ele><time>2026-08-13T01:25:45.000Z</time></trkpt>
        <trkpt lat="27.879309" lon="105.240586"><ele>1302.6326</ele><time>2026-08-13T01:25:47.000Z</time></trkpt>
        <trkpt lat="27.879301" lon="105.240602"><ele>1305.9863</ele><time>2026-08-13T01:25:49.000Z</time></trkpt>
        <trkpt lat="27.879294" lon="105.240619"><ele>1308.1543</ele><time>2026-08-13T01:25:51.000Z</time></trkpt>
        <trkpt lat="27.87929" lon="105.240636"><ele>1309.7992</ele><time>2026-08-13T01:25:53.000Z</time></trkpt>
        <trkpt lat="27.87929" lon="105.240655"><ele>1310.3527</ele><time>2026-08-13T01:25:55.000Z</time></trkpt>
        <trkpt lat="27.879293" lon="105.240671"><ele>1310.6433</ele><time>2026-08-13T01:25:57.000Z</time></trkpt>
        <trkpt lat="27.879296" lon="105.24069"><ele>1310.8308</ele><time>2026-08-13T01:25:59.000Z</time></trkpt>
        <trkpt lat="27.879298" lon="105.240704"><ele>1310.3839</ele><time>2026-08-13T01:26:01.000Z</time></trkpt>
        <trkpt lat="27.879302" lon="105.240717"><ele>1310.1346</ele><time>2026-08-13T01:26:03.000Z</time></trkpt>
        <trkpt lat="27.879306" lon="105.240729"><ele>1310.0378</ele><time>2026-08-13T01:26:05.000Z</time></trkpt>
        <trkpt lat="27.879311" lon="105.240745"><ele>1309.933</ele><time>2026-08-13T01:26:09.000Z</time></trkpt>
        <trkpt lat="27.879233" lon="105.240779"><ele>1308.0377</ele><time>2026-08-13T01:26:45.000Z</time></trkpt>
        <trkpt lat="27.87921" lon="105.240795"><ele>1307.966</ele><time>2026-08-13T01:26:47.000Z</time></trkpt>
        <trkpt lat="27.879183" lon="105.240814"><ele>1308.5748</ele><time>2026-08-13T01:26:49.000Z</time></trkpt>
        <trkpt lat="27.879178" lon="105.240895"><ele>1310.518</ele><time>2026-08-13T01:26:59.000Z</time></trkpt>
        <trkpt lat="27.879175" lon="105.24092"><ele>1310.5824</ele><time>2026-08-13T01:27:01.000Z</time></trkpt>
        <trkpt lat="27.87917" lon="105.240942"><ele>1310.7837</ele><time>2026-08-13T01:27:03.000Z</time></trkpt>
        <trkpt lat="27.879164" lon="105.24098"><ele>1311.0426</ele><time>2026-08-13T01:27:07.000Z</time></trkpt>
        <trkpt lat="27.879158" lon="105.241001"><ele>1310.2648</ele><time>2026-08-13T01:27:11.000Z</time></trkpt>
        <trkpt lat="27.87915" lon="105.241027"><ele>1310.2697</ele><time>2026-08-13T01:27:17.000Z</time></trkpt>
        <trkpt lat="27.879111" lon="105.241038"><ele>1309.834</ele><time>2026-08-13T01:27:23.000Z</time></trkpt>
        <trkpt lat="27.879151" lon="105.241083"><ele>1309.4259</ele><time>2026-08-13T01:27:33.000Z</time></trkpt>
        <trkpt lat="27.879078" lon="105.241001"><ele>1310.5967</ele><time>2026-08-13T01:27:47.000Z</time></trkpt>
        <trkpt lat="27.878988" lon="105.241131"><ele>1308.3823</ele><time>2026-08-13T01:28:50.000Z</time></trkpt>
        <trkpt lat="27.878988" lon="105.241131"><ele>1308.5247</ele><time>2026-08-13T01:28:52.000Z</time></trkpt>
        <trkpt lat="27.878987" lon="105.241133"><ele>1308.5209</ele><time>2026-08-13T01:28:54.000Z</time></trkpt>
        <trkpt lat="27.878971" lon="105.241276"><ele>1310.2749</ele><time>2026-08-13T01:29:07.000Z</time></trkpt>
        <trkpt lat="27.878968" lon="105.241304"><ele>1310.8463</ele><time>2026-08-13T01:29:09.000Z</time></trkpt>
        <trkpt lat="27.878965" lon="105.241334"><ele>1310.5876</ele><time>2026-08-13T01:29:11.000Z</time></trkpt>
        <trkpt lat="27.878956" lon="105.241383"><ele>1310.1383</ele><time>2026-08-13T01:29:15.000Z</time></trkpt>
        <trkpt lat="27.878948" lon="105.241391"><ele>1309.8906</ele><time>2026-08-13T01:29:17.000Z</time></trkpt>
        <trkpt lat="27.878915" lon="105.241414"><ele>1310.9094</ele><time>2026-08-13T01:29:21.000Z</time></trkpt>
        <trkpt lat="27.878879" lon="105.241434"><ele>1311.4933</ele><time>2026-08-13T01:29:25.000Z</time></trkpt>
        <trkpt lat="27.87886" lon="105.241443"><ele>1312.3711</ele><time>2026-08-13T01:29:27.000Z</time></trkpt>
        <trkpt lat="27.878843" lon="105.241454"><ele>1312.8734</ele><time>2026-08-13T01:29:29.000Z</time></trkpt>
        <trkpt lat="27.878807" lon="105.241478"><ele>1313.5654</ele><time>2026-08-13T01:29:33.000Z</time></trkpt>
        <trkpt lat="27.878791" lon="105.241493"><ele>1314.2904</ele><time>2026-08-13T01:29:35.000Z</time></trkpt>
        <trkpt lat="27.878775" lon="105.241509"><ele>1315.0682</ele><time>2026-08-13T01:29:37.000Z</time></trkpt>
        <trkpt lat="27.878759" lon="105.241525"><ele>1315.8342</ele><time>2026-08-13T01:29:39.000Z</time></trkpt>
        <trkpt lat="27.878745" lon="105.241543"><ele>1316.1519</ele><time>2026-08-13T01:29:41.000Z</time></trkpt>
        <trkpt lat="27.878734" lon="105.241561"><ele>1316.9603</ele><time>2026-08-13T01:29:43.000Z</time></trkpt>
        <trkpt lat="27.878725" lon="105.241574"><ele>1316.8868</ele><time>2026-08-13T01:29:45.000Z</time></trkpt>
        <trkpt lat="27.8787" lon="105.241604"><ele>1317.8002</ele><time>2026-08-13T01:29:49.000Z</time></trkpt>
        <trkpt lat="27.878687" lon="105.241616"><ele>1318.2861</ele><time>2026-08-13T01:29:51.000Z</time></trkpt>
        <trkpt lat="27.87867" lon="105.241632"><ele>1318.5731</ele><time>2026-08-13T01:29:53.000Z</time></trkpt>
        <trkpt lat="27.878652" lon="105.241647"><ele>1318.86</ele><time>2026-08-13T01:29:55.000Z</time></trkpt>
        <trkpt lat="27.878638" lon="105.241659"><ele>1318.6976</ele><time>2026-08-13T01:29:57.000Z</time></trkpt>
        <trkpt lat="27.878625" lon="105.24167"><ele>1318.7877</ele><time>2026-08-13T01:29:59.000Z</time></trkpt>
        <trkpt lat="27.878612" lon="105.241688"><ele>1318.3693</ele><time>2026-08-13T01:30:03.000Z</time></trkpt>
        <trkpt lat="27.878596" lon="105.241706"><ele>1318.5088</ele><time>2026-08-13T01:30:07.000Z</time></trkpt>
        <trkpt lat="27.878585" lon="105.241717"><ele>1318.2554</ele><time>2026-08-13T01:30:09.000Z</time></trkpt>
        <trkpt lat="27.878572" lon="105.241727"><ele>1318.3676</ele><time>2026-08-13T01:30:11.000Z</time></trkpt>
        <trkpt lat="27.878558" lon="105.241739"><ele>1318.543</ele><time>2026-08-13T01:30:13.000Z</time></trkpt>
        <trkpt lat="27.878544" lon="105.241749"><ele>1318.1724</ele><time>2026-08-13T01:30:15.000Z</time></trkpt>
        <trkpt lat="27.878533" lon="105.241757"><ele>1317.6599</ele><time>2026-08-13T01:30:17.000Z</time></trkpt>
        <trkpt lat="27.87852" lon="105.241767"><ele>1317.3624</ele><time>2026-08-13T01:30:19.000Z</time></trkpt>
        <trkpt lat="27.878505" lon="105.24178"><ele>1317.5712</ele><time>2026-08-13T01:30:21.000Z</time></trkpt>
        <trkpt lat="27.878489" lon="105.241792"><ele>1317.4728</ele><time>2026-08-13T01:30:23.000Z</time></trkpt>
        <trkpt lat="27.878477" lon="105.2418"><ele>1316.8779</ele><time>2026-08-13T01:30:25.000Z</time></trkpt>
        <trkpt lat="27.878459" lon="105.24181"><ele>1316.7131</ele><time>2026-08-13T01:30:29.000Z</time></trkpt>
        <trkpt lat="27.878442" lon="105.241819"><ele>1316.1746</ele><time>2026-08-13T01:30:33.000Z</time></trkpt>
        <trkpt lat="27.878436" lon="105.241818"><ele>1315.5217</ele><time>2026-08-13T01:30:35.000Z</time></trkpt>
        <trkpt lat="27.878411" lon="105.241816"><ele>1314.2421</ele><time>2026-08-13T01:30:43.000Z</time></trkpt>
        <trkpt lat="27.878395" lon="105.241819"><ele>1313.1339</ele><time>2026-08-13T01:30:49.000Z</time></trkpt>
        <trkpt lat="27.878391" lon="105.241821"><ele>1312.657</ele><time>2026-08-13T01:30:51.000Z</time></trkpt>
        <trkpt lat="27.878365" lon="105.241831"><ele>1311.0714</ele><time>2026-08-13T01:31:11.000Z</time></trkpt>
        <trkpt lat="27.878349" lon="105.241839"><ele>1309.9824</ele><time>2026-08-13T01:31:18.000Z</time></trkpt>
        <trkpt lat="27.878348" lon="105.241844"><ele>1310.2462</ele><time>2026-08-13T01:31:20.000Z</time></trkpt>
        <trkpt lat="27.878334" lon="105.241888"><ele>1308.6719</ele><time>2026-08-13T01:31:26.000Z</time></trkpt>
        <trkpt lat="27.878334" lon="105.241888"><ele>1308.4573</ele><time>2026-08-13T01:31:28.000Z</time></trkpt>
        <trkpt lat="27.878358" lon="105.241929"><ele>1292.0856</ele><time>2026-08-13T01:32:04.000Z</time></trkpt>
        <trkpt lat="27.878357" lon="105.241945"><ele>1287.7699</ele><time>2026-08-13T01:32:12.000Z</time></trkpt>
        <trkpt lat="27.878355" lon="105.241945"><ele>1287.709</ele><time>2026-08-13T01:32:14.000Z</time></trkpt>
        <trkpt lat="27.878289" lon="105.241958"><ele>1294.8049</ele><time>2026-08-13T01:32:24.000Z</time></trkpt>
        <trkpt lat="27.878289" lon="105.241958"><ele>1296.2886</ele><time>2026-08-13T01:32:26.000Z</time></trkpt>
        <trkpt lat="27.878288" lon="105.241959"><ele>1297.1243</ele><time>2026-08-13T01:32:28.000Z</time></trkpt>
        <trkpt lat="27.878233" lon="105.241985"><ele>1299.0759</ele><time>2026-08-13T01:32:36.000Z</time></trkpt>
        <trkpt lat="27.878221" lon="105.241987"><ele>1299.0549</ele><time>2026-08-13T01:32:38.000Z</time></trkpt>
        <trkpt lat="27.878207" lon="105.241986"><ele>1298.9238</ele><time>2026-08-13T01:32:40.000Z</time></trkpt>
        <trkpt lat="27.878176" lon="105.241986"><ele>1298.1217</ele><time>2026-08-13T01:32:44.000Z</time></trkpt>
        <trkpt lat="27.878163" lon="105.241988"><ele>1298.1344</ele><time>2026-08-13T01:32:46.000Z</time></trkpt>
        <trkpt lat="27.878148" lon="105.241995"><ele>1298.0066</ele><time>2026-08-13T01:32:48.000Z</time></trkpt>
        <trkpt lat="27.878117" lon="105.242011"><ele>1296.468</ele><time>2026-08-13T01:32:52.000Z</time></trkpt>
        <trkpt lat="27.878108" lon="105.242018"><ele>1294.7577</ele><time>2026-08-13T01:32:54.000Z</time></trkpt>
        <trkpt lat="27.878099" lon="105.242029"><ele>1293.5061</ele><time>2026-08-13T01:32:56.000Z</time></trkpt>
        <trkpt lat="27.878084" lon="105.242052"><ele>1289.632</ele><time>2026-08-13T01:33:00.000Z</time></trkpt>
        <trkpt lat="27.878078" lon="105.242061"><ele>1287.9166</ele><time>2026-08-13T01:33:02.000Z</time></trkpt>
        <trkpt lat="27.878071" lon="105.242073"><ele>1285.969</ele><time>2026-08-13T01:33:04.000Z</time></trkpt>
        <trkpt lat="27.878055" lon="105.242102"><ele>1282.5997</ele><time>2026-08-13T01:33:08.000Z</time></trkpt>
        <trkpt lat="27.878046" lon="105.242118"><ele>1281.5385</ele><time>2026-08-13T01:33:10.000Z</time></trkpt>
        <trkpt lat="27.878038" lon="105.242132"><ele>1279.5859</ele><time>2026-08-13T01:33:12.000Z</time></trkpt>
        <trkpt lat="27.87803" lon="105.242143"><ele>1277.6908</ele><time>2026-08-13T01:33:14.000Z</time></trkpt>
        <trkpt lat="27.878021" lon="105.242155"><ele>1276.3988</ele><time>2026-08-13T01:33:16.000Z</time></trkpt>
        <trkpt lat="27.878012" lon="105.242162"><ele>1275.3792</ele><time>2026-08-13T01:33:18.000Z</time></trkpt>
        <trkpt lat="27.877998" lon="105.242171"><ele>1276.3344</ele><time>2026-08-13T01:33:22.000Z</time></trkpt>
        <trkpt lat="27.877987" lon="105.242177"><ele>1278.0665</ele><time>2026-08-13T01:33:24.000Z</time></trkpt>
        <trkpt lat="27.877975" lon="105.242185"><ele>1278.3068</ele><time>2026-08-13T01:33:26.000Z</time></trkpt>
        <trkpt lat="27.877962" lon="105.242197"><ele>1278.5021</ele><time>2026-08-13T01:33:28.000Z</time></trkpt>
        <trkpt lat="27.877949" lon="105.242211"><ele>1278.9763</ele><time>2026-08-13T01:33:30.000Z</time></trkpt>
        <trkpt lat="27.877938" lon="105.242227"><ele>1278.7819</ele><time>2026-08-13T01:33:32.000Z</time></trkpt>
        <trkpt lat="27.877928" lon="105.242246"><ele>1277.849</ele><time>2026-08-13T01:33:34.000Z</time></trkpt>
        <trkpt lat="27.877919" lon="105.242263"><ele>1277.4657</ele><time>2026-08-13T01:33:36.000Z</time></trkpt>
        <trkpt lat="27.877911" lon="105.242279"><ele>1276.5652</ele><time>2026-08-13T01:33:38.000Z</time></trkpt>
        <trkpt lat="27.877903" lon="105.242299"><ele>1275.6365</ele><time>2026-08-13T01:33:40.000Z</time></trkpt>
        <trkpt lat="27.877898" lon="105.242313"><ele>1274.4138</ele><time>2026-08-13T01:33:42.000Z</time></trkpt>
        <trkpt lat="27.877893" lon="105.242331"><ele>1274.1252</ele><time>2026-08-13T01:33:44.000Z</time></trkpt>
        <trkpt lat="27.877889" lon="105.242345"><ele>1273.8605</ele><time>2026-08-13T01:33:46.000Z</time></trkpt>
        <trkpt lat="27.877884" lon="105.242357"><ele>1273.4607</ele><time>2026-08-13T01:33:48.000Z</time></trkpt>
        <trkpt lat="27.877877" lon="105.242367"><ele>1271.8715</ele><time>2026-08-13T01:33:50.000Z</time></trkpt>
        <trkpt lat="27.87787" lon="105.24237"><ele>1272.0337</ele><time>2026-08-13T01:33:52.000Z</time></trkpt>
        <trkpt lat="27.877859" lon="105.242369"><ele>1272.2283</ele><time>2026-08-13T01:33:54.000Z</time></trkpt>
        <trkpt lat="27.877849" lon="105.242365"><ele>1272.1907</ele><time>2026-08-13T01:33:56.000Z</time></trkpt>
        <trkpt lat="27.87784" lon="105.242359"><ele>1272.1802</ele><time>2026-08-13T01:33:58.000Z</time></trkpt>
        <trkpt lat="27.877832" lon="105.242351"><ele>1271.9736</ele><time>2026-08-13T01:34:00.000Z</time></trkpt>
        <trkpt lat="27.877827" lon="105.242347"><ele>1271.9506</ele><time>2026-08-13T01:34:02.000Z</time></trkpt>
        <trkpt lat="27.877814" lon="105.242345"><ele>1270.7074</ele><time>2026-08-13T01:34:06.000Z</time></trkpt>
        <trkpt lat="27.877806" lon="105.242348"><ele>1270.2155</ele><time>2026-08-13T01:34:08.000Z</time></trkpt>
        <trkpt lat="27.877796" lon="105.242355"><ele>1269.2606</ele><time>2026-08-13T01:34:10.000Z</time></trkpt>
        <trkpt lat="27.877786" lon="105.242366"><ele>1268.0492</ele><time>2026-08-13T01:34:12.000Z</time></trkpt>
        <trkpt lat="27.877774" lon="105.242382"><ele>1268.1478</ele><time>2026-08-13T01:34:14.000Z</time></trkpt>
        <trkpt lat="27.877764" lon="105.2424"><ele>1267.4741</ele><time>2026-08-13T01:34:16.000Z</time></trkpt>
        <trkpt lat="27.877756" lon="105.242417"><ele>1266.9608</ele><time>2026-08-13T01:34:18.000Z</time></trkpt>
        <trkpt lat="27.877748" lon="105.242439"><ele>1267.3914</ele><time>2026-08-13T01:34:20.000Z</time></trkpt>
        <trkpt lat="27.877741" lon="105.242463"><ele>1267.0387</ele><time>2026-08-13T01:34:22.000Z</time></trkpt>
        <trkpt lat="27.877735" lon="105.24249"><ele>1266.5059</ele><time>2026-08-13T01:34:24.000Z</time></trkpt>
        <trkpt lat="27.877731" lon="105.242522"><ele>1266.6615</ele><time>2026-08-13T01:34:26.000Z</time></trkpt>
        <trkpt lat="27.877734" lon="105.242547"><ele>1266.3733</ele><time>2026-08-13T01:34:28.000Z</time></trkpt>
        <trkpt lat="27.87774" lon="105.242567"><ele>1266.5798</ele><time>2026-08-13T01:34:30.000Z</time></trkpt>
        <trkpt lat="27.877746" lon="105.242582"><ele>1266.5059</ele><time>2026-08-13T01:34:32.000Z</time></trkpt>
        <trkpt lat="27.877748" lon="105.242581"><ele>1266.0863</ele><time>2026-08-13T01:34:34.000Z</time></trkpt>
        <trkpt lat="27.877708" lon="105.242585"><ele>1265.4725</ele><time>2026-08-13T01:34:48.000Z</time></trkpt>
        <trkpt lat="27.877708" lon="105.242585"><ele>1264.9355</ele><time>2026-08-13T01:34:50.000Z</time></trkpt>
        <trkpt lat="27.87771" lon="105.242588"><ele>1265.8037</ele><time>2026-08-13T01:34:52.000Z</time></trkpt>
        <trkpt lat="27.877727" lon="105.242609"><ele>1265.8652</ele><time>2026-08-13T01:34:56.000Z</time></trkpt>
        <trkpt lat="27.877735" lon="105.242619"><ele>1265.9211</ele><time>2026-08-13T01:34:58.000Z</time></trkpt>
        <trkpt lat="27.877744" lon="105.242628"><ele>1266.1466</ele><time>2026-08-13T01:35:00.000Z</time></trkpt>
        <trkpt lat="27.877754" lon="105.242632"><ele>1266.3866</ele><time>2026-08-13T01:35:02.000Z</time></trkpt>
        <trkpt lat="27.877765" lon="105.242631"><ele>1266.643</ele><time>2026-08-13T01:35:04.000Z</time></trkpt>
        <trkpt lat="27.877768" lon="105.242635"><ele>1267.2172</ele><time>2026-08-13T01:35:08.000Z</time></trkpt>
        <trkpt lat="27.877737" lon="105.242599"><ele>1266.5144</ele><time>2026-08-13T01:36:31.000Z</time></trkpt>
        <trkpt lat="27.877734" lon="105.242597"><ele>1266.9089</ele><time>2026-08-13T01:36:33.000Z</time></trkpt>
        <trkpt lat="27.877734" lon="105.242597"><ele>1266.9109</ele><time>2026-08-13T01:36:35.000Z</time></trkpt>
        <trkpt lat="27.877776" lon="105.242549"><ele>1267</ele><time>2026-08-13T01:37:42.000Z</time></trkpt>
        <trkpt lat="27.877777" lon="105.242544"><ele>1265</ele><time>2026-08-13T01:37:57.000Z</time></trkpt>
        <trkpt lat="27.877777" lon="105.242546"><ele>1265</ele><time>2026-08-13T01:38:02.000Z</time></trkpt>
        <trkpt lat="27.877793" lon="105.242407"><ele>1265</ele><time>2026-08-13T01:38:14.000Z</time></trkpt>
        <trkpt lat="27.877804" lon="105.242314"><ele>1265</ele><time>2026-08-13T01:38:17.000Z</time></trkpt>
        <trkpt lat="27.877802" lon="105.24231"><ele>1265</ele><time>2026-08-13T01:38:19.000Z</time></trkpt>
        <trkpt lat="27.877793" lon="105.242301"><ele>1264</ele><time>2026-08-13T01:38:23.000Z</time></trkpt>
        <trkpt lat="27.877745" lon="105.242258"><ele>1264</ele><time>2026-08-13T01:38:25.000Z</time></trkpt>
        <trkpt lat="27.877687" lon="105.242217"><ele>1264</ele><time>2026-08-13T01:38:27.000Z</time></trkpt>
        <trkpt lat="27.877619" lon="105.242182"><ele>1264</ele><time>2026-08-13T01:38:29.000Z</time></trkpt>
        <trkpt lat="27.877511" lon="105.242128"><ele>1264</ele><time>2026-08-13T01:38:32.000Z</time></trkpt>
        <trkpt lat="27.877427" lon="105.242128"><ele>1265</ele><time>2026-08-13T01:38:34.000Z</time></trkpt>
        <trkpt lat="27.877286" lon="105.24213"><ele>1265</ele><time>2026-08-13T01:38:36.000Z</time></trkpt>
        <trkpt lat="27.877275" lon="105.24213"><ele>1265</ele><time>2026-08-13T01:38:38.000Z</time></trkpt>
        <trkpt lat="27.877263" lon="105.242129"><ele>1266</ele><time>2026-08-13T01:38:40.000Z</time></trkpt>
        <trkpt lat="27.877217" lon="105.242121"><ele>1266</ele><time>2026-08-13T01:38:42.000Z</time></trkpt>
        <trkpt lat="27.87705" lon="105.242082"><ele>1266</ele><time>2026-08-13T01:38:45.000Z</time></trkpt>
        <trkpt lat="27.87694" lon="105.242044"><ele>1266</ele><time>2026-08-13T01:38:47.000Z</time></trkpt>
        <trkpt lat="27.8768" lon="105.241992"><ele>1266</ele><time>2026-08-13T01:38:49.000Z</time></trkpt>
        <trkpt lat="27.876636" lon="105.241927"><ele>1266</ele><time>2026-08-13T01:38:51.000Z</time></trkpt>
        <trkpt lat="27.876504" lon="105.241875"><ele>1265</ele><time>2026-08-13T01:38:53.000Z</time></trkpt>
        <trkpt lat="27.876362" lon="105.241824"><ele>1265</ele><time>2026-08-13T01:38:55.000Z</time></trkpt>
        <trkpt lat="27.876244" lon="105.241787"><ele>1265</ele><time>2026-08-13T01:38:57.000Z</time></trkpt>
        <trkpt lat="27.876132" lon="105.241753"><ele>1264</ele><time>2026-08-13T01:38:59.000Z</time></trkpt>
        <trkpt lat="27.876018" lon="105.241715"><ele>1263</ele><time>2026-08-13T01:39:01.000Z</time></trkpt>
        <trkpt lat="27.875923" lon="105.241677"><ele>1263</ele><time>2026-08-13T01:39:03.000Z</time></trkpt>
        <trkpt lat="27.875833" lon="105.241627"><ele>1262</ele><time>2026-08-13T01:39:05.000Z</time></trkpt>
        <trkpt lat="27.875728" lon="105.241553"><ele>1261</ele><time>2026-08-13T01:39:08.000Z</time></trkpt>
        <trkpt lat="27.875604" lon="105.241468"><ele>1260</ele><time>2026-08-13T01:39:10.000Z</time></trkpt>
        <trkpt lat="27.875486" lon="105.241393"><ele>1260</ele><time>2026-08-13T01:39:12.000Z</time></trkpt>
        <trkpt lat="27.87537" lon="105.24133"><ele>1259</ele><time>2026-08-13T01:39:14.000Z</time></trkpt>
        <trkpt lat="27.87525" lon="105.241278"><ele>1258</ele><time>2026-08-13T01:39:16.000Z</time></trkpt>
        <trkpt lat="27.87512" lon="105.241222"><ele>1257</ele><time>2026-08-13T01:39:18.000Z</time></trkpt>
        <trkpt lat="27.874889" lon="105.241198"><ele>1256</ele><time>2026-08-13T01:39:21.000Z</time></trkpt>
        <trkpt lat="27.874624" lon="105.241245"><ele>1255</ele><time>2026-08-13T01:39:26.000Z</time></trkpt>
        <trkpt lat="27.874471" lon="105.241274"><ele>1255</ele><time>2026-08-13T01:39:28.000Z</time></trkpt>
        <trkpt lat="27.874322" lon="105.241302"><ele>1255</ele><time>2026-08-13T01:39:30.000Z</time></trkpt>
        <trkpt lat="27.874188" lon="105.24132"><ele>1255</ele><time>2026-08-13T01:39:32.000Z</time></trkpt>
        <trkpt lat="27.874071" lon="105.241327"><ele>1255</ele><time>2026-08-13T01:39:34.000Z</time></trkpt>
        <trkpt lat="27.873886" lon="105.241337"><ele>1254</ele><time>2026-08-13T01:39:37.000Z</time></trkpt>
        <trkpt lat="27.87381" lon="105.241335"><ele>1254</ele><time>2026-08-13T01:39:39.000Z</time></trkpt>
        <trkpt lat="27.87373" lon="105.241329"><ele>1254</ele><time>2026-08-13T01:39:41.000Z</time></trkpt>
        <trkpt lat="27.873574" lon="105.241316"><ele>1253</ele><time>2026-08-13T01:39:44.000Z</time></trkpt>
        <trkpt lat="27.873494" lon="105.24131"><ele>1253</ele><time>2026-08-13T01:39:46.000Z</time></trkpt>
        <trkpt lat="27.873384" lon="105.241301"><ele>1253</ele><time>2026-08-13T01:39:49.000Z</time></trkpt>
        <trkpt lat="27.873347" lon="105.241298"><ele>1252</ele><time>2026-08-13T01:39:51.000Z</time></trkpt>
        <trkpt lat="27.873334" lon="105.241298"><ele>1252</ele><time>2026-08-13T01:39:53.000Z</time></trkpt>
        <trkpt lat="27.87347" lon="105.241301"><ele>1254</ele><time>2026-08-13T01:40:12.000Z</time></trkpt>
        <trkpt lat="27.873477" lon="105.241301"><ele>1254</ele><time>2026-08-13T01:40:17.000Z</time></trkpt>
        <trkpt lat="27.873483" lon="105.241296"><ele>1254</ele><time>2026-08-13T01:40:19.000Z</time></trkpt>
        <trkpt lat="27.873419" lon="105.241357"><ele>1254</ele><time>2026-08-13T01:40:47.000Z</time></trkpt>
        <trkpt lat="27.873419" lon="105.241356"><ele>1253</ele><time>2026-08-13T01:40:49.000Z</time></trkpt>
        <trkpt lat="27.873402" lon="105.24135"><ele>1253</ele><time>2026-08-13T01:40:51.000Z</time></trkpt>
        <trkpt lat="27.873341" lon="105.241334"><ele>1253</ele><time>2026-08-13T01:40:53.000Z</time></trkpt>
        <trkpt lat="27.873156" lon="105.241287"><ele>1253</ele><time>2026-08-13T01:40:55.000Z</time></trkpt>
        <trkpt lat="27.873142" lon="105.241284"><ele>1252</ele><time>2026-08-13T01:40:57.000Z</time></trkpt>
        <trkpt lat="27.8731" lon="105.241273"><ele>1252</ele><time>2026-08-13T01:41:00.000Z</time></trkpt>
        <trkpt lat="27.872905" lon="105.24122"><ele>1252</ele><time>2026-08-13T01:41:02.000Z</time></trkpt>
        <trkpt lat="27.872891" lon="105.241215"><ele>1251</ele><time>2026-08-13T01:41:04.000Z</time></trkpt>
        <trkpt lat="27.872864" lon="105.241207"><ele>1251</ele><time>2026-08-13T01:41:07.000Z</time></trkpt>
        <trkpt lat="27.872781" lon="105.241175"><ele>1252</ele><time>2026-08-13T01:41:09.000Z</time></trkpt>
        <trkpt lat="27.872584" lon="105.241103"><ele>1251</ele><time>2026-08-13T01:41:11.000Z</time></trkpt>
        <trkpt lat="27.872556" lon="105.241099"><ele>1251</ele><time>2026-08-13T01:41:14.000Z</time></trkpt>
        <trkpt lat="27.872489" lon="105.241089"><ele>1250</ele><time>2026-08-13T01:41:16.000Z</time></trkpt>
        <trkpt lat="27.872367" lon="105.241068"><ele>1250</ele><time>2026-08-13T01:41:18.000Z</time></trkpt>
        <trkpt lat="27.872207" lon="105.241041"><ele>1249</ele><time>2026-08-13T01:41:20.000Z</time></trkpt>
        <trkpt lat="27.871836" lon="105.241041"><ele>1249</ele><time>2026-08-13T01:41:23.000Z</time></trkpt>
        <trkpt lat="27.871819" lon="105.241048"><ele>1249</ele><time>2026-08-13T01:41:25.000Z</time></trkpt>
        <trkpt lat="27.871804" lon="105.241059"><ele>1249</ele><time>2026-08-13T01:41:27.000Z</time></trkpt>
        <trkpt lat="27.871679" lon="105.241131"><ele>1249</ele><time>2026-08-13T01:41:31.000Z</time></trkpt>
        <trkpt lat="27.871578" lon="105.241183"><ele>1249</ele><time>2026-08-13T01:41:33.000Z</time></trkpt>
        <trkpt lat="27.871429" lon="105.24126"><ele>1250</ele><time>2026-08-13T01:41:35.000Z</time></trkpt>
        <trkpt lat="27.871173" lon="105.241391"><ele>1250</ele><time>2026-08-13T01:41:37.000Z</time></trkpt>
        <trkpt lat="27.871156" lon="105.241406"><ele>1250</ele><time>2026-08-13T01:41:39.000Z</time></trkpt>
        <trkpt lat="27.871148" lon="105.241421"><ele>1250</ele><time>2026-08-13T01:41:41.000Z</time></trkpt>
        <trkpt lat="27.871028" lon="105.24166"><ele>1250</ele><time>2026-08-13T01:41:45.000Z</time></trkpt>
        <trkpt lat="27.87091" lon="105.242136"><ele>1250</ele><time>2026-08-13T01:41:47.000Z</time></trkpt>
        <trkpt lat="27.870906" lon="105.242165"><ele>1251</ele><time>2026-08-13T01:41:49.000Z</time></trkpt>
        <trkpt lat="27.870905" lon="105.242194"><ele>1251</ele><time>2026-08-13T01:41:52.000Z</time></trkpt>
        <trkpt lat="27.870903" lon="105.242292"><ele>1251</ele><time>2026-08-13T01:41:54.000Z</time></trkpt>
        <trkpt lat="27.870896" lon="105.242447"><ele>1251</ele><time>2026-08-13T01:41:56.000Z</time></trkpt>
        <trkpt lat="27.870883" lon="105.242648"><ele>1250</ele><time>2026-08-13T01:41:58.000Z</time></trkpt>
        <trkpt lat="27.870868" lon="105.242777"><ele>1249</ele><time>2026-08-13T01:42:00.000Z</time></trkpt>
        <trkpt lat="27.870844" lon="105.24287"><ele>1249</ele><time>2026-08-13T01:42:02.000Z</time></trkpt>
        <trkpt lat="27.870813" lon="105.242949"><ele>1249</ele><time>2026-08-13T01:42:04.000Z</time></trkpt>
        <trkpt lat="27.870799" lon="105.242986"><ele>1248</ele><time>2026-08-13T01:42:06.000Z</time></trkpt>
        <trkpt lat="27.870686" lon="105.242999"><ele>1240.6956</ele><time>2026-08-13T01:42:08.000Z</time></trkpt>
        <trkpt lat="27.870544" lon="105.243017"><ele>1240.1093</ele><time>2026-08-13T01:42:10.000Z</time></trkpt>
        <trkpt lat="27.870397" lon="105.242989"><ele>1240.1926</ele><time>2026-08-13T01:42:12.000Z</time></trkpt>
        <trkpt lat="27.870224" lon="105.242903"><ele>1240.2295</ele><time>2026-08-13T01:42:14.000Z</time></trkpt>
        <trkpt lat="27.870067" lon="105.242813"><ele>1246</ele><time>2026-08-13T01:42:17.000Z</time></trkpt>
        <trkpt lat="27.869951" lon="105.242754"><ele>1246</ele><time>2026-08-13T01:42:19.000Z</time></trkpt>
        <trkpt lat="27.869823" lon="105.242689"><ele>1245</ele><time>2026-08-13T01:42:21.000Z</time></trkpt>
        <trkpt lat="27.869717" lon="105.242681"><ele>1245</ele><time>2026-08-13T01:42:23.000Z</time></trkpt>
        <trkpt lat="27.869617" lon="105.242674"><ele>1245</ele><time>2026-08-13T01:42:25.000Z</time></trkpt>
        <trkpt lat="27.86946" lon="105.242719"><ele>1244</ele><time>2026-08-13T01:42:28.000Z</time></trkpt>
        <trkpt lat="27.869376" lon="105.242779"><ele>1244</ele><time>2026-08-13T01:42:30.000Z</time></trkpt>
        <trkpt lat="27.869301" lon="105.242835"><ele>1243</ele><time>2026-08-13T01:42:32.000Z</time></trkpt>
        <trkpt lat="27.86922" lon="105.242895"><ele>1243</ele><time>2026-08-13T01:42:34.000Z</time></trkpt>
        <trkpt lat="27.869171" lon="105.242995"><ele>1242</ele><time>2026-08-13T01:42:37.000Z</time></trkpt>
        <trkpt lat="27.869106" lon="105.243152"><ele>1242</ele><time>2026-08-13T01:42:40.000Z</time></trkpt>
        <trkpt lat="27.869053" lon="105.2433"><ele>1242</ele><time>2026-08-13T01:42:42.000Z</time></trkpt>
        <trkpt lat="27.868983" lon="105.243506"><ele>1242</ele><time>2026-08-13T01:42:45.000Z</time></trkpt>
        <trkpt lat="27.868933" lon="105.243638"><ele>1243</ele><time>2026-08-13T01:42:47.000Z</time></trkpt>
        <trkpt lat="27.868874" lon="105.243801"><ele>1244</ele><time>2026-08-13T01:42:49.000Z</time></trkpt>
        <trkpt lat="27.868834" lon="105.243948"><ele>1244</ele><time>2026-08-13T01:42:51.000Z</time></trkpt>
        <trkpt lat="27.868811" lon="105.244084"><ele>1243</ele><time>2026-08-13T01:42:53.000Z</time></trkpt>
        <trkpt lat="27.868794" lon="105.244253"><ele>1243</ele><time>2026-08-13T01:42:55.000Z</time></trkpt>
        <trkpt lat="27.868786" lon="105.244396"><ele>1243</ele><time>2026-08-13T01:42:57.000Z</time></trkpt>
        <trkpt lat="27.868777" lon="105.244758"><ele>1243</ele><time>2026-08-13T01:43:01.000Z</time></trkpt>
        <trkpt lat="27.868778" lon="105.244878"><ele>1243</ele><time>2026-08-13T01:43:03.000Z</time></trkpt>
        <trkpt lat="27.868781" lon="105.245114"><ele>1243</ele><time>2026-08-13T01:43:06.000Z</time></trkpt>
        <trkpt lat="27.868783" lon="105.24522"><ele>1243</ele><time>2026-08-13T01:43:08.000Z</time></trkpt>
        <trkpt lat="27.868783" lon="105.245401"><ele>1243</ele><time>2026-08-13T01:43:11.000Z</time></trkpt>
        <trkpt lat="27.868783" lon="105.245481"><ele>1243</ele><time>2026-08-13T01:43:13.000Z</time></trkpt>
        <trkpt lat="27.868762" lon="105.245511"><ele>1243</ele><time>2026-08-13T01:43:15.000Z</time></trkpt>
        <trkpt lat="27.868734" lon="105.245482"><ele>1244</ele><time>2026-08-13T01:43:17.000Z</time></trkpt>
      </trkseg>
  </trk>
</gpx>